PWSweather.com
Personal Weather Stations
Station Observations
1A3COP
Copperhill Airport Community, Copperhill, TN 37317

Copperhill Airport CommunityCopperhill, TN 37317

Lat: 35.015465, Lon: -84.340598

Elevation: 1830

Station Type: Acurite Pro 5 in 1

Latest ConditionsUpdated 7:56:01 PM EDT Wednesday, Apr 25, 2018
Currently Today's Max Today's Min Today's Average
Temperature 56.8°F13.8°C 63.9°F17.7°C 52.2°F11.2°C 55.8°F13.2°C
Dew Point 51.4°F10.8°C 56.7°F13.7°C 50.6°F10.3°C 52.6°F11.4°C
Winds 2.3 mph NNW3.7 kmh NNW 10.4 mph WNW16.7 kmh WNW - 3.8 mph 6.1 kmh
Wind Gusts 4.6 mph7.4 kmh 13.8 mph22.2 kmh - -
Humidity 82% 96% 74% 89%
Pressure 28.09 in951.2 mb 28.10 in951.6 mb 28.02 in948.9 mb -
Precipitation - 0.06 in1.5 mm - -
Hour Temp Dew Point Humidity Winds Wind Gusts Pressure Precip Precip Rate Daily Precip Total
07:56 PM 56.8°F13.8°C 51.4°F10.8°C 82% 2.3 mph NNW3.7 kmh NNW 4.6 mph7.4 kmh 28.09 in951.2 mb - 0.00 in0.0 mm 0.06 in1.5 mm
07:55 PM 56.8°F13.8°C 51.4°F10.8°C 82% 2.3 mph E3.7 kmh E 3.5 mph5.6 kmh 28.09 in951.2 mb - 0.00 in0.0 mm 0.06 in1.5 mm
07:54 PM 56.8°F13.8°C 51.4°F10.8°C 82% 3.5 mph N5.6 kmh N 3.5 mph5.6 kmh 28.09 in951.2 mb - 0.00 in0.0 mm 0.06 in1.5 mm
07:53 PM 57.0°F13.9°C 51.5°F10.8°C 82% 3.5 mph NW5.6 kmh NW 5.8 mph9.3 kmh 28.09 in951.2 mb - 0.00 in0.0 mm 0.06 in1.5 mm
07:52 PM 57.0°F13.9°C 51.6°F10.9°C 82% 2.3 mph N3.7 kmh N 3.5 mph5.6 kmh 28.09 in951.2 mb - 0.00 in0.0 mm 0.06 in1.5 mm
07:51 PM 57.0°F13.9°C 51.6°F10.9°C 82% 3.5 mph N5.6 kmh N 3.5 mph5.6 kmh 28.09 in951.2 mb - 0.00 in0.0 mm 0.06 in1.5 mm
07:50 PM 57.0°F13.9°C 51.6°F10.9°C 82% 3.5 mph N5.6 kmh N 3.5 mph5.6 kmh 28.09 in951.2 mb - 0.00 in0.0 mm 0.06 in1.5 mm
07:49 PM 57.0°F13.9°C 51.6°F10.9°C 82% 3.5 mph NNE5.6 kmh NNE 4.6 mph7.4 kmh 28.09 in951.2 mb - 0.00 in0.0 mm 0.06 in1.5 mm
07:48 PM 57.0°F13.9°C 51.6°F10.9°C 82% 2.3 mph NNE3.7 kmh NNE 4.6 mph7.4 kmh 28.09 in951.2 mb - 0.00 in0.0 mm 0.06 in1.5 mm
07:47 PM 57.0°F13.9°C 51.6°F10.9°C 82% 3.5 mph NNE5.6 kmh NNE 3.5 mph5.6 kmh 28.09 in951.2 mb - 0.00 in0.0 mm 0.06 in1.5 mm
07:46 PM 57.0°F13.9°C 51.6°F10.9°C 82% 4.6 mph NNW7.4 kmh NNW 5.8 mph9.3 kmh 28.09 in951.2 mb - 0.00 in0.0 mm 0.06 in1.5 mm
07:45 PM 57.0°F13.9°C 51.6°F10.9°C 82% 3.5 mph E5.6 kmh E 5.8 mph9.3 kmh 28.09 in951.2 mb - 0.00 in0.0 mm 0.06 in1.5 mm
07:44 PM 57.0°F13.9°C 51.6°F10.9°C 82% 4.6 mph NW7.4 kmh NW 5.8 mph9.3 kmh 28.09 in951.2 mb - 0.00 in0.0 mm 0.06 in1.5 mm
07:43 PM 57.0°F13.9°C 51.6°F10.9°C 82% 3.5 mph NNE5.6 kmh NNE 5.8 mph9.3 kmh 28.09 in951.2 mb - 0.00 in0.0 mm 0.06 in1.5 mm
07:42 PM 57.0°F13.9°C 51.6°F10.9°C 82% 3.5 mph NNE5.6 kmh NNE 4.6 mph7.4 kmh 28.09 in951.2 mb - 0.00 in0.0 mm 0.06 in1.5 mm
07:41 PM 57.0°F13.9°C 51.6°F10.9°C 82% 3.5 mph NNE5.6 kmh NNE 4.6 mph7.4 kmh 28.09 in951.2 mb - 0.00 in0.0 mm 0.06 in1.5 mm
07:40 PM 57.0°F13.9°C 51.6°F10.9°C 82% 3.5 mph NW5.6 kmh NW 3.5 mph5.6 kmh 28.09 in951.2 mb - 0.00 in0.0 mm 0.06 in1.5 mm
07:39 PM 57.0°F13.9°C 51.6°F10.9°C 82% 3.5 mph N5.6 kmh N 4.6 mph7.4 kmh 28.09 in951.2 mb - 0.00 in0.0 mm 0.06 in1.5 mm
07:38 PM 57.0°F13.9°C 51.6°F10.9°C 82% 3.5 mph N5.6 kmh N 4.6 mph7.4 kmh 28.09 in951.2 mb - 0.00 in0.0 mm 0.06 in1.5 mm
07:37 PM 57.0°F13.9°C 51.6°F10.9°C 82% 3.5 mph NNE5.6 kmh NNE 4.6 mph7.4 kmh 28.09 in951.2 mb - 0.00 in0.0 mm 0.06 in1.5 mm
07:36 PM 57.0°F13.9°C 51.6°F10.9°C 82% 3.5 mph N5.6 kmh N 4.6 mph7.4 kmh 28.09 in951.2 mb - 0.00 in0.0 mm 0.06 in1.5 mm
07:35 PM 57.0°F13.9°C 51.6°F10.9°C 82% 5.8 mph N9.3 kmh N 5.8 mph9.3 kmh 28.09 in951.2 mb - 0.01 in0.3 mm 0.06 in1.5 mm
07:34 PM 57.0°F13.9°C 51.6°F10.9°C 82% 5.8 mph WNW9.3 kmh WNW 8.1 mph13.0 kmh 28.09 in951.2 mb - 0.01 in0.3 mm 0.06 in1.5 mm
07:33 PM 57.0°F13.9°C 51.9°F11.1°C 83% 3.5 mph NE5.6 kmh NE 6.9 mph11.1 kmh 28.09 in951.2 mb - 0.00 in0.0 mm 0.05 in1.3 mm
07:32 PM 57.0°F13.9°C 51.9°F11.1°C 83% 3.5 mph N5.6 kmh N 4.6 mph7.4 kmh 28.09 in951.2 mb - 0.00 in0.0 mm 0.05 in1.3 mm
07:31 PM 57.0°F13.9°C 51.9°F11.1°C 83% 4.6 mph N7.4 kmh N 5.8 mph9.3 kmh 28.09 in951.2 mb - 0.00 in0.0 mm 0.05 in1.3 mm
07:30 PM 57.0°F13.9°C 51.9°F11.1°C 83% 3.5 mph NNE5.6 kmh NNE 5.8 mph9.3 kmh 28.09 in951.2 mb - 0.00 in0.0 mm 0.05 in1.3 mm
07:29 PM 57.0°F13.9°C 51.9°F11.1°C 83% 4.6 mph ENE7.4 kmh ENE 5.8 mph9.3 kmh 28.09 in951.2 mb - 0.00 in0.0 mm 0.05 in1.3 mm
07:28 PM 57.0°F13.9°C 51.9°F11.1°C 83% 4.6 mph NNE7.4 kmh NNE 5.8 mph9.3 kmh 28.09 in951.2 mb - 0.00 in0.0 mm 0.05 in1.3 mm
07:27 PM 57.0°F13.9°C 51.9°F11.1°C 83% 3.5 mph NE5.6 kmh NE 4.6 mph7.4 kmh 28.09 in951.2 mb - 0.00 in0.0 mm 0.05 in1.3 mm
07:26 PM 57.0°F13.9°C 51.9°F11.1°C 83% 4.6 mph N7.4 kmh N 4.6 mph7.4 kmh 28.09 in951.2 mb - 0.00 in0.0 mm 0.05 in1.3 mm
07:25 PM 57.0°F13.9°C 51.9°F11.1°C 83% 5.8 mph N9.3 kmh N 5.8 mph9.3 kmh 28.09 in951.2 mb - 0.00 in0.0 mm 0.05 in1.3 mm
07:24 PM 57.0°F13.9°C 51.9°F11.1°C 83% 4.6 mph N7.4 kmh N 6.9 mph11.1 kmh 28.09 in951.2 mb - 0.00 in0.0 mm 0.05 in1.3 mm
07:23 PM 57.0°F13.9°C 51.9°F11.1°C 83% 3.5 mph WNW5.6 kmh WNW 3.5 mph5.6 kmh 28.09 in951.2 mb - 0.00 in0.0 mm 0.05 in1.3 mm
07:22 PM 57.1°F13.9°C 52.0°F11.1°C 83% 3.5 mph NW5.6 kmh NW 4.6 mph7.4 kmh 28.09 in951.2 mb - 0.00 in0.0 mm 0.05 in1.3 mm
07:21 PM 57.2°F14.0°C 52.1°F11.2°C 83% 3.5 mph NNW5.6 kmh NNW 3.5 mph5.6 kmh 28.09 in951.2 mb - 0.00 in0.0 mm 0.05 in1.3 mm
07:20 PM 57.2°F14.0°C 52.1°F11.2°C 83% 4.6 mph N7.4 kmh N 4.6 mph7.4 kmh 28.09 in951.2 mb - 0.00 in0.0 mm 0.05 in1.3 mm
07:19 PM 57.2°F14.0°C 52.1°F11.2°C 83% 3.5 mph NW5.6 kmh NW 5.8 mph9.3 kmh 28.09 in951.2 mb - 0.00 in0.0 mm 0.05 in1.3 mm
07:18 PM 57.2°F14.0°C 51.8°F11.0°C 82% 4.6 mph NNE7.4 kmh NNE 5.8 mph9.3 kmh 28.09 in951.2 mb - 0.00 in0.0 mm 0.05 in1.3 mm
07:17 PM 57.2°F14.0°C 51.8°F11.0°C 82% 4.6 mph NW7.4 kmh NW 5.8 mph9.3 kmh 28.09 in951.2 mb - 0.00 in0.0 mm 0.05 in1.3 mm
07:16 PM 57.3°F14.1°C 51.8°F11.0°C 82% 3.5 mph NNE5.6 kmh NNE 4.6 mph7.4 kmh 28.09 in951.2 mb - 0.00 in0.0 mm 0.05 in1.3 mm
07:15 PM 57.4°F14.1°C 51.9°F11.1°C 82% 3.5 mph N5.6 kmh N 3.5 mph5.6 kmh 28.09 in951.2 mb - 0.00 in0.0 mm 0.05 in1.3 mm
07:14 PM 57.4°F14.1°C 52.3°F11.3°C 83% 4.6 mph NE7.4 kmh NE 5.8 mph9.3 kmh 28.09 in951.2 mb - 0.00 in0.0 mm 0.05 in1.3 mm
07:13 PM 57.4°F14.1°C 52.3°F11.3°C 83% 3.5 mph N5.6 kmh N 4.6 mph7.4 kmh 28.09 in951.2 mb - 0.00 in0.0 mm 0.05 in1.3 mm
07:12 PM 57.4°F14.1°C 52.3°F11.3°C 83% 2.3 mph NW3.7 kmh NW 4.6 mph7.4 kmh 28.09 in951.2 mb - 0.00 in0.0 mm 0.05 in1.3 mm
07:11 PM 57.4°F14.1°C 52.3°F11.3°C 83% 2.3 mph NNW3.7 kmh NNW 3.5 mph5.6 kmh 28.09 in951.2 mb - 0.00 in0.0 mm 0.05 in1.3 mm
07:10 PM 57.4°F14.1°C 52.3°F11.3°C 83% 3.5 mph N5.6 kmh N 2.3 mph3.7 kmh 28.09 in951.2 mb - 0.00 in0.0 mm 0.05 in1.3 mm
07:09 PM 57.4°F14.1°C 52.3°F11.3°C 83% 3.5 mph N5.6 kmh N 4.6 mph7.4 kmh 28.09 in951.2 mb - 0.00 in0.0 mm 0.05 in1.3 mm
07:08 PM 57.4°F14.1°C 52.3°F11.3°C 83% 3.5 mph N5.6 kmh N 4.6 mph7.4 kmh 28.09 in951.2 mb - 0.00 in0.0 mm 0.05 in1.3 mm
07:07 PM 57.4°F14.1°C 52.3°F11.3°C 83% 3.5 mph NNW5.6 kmh NNW 4.6 mph7.4 kmh 28.09 in951.2 mb - 0.00 in0.0 mm 0.05 in1.3 mm
07:06 PM 57.4°F14.1°C 52.3°F11.3°C 83% 3.5 mph NNE5.6 kmh NNE 4.6 mph7.4 kmh 28.09 in951.2 mb - 0.00 in0.0 mm 0.05 in1.3 mm
07:05 PM 57.4°F14.1°C 52.3°F11.3°C 83% 5.8 mph N9.3 kmh N 5.8 mph9.3 kmh 28.09 in951.2 mb - 0.00 in0.0 mm 0.05 in1.3 mm
07:04 PM 57.5°F14.2°C 52.4°F11.3°C 83% 4.6 mph NW7.4 kmh NW 8.1 mph13.0 kmh 28.09 in951.2 mb - 0.00 in0.0 mm 0.05 in1.3 mm
07:03 PM 57.6°F14.2°C 52.5°F11.4°C 83% 3.5 mph N5.6 kmh N 5.8 mph9.3 kmh 28.09 in951.2 mb - 0.00 in0.0 mm 0.05 in1.3 mm
07:02 PM 57.6°F14.2°C 52.5°F11.4°C 83% 3.5 mph NW5.6 kmh NW 3.5 mph5.6 kmh 28.09 in951.2 mb - 0.00 in0.0 mm 0.05 in1.3 mm
07:01 PM 57.6°F14.2°C 52.5°F11.4°C 83% 2.3 mph WNW3.7 kmh WNW 3.5 mph5.6 kmh 28.09 in951.2 mb - 0.00 in0.0 mm 0.05 in1.3 mm
07:00 PM 57.6°F14.2°C 52.5°F11.4°C 83% 3.5 mph NNW5.6 kmh NNW 3.5 mph5.6 kmh 28.09 in951.2 mb - 0.00 in0.0 mm 0.05 in1.3 mm
06:59 PM 57.6°F14.2°C 52.5°F11.4°C 83% 2.3 mph NNW3.7 kmh NNW 4.6 mph7.4 kmh 28.09 in951.2 mb - 0.00 in0.0 mm 0.05 in1.3 mm
06:58 PM 57.6°F14.2°C 52.5°F11.4°C 83% 3.5 mph WNW5.6 kmh WNW 5.8 mph9.3 kmh 28.09 in951.2 mb - 0.00 in0.0 mm 0.05 in1.3 mm
06:57 PM 57.6°F14.2°C 52.5°F11.4°C 83% 3.5 mph N5.6 kmh N 5.8 mph9.3 kmh 28.09 in951.2 mb - 0.00 in0.0 mm 0.05 in1.3 mm
06:56 PM 57.6°F14.2°C 52.5°F11.4°C 83% 4.6 mph NW7.4 kmh NW 5.8 mph9.3 kmh 28.09 in951.2 mb - 0.00 in0.0 mm 0.05 in1.3 mm
06:55 PM 57.6°F14.2°C 52.5°F11.4°C 83% 3.5 mph NW5.6 kmh NW 5.8 mph9.3 kmh 28.09 in951.2 mb - 0.00 in0.0 mm 0.05 in1.3 mm
06:54 PM 57.6°F14.2°C 52.5°F11.4°C 83% 3.5 mph NE5.6 kmh NE 3.5 mph5.6 kmh 28.09 in951.2 mb - 0.00 in0.0 mm 0.05 in1.3 mm
06:53 PM 57.6°F14.2°C 52.5°F11.4°C 83% 3.5 mph WNW5.6 kmh WNW 5.8 mph9.3 kmh 28.09 in951.2 mb - 0.00 in0.0 mm 0.05 in1.3 mm
06:52 PM 57.6°F14.2°C 52.5°F11.4°C 83% 3.5 mph WNW5.6 kmh WNW 4.6 mph7.4 kmh 28.09 in951.2 mb - 0.00 in0.0 mm 0.05 in1.3 mm
06:51 PM 57.6°F14.2°C 52.5°F11.4°C 83% 3.5 mph N5.6 kmh N 4.6 mph7.4 kmh 28.09 in951.2 mb - 0.00 in0.0 mm 0.05 in1.3 mm
06:50 PM 57.6°F14.2°C 52.5°F11.4°C 83% 3.5 mph WNW5.6 kmh WNW 4.6 mph7.4 kmh 28.09 in951.2 mb - 0.00 in0.0 mm 0.05 in1.3 mm
06:49 PM 57.6°F14.2°C 52.5°F11.4°C 83% 4.6 mph N7.4 kmh N 4.6 mph7.4 kmh 28.09 in951.2 mb - 0.00 in0.0 mm 0.05 in1.3 mm
06:48 PM 57.6°F14.2°C 52.5°F11.4°C 83% 4.6 mph NNW7.4 kmh NNW 5.8 mph9.3 kmh 28.09 in951.2 mb - 0.00 in0.0 mm 0.05 in1.3 mm
06:47 PM 57.6°F14.2°C 52.5°F11.4°C 83% 4.6 mph NW7.4 kmh NW 5.8 mph9.3 kmh 28.09 in951.2 mb - 0.00 in0.0 mm 0.05 in1.3 mm
06:46 PM 57.6°F14.2°C 52.5°F11.4°C 83% 4.6 mph W7.4 kmh W 6.9 mph11.1 kmh 28.09 in951.2 mb - 0.00 in0.0 mm 0.05 in1.3 mm
06:45 PM 57.6°F14.2°C 52.5°F11.4°C 83% 4.6 mph N7.4 kmh N 5.8 mph9.3 kmh 28.09 in951.2 mb - 0.00 in0.0 mm 0.05 in1.3 mm
06:44 PM 57.6°F14.2°C 52.5°F11.4°C 83% 4.6 mph NW7.4 kmh NW 5.8 mph9.3 kmh 28.09 in951.2 mb - 0.00 in0.0 mm 0.05 in1.3 mm
06:43 PM 57.6°F14.2°C 52.5°F11.4°C 83% 6.9 mph WNW11.1 kmh WNW 6.9 mph11.1 kmh 28.09 in951.2 mb - 0.00 in0.0 mm 0.05 in1.3 mm
06:42 PM 57.6°F14.2°C 52.5°F11.4°C 83% 6.9 mph WNW11.1 kmh WNW 8.1 mph13.0 kmh 28.09 in951.2 mb - 0.00 in0.0 mm 0.05 in1.3 mm
06:41 PM 57.6°F14.2°C 52.5°F11.4°C 83% 4.6 mph SSW7.4 kmh SSW 8.1 mph13.0 kmh 28.09 in951.2 mb - 0.00 in0.0 mm 0.05 in1.3 mm
06:40 PM 57.6°F14.2°C 52.5°F11.4°C 83% 4.6 mph WNW7.4 kmh WNW 5.8 mph9.3 kmh 28.09 in951.2 mb - 0.00 in0.0 mm 0.05 in1.3 mm
06:39 PM 57.6°F14.2°C 52.5°F11.4°C 83% 4.6 mph N7.4 kmh N 5.8 mph9.3 kmh 28.09 in951.2 mb - 0.00 in0.0 mm 0.05 in1.3 mm
06:38 PM 57.6°F14.2°C 52.5°F11.4°C 83% 5.8 mph NNW9.3 kmh NNW 5.8 mph9.3 kmh 28.09 in951.2 mb - 0.00 in0.0 mm 0.05 in1.3 mm
06:37 PM 57.7°F14.3°C 52.2°F11.2°C 82% 9.2 mph NNW14.8 kmh NNW 9.2 mph14.8 kmh 28.09 in951.2 mb - 0.00 in0.0 mm 0.05 in1.3 mm
06:36 PM 57.8°F14.3°C 52.3°F11.3°C 82% 10.4 mph WNW16.7 kmh WNW 11.5 mph18.5 kmh 28.08 in950.9 mb - 0.00 in0.0 mm 0.05 in1.3 mm
06:35 PM 57.9°F14.4°C 52.5°F11.4°C 82% 8.1 mph W13.0 kmh W 10.4 mph16.7 kmh 28.08 in950.9 mb - 0.00 in0.0 mm 0.05 in1.3 mm
06:34 PM 58.1°F14.5°C 52.6°F11.4°C 82% 6.9 mph N11.1 kmh N 10.4 mph16.7 kmh 28.08 in950.9 mb - 0.00 in0.0 mm 0.05 in1.3 mm
06:33 PM 58.2°F14.6°C 52.7°F11.5°C 82% 5.8 mph N9.3 kmh N 8.1 mph13.0 kmh 28.08 in950.9 mb - 0.00 in0.0 mm 0.05 in1.3 mm
06:32 PM 58.5°F14.7°C 52.7°F11.5°C 81% 6.9 mph N11.1 kmh N 6.9 mph11.1 kmh 28.08 in950.9 mb - 0.00 in0.0 mm 0.05 in1.3 mm
06:31 PM 58.7°F14.8°C 52.9°F11.6°C 81% 4.6 mph N7.4 kmh N 9.2 mph14.8 kmh 28.08 in950.9 mb - 0.00 in0.0 mm 0.05 in1.3 mm
06:30 PM 58.8°F14.9°C 53.0°F11.7°C 81% 3.5 mph NNW5.6 kmh NNW 4.6 mph7.4 kmh 28.08 in950.9 mb - 0.00 in0.0 mm 0.05 in1.3 mm
06:29 PM 58.8°F14.9°C 53.0°F11.7°C 81% 3.5 mph N5.6 kmh N 4.6 mph7.4 kmh 28.08 in950.9 mb - 0.00 in0.0 mm 0.05 in1.3 mm
06:28 PM 58.9°F14.9°C 52.7°F11.5°C 80% 4.6 mph NNE7.4 kmh NNE 5.8 mph9.3 kmh 28.08 in950.9 mb - 0.00 in0.0 mm 0.05 in1.3 mm
06:27 PM 59.0°F15.0°C 52.8°F11.6°C 80% 3.5 mph NW5.6 kmh NW 5.8 mph9.3 kmh 28.08 in950.9 mb - 0.00 in0.0 mm 0.05 in1.3 mm
06:26 PM 59.0°F15.0°C 52.8°F11.6°C 80% 4.6 mph NW7.4 kmh NW 5.8 mph9.3 kmh 28.08 in950.9 mb - 0.00 in0.0 mm 0.05 in1.3 mm
06:25 PM 59.1°F15.1°C 52.9°F11.6°C 80% 5.8 mph NNW9.3 kmh NNW 5.8 mph9.3 kmh 28.08 in950.9 mb - 0.00 in0.0 mm 0.05 in1.3 mm
06:24 PM 59.2°F15.1°C 53.0°F11.7°C 80% 4.6 mph NW7.4 kmh NW 5.8 mph9.3 kmh 28.08 in950.9 mb - 0.00 in0.0 mm 0.05 in1.3 mm
06:23 PM 59.2°F15.1°C 53.0°F11.7°C 80% 4.6 mph NW7.4 kmh NW 5.8 mph9.3 kmh 28.08 in950.9 mb - 0.00 in0.0 mm 0.05 in1.3 mm
06:22 PM 59.2°F15.1°C 53.0°F11.7°C 80% 5.8 mph N9.3 kmh N 4.6 mph7.4 kmh 28.08 in950.9 mb - 0.00 in0.0 mm 0.05 in1.3 mm
06:21 PM 59.2°F15.1°C 53.0°F11.7°C 80% 6.9 mph N11.1 kmh N 6.9 mph11.1 kmh 28.08 in950.9 mb - 0.00 in0.0 mm 0.05 in1.3 mm
06:20 PM 59.2°F15.1°C 53.0°F11.7°C 80% 5.8 mph N9.3 kmh N 9.2 mph14.8 kmh 28.08 in950.9 mb - 0.00 in0.0 mm 0.05 in1.3 mm
06:19 PM 59.4°F15.2°C 53.2°F11.8°C 80% 3.5 mph WNW5.6 kmh WNW 5.8 mph9.3 kmh 28.08 in950.9 mb - 0.00 in0.0 mm 0.05 in1.3 mm
06:18 PM 59.4°F15.2°C 53.2°F11.8°C 80% 5.8 mph N9.3 kmh N 6.9 mph11.1 kmh 28.08 in950.9 mb - 0.00 in0.0 mm 0.05 in1.3 mm
06:17 PM 59.4°F15.2°C 52.9°F11.6°C 79% 5.8 mph NW9.3 kmh NW 9.2 mph14.8 kmh 28.08 in950.9 mb - 0.00 in0.0 mm 0.05 in1.3 mm
06:16 PM 59.3°F15.2°C 53.1°F11.7°C 80% 5.8 mph NNW9.3 kmh NNW 6.9 mph11.1 kmh 28.08 in950.9 mb - 0.00 in0.0 mm 0.05 in1.3 mm
06:15 PM 59.1°F15.1°C 53.0°F11.7°C 80% 3.5 mph NW5.6 kmh NW 5.8 mph9.3 kmh 28.08 in950.9 mb - 0.00 in0.0 mm 0.05 in1.3 mm
06:14 PM 58.9°F14.9°C 52.7°F11.5°C 80% 3.5 mph NW5.6 kmh NW 3.5 mph5.6 kmh 28.08 in950.9 mb - 0.00 in0.0 mm 0.05 in1.3 mm
06:13 PM 58.6°F14.8°C 52.5°F11.4°C 80% 4.6 mph N7.4 kmh N 5.8 mph9.3 kmh 28.08 in950.9 mb - 0.00 in0.0 mm 0.05 in1.3 mm
06:12 PM 58.6°F14.8°C 52.8°F11.6°C 81% 3.5 mph E5.6 kmh E 5.8 mph9.3 kmh 28.08 in950.9 mb - 0.00 in0.0 mm 0.05 in1.3 mm
06:11 PM 58.6°F14.8°C 52.8°F11.6°C 81% 4.6 mph NW7.4 kmh NW 5.8 mph9.3 kmh 28.08 in950.9 mb - 0.00 in0.0 mm 0.05 in1.3 mm
06:10 PM 58.7°F14.8°C 52.8°F11.6°C 81% 3.5 mph W5.6 kmh W 5.8 mph9.3 kmh 28.08 in950.9 mb - 0.00 in0.0 mm 0.05 in1.3 mm
06:09 PM 58.8°F14.9°C 52.6°F11.4°C 80% 4.6 mph WNW7.4 kmh WNW 5.8 mph9.3 kmh 28.08 in950.9 mb - 0.00 in0.0 mm 0.05 in1.3 mm
06:08 PM 58.8°F14.9°C 52.6°F11.4°C 80% 4.6 mph N7.4 kmh N 5.8 mph9.3 kmh 28.08 in950.9 mb - 0.00 in0.0 mm 0.05 in1.3 mm
06:07 PM 58.8°F14.9°C 52.6°F11.4°C 80% 3.5 mph W5.6 kmh W 5.8 mph9.3 kmh 28.08 in950.9 mb - 0.00 in0.0 mm 0.05 in1.3 mm
06:06 PM 58.8°F14.9°C 52.6°F11.4°C 80% 3.5 mph NNE5.6 kmh NNE 3.5 mph5.6 kmh 28.08 in950.9 mb - 0.00 in0.0 mm 0.05 in1.3 mm
06:05 PM 58.8°F14.9°C 52.6°F11.4°C 80% 4.6 mph NW7.4 kmh NW 5.8 mph9.3 kmh 28.08 in950.9 mb - 0.00 in0.0 mm 0.05 in1.3 mm
06:04 PM 58.8°F14.9°C 52.6°F11.4°C 80% 5.8 mph N9.3 kmh N 9.2 mph14.8 kmh 28.08 in950.9 mb - 0.00 in0.0 mm 0.05 in1.3 mm
06:03 PM 58.9°F14.9°C 53.1°F11.7°C 81% 8.1 mph N13.0 kmh N 9.2 mph14.8 kmh 28.08 in950.9 mb - 0.00 in0.0 mm 0.05 in1.3 mm
06:02 PM 59.1°F15.1°C 53.2°F11.8°C 81% 5.8 mph NE9.3 kmh NE 9.2 mph14.8 kmh 28.08 in950.9 mb - 0.00 in0.0 mm 0.05 in1.3 mm
06:01 PM 59.2°F15.1°C 53.4°F11.9°C 81% 4.6 mph W7.4 kmh W 4.6 mph7.4 kmh 28.08 in950.9 mb - 0.00 in0.0 mm 0.05 in1.3 mm
06:00 PM 59.4°F15.2°C 53.2°F11.8°C 80% 3.5 mph WSW5.6 kmh WSW 6.9 mph11.1 kmh 28.07 in950.6 mb - 0.00 in0.0 mm 0.05 in1.3 mm
05:59 PM 59.4°F15.2°C 53.2°F11.8°C 80% 4.6 mph N7.4 kmh N 5.8 mph9.3 kmh 28.07 in950.6 mb - 0.00 in0.0 mm 0.05 in1.3 mm
05:58 PM 59.5°F15.3°C 53.3°F11.8°C 80% 4.6 mph NW7.4 kmh NW 5.8 mph9.3 kmh 28.07 in950.6 mb - 0.00 in0.0 mm 0.05 in1.3 mm
05:57 PM 59.5°F15.3°C 53.3°F11.8°C 80% 4.6 mph WNW7.4 kmh WNW 4.6 mph7.4 kmh 28.07 in950.6 mb - 0.00 in0.0 mm 0.05 in1.3 mm
05:56 PM 59.5°F15.3°C 53.3°F11.8°C 80% 5.8 mph WSW9.3 kmh WSW 5.8 mph9.3 kmh 28.07 in950.6 mb - 0.00 in0.0 mm 0.05 in1.3 mm
05:55 PM 59.5°F15.3°C 53.3°F11.8°C 80% 4.6 mph WNW7.4 kmh WNW 9.2 mph14.8 kmh 28.07 in950.6 mb - 0.00 in0.0 mm 0.05 in1.3 mm
05:54 PM 59.6°F15.3°C 53.4°F11.9°C 80% 5.8 mph N9.3 kmh N 5.8 mph9.3 kmh 28.07 in950.6 mb - 0.00 in0.0 mm 0.05 in1.3 mm
05:53 PM 59.7°F15.4°C 53.5°F11.9°C 80% 5.8 mph NNW9.3 kmh NNW 6.9 mph11.1 kmh 28.07 in950.6 mb - 0.00 in0.0 mm 0.05 in1.3 mm
05:52 PM 59.7°F15.4°C 53.5°F11.9°C 80% 4.6 mph NNW7.4 kmh NNW 5.8 mph9.3 kmh 28.07 in950.6 mb - 0.00 in0.0 mm 0.05 in1.3 mm
05:51 PM 59.7°F15.4°C 53.5°F11.9°C 80% 5.8 mph NNE9.3 kmh NNE 6.9 mph11.1 kmh 28.07 in950.6 mb - 0.00 in0.0 mm 0.05 in1.3 mm
05:50 PM 59.7°F15.4°C 53.9°F12.2°C 81% 4.6 mph N7.4 kmh N 6.9 mph11.1 kmh 28.07 in950.6 mb - 0.00 in0.0 mm 0.05 in1.3 mm
05:49 PM 59.7°F15.4°C 53.9°F12.2°C 81% 4.6 mph NE7.4 kmh NE 5.8 mph9.3 kmh 28.07 in950.6 mb - 0.00 in0.0 mm 0.05 in1.3 mm
05:48 PM 59.7°F15.4°C 53.9°F12.2°C 81% 4.6 mph NE7.4 kmh NE 5.8 mph9.3 kmh 28.07 in950.6 mb - 0.00 in0.0 mm 0.05 in1.3 mm
05:47 PM 59.7°F15.4°C 53.5°F11.9°C 80% 3.5 mph NW5.6 kmh NW 5.8 mph9.3 kmh 28.07 in950.6 mb - 0.00 in0.0 mm 0.05 in1.3 mm
05:46 PM 59.7°F15.4°C 53.2°F11.8°C 79% 3.5 mph NW5.6 kmh NW 5.8 mph9.3 kmh 28.07 in950.6 mb - 0.00 in0.0 mm 0.05 in1.3 mm
05:45 PM 59.8°F15.4°C 53.2°F11.8°C 79% 4.6 mph NW7.4 kmh NW 4.6 mph7.4 kmh 28.07 in950.6 mb - 0.00 in0.0 mm 0.05 in1.3 mm
05:44 PM 60.1°F15.6°C 53.5°F11.9°C 79% 6.9 mph NW11.1 kmh NW 9.2 mph14.8 kmh 28.07 in950.6 mb - 0.00 in0.0 mm 0.05 in1.3 mm
05:43 PM 60.4°F15.8°C 53.9°F12.2°C 79% 8.1 mph N13.0 kmh N 9.2 mph14.8 kmh 28.07 in950.6 mb - 0.00 in0.0 mm 0.05 in1.3 mm
05:42 PM 60.6°F15.9°C 53.7°F12.1°C 78% 8.1 mph W13.0 kmh W 9.2 mph14.8 kmh 28.07 in950.6 mb - 0.00 in0.0 mm 0.05 in1.3 mm
05:41 PM 60.7°F15.9°C 53.5°F11.9°C 77% 6.9 mph NW11.1 kmh NW 9.2 mph14.8 kmh 28.07 in950.6 mb - 0.00 in0.0 mm 0.05 in1.3 mm
05:40 PM 60.8°F16.0°C 53.6°F12.0°C 77% 6.9 mph W11.1 kmh W 8.1 mph13.0 kmh 28.07 in950.6 mb - 0.00 in0.0 mm 0.05 in1.3 mm
05:39 PM 61.3°F16.3°C 53.6°F12.0°C 76% 6.9 mph NNW11.1 kmh NNW 8.1 mph13.0 kmh 28.07 in950.6 mb - 0.00 in0.0 mm 0.05 in1.3 mm
05:38 PM 62.1°F16.7°C 54.4°F12.4°C 76% 8.1 mph W13.0 kmh W 10.4 mph16.7 kmh 28.07 in950.6 mb - 0.00 in0.0 mm 0.05 in1.3 mm
05:37 PM 62.2°F16.8°C 54.5°F12.5°C 76% 4.6 mph W7.4 kmh W 8.1 mph13.0 kmh 28.07 in950.6 mb - 0.00 in0.0 mm 0.05 in1.3 mm
05:36 PM 62.3°F16.8°C 54.6°F12.6°C 76% 4.6 mph WNW7.4 kmh WNW 6.9 mph11.1 kmh 28.07 in950.6 mb - 0.00 in0.0 mm 0.05 in1.3 mm
05:35 PM 62.2°F16.8°C 54.6°F12.6°C 76% 4.6 mph N7.4 kmh N 6.9 mph11.1 kmh 28.07 in950.6 mb - 0.00 in0.0 mm 0.05 in1.3 mm
05:34 PM 62.1°F16.7°C 54.4°F12.4°C 76% 6.9 mph ENE11.1 kmh ENE 6.9 mph11.1 kmh 28.07 in950.6 mb - 0.00 in0.0 mm 0.05 in1.3 mm
05:33 PM 62.0°F16.7°C 54.7°F12.6°C 77% 5.8 mph NNW9.3 kmh NNW 8.1 mph13.0 kmh 28.07 in950.6 mb - 0.00 in0.0 mm 0.05 in1.3 mm
05:32 PM 61.9°F16.6°C 54.2°F12.3°C 76% 5.8 mph NW9.3 kmh NW 5.8 mph9.3 kmh 28.07 in950.6 mb - 0.00 in0.0 mm 0.05 in1.3 mm
05:31 PM 61.9°F16.6°C 53.9°F12.2°C 75% 8.1 mph NW13.0 kmh NW 10.4 mph16.7 kmh 28.07 in950.6 mb - 0.00 in0.0 mm 0.05 in1.3 mm
05:30 PM 62.0°F16.7°C 54.0°F12.2°C 75% 8.1 mph W13.0 kmh W 10.4 mph16.7 kmh 28.07 in950.6 mb - 0.00 in0.0 mm 0.05 in1.3 mm
05:29 PM 62.1°F16.7°C 54.1°F12.3°C 75% 8.1 mph NW13.0 kmh NW 12.7 mph20.4 kmh 28.07 in950.6 mb - 0.00 in0.0 mm 0.05 in1.3 mm
05:28 PM 62.1°F16.7°C 54.4°F12.4°C 76% 6.9 mph WNW11.1 kmh WNW 12.7 mph20.4 kmh 28.07 in950.6 mb - 0.00 in0.0 mm 0.05 in1.3 mm
05:27 PM 62.0°F16.7°C 54.4°F12.4°C 76% 9.2 mph NW14.8 kmh NW 9.2 mph14.8 kmh 28.07 in950.6 mb - 0.00 in0.0 mm 0.05 in1.3 mm
05:26 PM 61.5°F16.4°C 54.2°F12.3°C 77% 6.9 mph NW11.1 kmh NW 13.8 mph22.2 kmh 28.07 in950.6 mb - 0.00 in0.0 mm 0.05 in1.3 mm
05:25 PM 60.9°F16.1°C 54.0°F12.2°C 78% 5.8 mph WSW9.3 kmh WSW 6.9 mph11.1 kmh 28.07 in950.6 mb - 0.00 in0.0 mm 0.05 in1.3 mm
05:24 PM 60.4°F15.8°C 53.8°F12.1°C 79% 5.8 mph W9.3 kmh W 5.8 mph9.3 kmh 28.07 in950.6 mb - 0.00 in0.0 mm 0.05 in1.3 mm
05:23 PM 60.1°F15.6°C 53.9°F12.2°C 80% 8.1 mph NNW13.0 kmh NNW 9.2 mph14.8 kmh 28.07 in950.6 mb - 0.00 in0.0 mm 0.05 in1.3 mm
05:22 PM 59.7°F15.4°C 53.5°F11.9°C 80% 6.9 mph WNW11.1 kmh WNW 9.2 mph14.8 kmh 28.07 in950.6 mb - 0.00 in0.0 mm 0.05 in1.3 mm
05:21 PM 59.7°F15.4°C 53.8°F12.1°C 81% 4.6 mph WNW7.4 kmh WNW 9.2 mph14.8 kmh 28.07 in950.6 mb - 0.00 in0.0 mm 0.05 in1.3 mm
05:20 PM 59.5°F15.3°C 54.0°F12.2°C 82% 4.6 mph N7.4 kmh N 5.8 mph9.3 kmh 28.07 in950.6 mb - 0.00 in0.0 mm 0.05 in1.3 mm
05:19 PM 59.3°F15.2°C 53.8°F12.1°C 82% 3.5 mph NW5.6 kmh NW 5.8 mph9.3 kmh 28.07 in950.6 mb - 0.00 in0.0 mm 0.05 in1.3 mm
05:18 PM 59.0°F15.0°C 53.6°F12.0°C 82% 5.8 mph NW9.3 kmh NW 5.8 mph9.3 kmh 28.07 in950.6 mb - 0.00 in0.0 mm 0.05 in1.3 mm
05:17 PM 58.9°F14.9°C 53.4°F11.9°C 82% 8.1 mph N13.0 kmh N 8.1 mph13.0 kmh 28.07 in950.6 mb - 0.00 in0.0 mm 0.05 in1.3 mm
05:16 PM 58.8°F14.9°C 53.3°F11.8°C 82% 5.8 mph WNW9.3 kmh WNW 9.2 mph14.8 kmh 28.07 in950.6 mb - 0.00 in0.0 mm 0.05 in1.3 mm
05:15 PM 58.6°F14.8°C 53.1°F11.7°C 82% 5.8 mph WNW9.3 kmh WNW 5.8 mph9.3 kmh 28.07 in950.6 mb - 0.00 in0.0 mm 0.05 in1.3 mm
05:14 PM 58.6°F14.8°C 53.1°F11.7°C 82% 5.8 mph NW9.3 kmh NW 6.9 mph11.1 kmh 28.07 in950.6 mb - 0.00 in0.0 mm 0.05 in1.3 mm
05:13 PM 58.6°F14.8°C 53.1°F11.7°C 82% 8.1 mph NW13.0 kmh NW 8.1 mph13.0 kmh 28.07 in950.6 mb - 0.00 in0.0 mm 0.05 in1.3 mm
05:12 PM 58.6°F14.8°C 53.1°F11.7°C 82% 5.8 mph NNW9.3 kmh NNW 8.1 mph13.0 kmh 28.07 in950.6 mb - 0.00 in0.0 mm 0.05 in1.3 mm
05:11 PM 58.7°F14.8°C 53.2°F11.8°C 82% 4.6 mph NNW7.4 kmh NNW 5.8 mph9.3 kmh 28.07 in950.6 mb - 0.00 in0.0 mm 0.05 in1.3 mm
05:10 PM 59.0°F15.0°C 53.2°F11.8°C 81% 4.6 mph SW7.4 kmh SW 5.8 mph9.3 kmh 28.07 in950.6 mb - 0.00 in0.0 mm 0.05 in1.3 mm
05:09 PM 59.2°F15.1°C 53.4°F11.9°C 81% 4.6 mph NW7.4 kmh NW 5.8 mph9.3 kmh 28.07 in950.6 mb - 0.00 in0.0 mm 0.05 in1.3 mm
05:08 PM 59.0°F15.0°C 53.5°F11.9°C 82% 3.5 mph WNW5.6 kmh WNW 5.8 mph9.3 kmh 28.07 in950.6 mb - 0.00 in0.0 mm 0.05 in1.3 mm
05:07 PM 59.0°F15.0°C 53.5°F11.9°C 82% 4.6 mph NW7.4 kmh NW 3.5 mph5.6 kmh 28.07 in950.6 mb - 0.00 in0.0 mm 0.05 in1.3 mm
05:06 PM 59.0°F15.0°C 53.5°F11.9°C 82% 4.6 mph NW7.4 kmh NW 5.8 mph9.3 kmh 28.07 in950.6 mb - 0.00 in0.0 mm 0.05 in1.3 mm
05:05 PM 59.0°F15.0°C 53.6°F12.0°C 82% 4.6 mph WNW7.4 kmh WNW 4.6 mph7.4 kmh 28.07 in950.6 mb - 0.00 in0.0 mm 0.05 in1.3 mm
05:04 PM 59.2°F15.1°C 53.4°F11.9°C 81% 6.9 mph NW11.1 kmh NW 8.1 mph13.0 kmh 28.07 in950.6 mb - 0.00 in0.0 mm 0.05 in1.3 mm
05:03 PM 59.2°F15.1°C 53.4°F11.9°C 81% 5.8 mph NNW9.3 kmh NNW 8.1 mph13.0 kmh 28.07 in950.6 mb - 0.00 in0.0 mm 0.05 in1.3 mm
05:02 PM 59.2°F15.1°C 53.4°F11.9°C 81% 3.5 mph N5.6 kmh N 5.8 mph9.3 kmh 28.07 in950.6 mb - 0.00 in0.0 mm 0.05 in1.3 mm
05:01 PM 59.2°F15.1°C 53.7°F12.1°C 82% 3.5 mph NNE5.6 kmh NNE 4.6 mph7.4 kmh 28.07 in950.6 mb - 0.00 in0.0 mm 0.05 in1.3 mm
05:00 PM 59.2°F15.1°C 53.7°F12.1°C 82% 2.3 mph N3.7 kmh N 3.5 mph5.6 kmh 28.07 in950.6 mb - 0.00 in0.0 mm 0.05 in1.3 mm
04:59 PM 59.0°F15.0°C 53.5°F11.9°C 82% 2.3 mph NNE3.7 kmh NNE 3.5 mph5.6 kmh 28.07 in950.6 mb - 0.00 in0.0 mm 0.05 in1.3 mm
04:58 PM 59.0°F15.0°C 53.5°F11.9°C 82% 3.5 mph WNW5.6 kmh WNW 4.6 mph7.4 kmh 28.07 in950.6 mb - 0.00 in0.0 mm 0.05 in1.3 mm
04:57 PM 59.0°F15.0°C 53.2°F11.8°C 81% 4.6 mph N7.4 kmh N 4.6 mph7.4 kmh 28.07 in950.6 mb - 0.00 in0.0 mm 0.05 in1.3 mm
04:56 PM 59.0°F15.0°C 53.2°F11.8°C 81% 3.5 mph W5.6 kmh W 5.8 mph9.3 kmh 28.07 in950.6 mb - 0.00 in0.0 mm 0.05 in1.3 mm
04:55 PM 59.0°F15.0°C 53.2°F11.8°C 81% 3.5 mph NNW5.6 kmh NNW 4.6 mph7.4 kmh 28.07 in950.6 mb - 0.00 in0.0 mm 0.05 in1.3 mm
04:54 PM 59.1°F15.1°C 52.9°F11.6°C 80% 3.5 mph N5.6 kmh N 4.6 mph7.4 kmh 28.07 in950.6 mb - 0.00 in0.0 mm 0.05 in1.3 mm
04:53 PM 59.2°F15.1°C 53.0°F11.7°C 80% 5.8 mph NE9.3 kmh NE 6.9 mph11.1 kmh 28.07 in950.6 mb - 0.00 in0.0 mm 0.05 in1.3 mm
04:52 PM 59.2°F15.1°C 53.1°F11.7°C 80% 5.8 mph NNW9.3 kmh NNW 6.9 mph11.1 kmh 28.07 in950.6 mb - 0.00 in0.0 mm 0.05 in1.3 mm
04:51 PM 59.4°F15.2°C 53.2°F11.8°C 80% 4.6 mph N7.4 kmh N 5.8 mph9.3 kmh 28.07 in950.6 mb - 0.00 in0.0 mm 0.05 in1.3 mm
04:50 PM 59.4°F15.2°C 53.2°F11.8°C 80% 3.5 mph N5.6 kmh N 5.8 mph9.3 kmh 28.07 in950.6 mb - 0.00 in0.0 mm 0.05 in1.3 mm
04:49 PM 59.4°F15.2°C 53.2°F11.8°C 80% 4.6 mph N7.4 kmh N 3.5 mph5.6 kmh 28.07 in950.6 mb - 0.00 in0.0 mm 0.05 in1.3 mm
04:48 PM 59.5°F15.3°C 53.0°F11.7°C 79% 6.9 mph W11.1 kmh W 9.2 mph14.8 kmh 28.07 in950.6 mb - 0.00 in0.0 mm 0.05 in1.3 mm
04:47 PM 59.5°F15.3°C 53.0°F11.7°C 79% 5.8 mph WNW9.3 kmh WNW 6.9 mph11.1 kmh 28.07 in950.6 mb - 0.00 in0.0 mm 0.05 in1.3 mm
04:46 PM 59.5°F15.3°C 53.3°F11.8°C 80% 3.5 mph NNW5.6 kmh NNW 5.8 mph9.3 kmh 28.07 in950.6 mb - 0.00 in0.0 mm 0.05 in1.3 mm
04:45 PM 59.4°F15.2°C 53.2°F11.8°C 80% 3.5 mph NNE5.6 kmh NNE 4.6 mph7.4 kmh 28.07 in950.6 mb - 0.00 in0.0 mm 0.05 in1.3 mm
04:44 PM 59.4°F15.2°C 53.2°F11.8°C 80% 3.5 mph NW5.6 kmh NW 4.6 mph7.4 kmh 28.07 in950.6 mb - 0.00 in0.0 mm 0.05 in1.3 mm
04:43 PM 59.4°F15.2°C 53.2°F11.8°C 80% 2.3 mph NW3.7 kmh NW 3.5 mph5.6 kmh 28.07 in950.6 mb - 0.00 in0.0 mm 0.05 in1.3 mm
04:42 PM 59.5°F15.3°C 53.3°F11.8°C 80% 4.6 mph SW7.4 kmh SW 3.5 mph5.6 kmh 28.07 in950.6 mb - 0.00 in0.0 mm 0.05 in1.3 mm
04:41 PM 59.7°F15.4°C 53.1°F11.7°C 79% 6.9 mph WNW11.1 kmh WNW 6.9 mph11.1 kmh 28.07 in950.6 mb - 0.00 in0.0 mm 0.05 in1.3 mm
04:40 PM 59.9°F15.5°C 53.4°F11.9°C 79% 6.9 mph NW11.1 kmh NW 8.1 mph13.0 kmh 28.07 in950.6 mb - 0.00 in0.0 mm 0.05 in1.3 mm
04:39 PM 59.9°F15.5°C 53.4°F11.9°C 79% 5.8 mph WNW9.3 kmh WNW 6.9 mph11.1 kmh 28.07 in950.6 mb - 0.00 in0.0 mm 0.05 in1.3 mm
04:38 PM 59.9°F15.5°C 53.4°F11.9°C 79% 3.5 mph NNW5.6 kmh NNW 6.9 mph11.1 kmh 28.07 in950.6 mb - 0.00 in0.0 mm 0.05 in1.3 mm
04:37 PM 59.9°F15.5°C 53.4°F11.9°C 79% 2.3 mph NW3.7 kmh NW 3.5 mph5.6 kmh 28.07 in950.6 mb - 0.00 in0.0 mm 0.05 in1.3 mm
04:36 PM 60.0°F15.6°C 53.1°F11.7°C 78% 4.6 mph N7.4 kmh N 5.8 mph9.3 kmh 28.07 in950.6 mb - 0.00 in0.0 mm 0.05 in1.3 mm
04:35 PM 60.3°F15.7°C 53.4°F11.9°C 78% 4.6 mph N7.4 kmh N 6.9 mph11.1 kmh 28.07 in950.6 mb - 0.00 in0.0 mm 0.05 in1.3 mm
04:34 PM 60.4°F15.8°C 53.8°F12.1°C 79% 3.5 mph ENE5.6 kmh ENE 4.6 mph7.4 kmh 28.07 in950.6 mb - 0.00 in0.0 mm 0.05 in1.3 mm
04:33 PM 60.3°F15.7°C 53.8°F12.1°C 79% 2.3 mph NNE3.7 kmh NNE 3.5 mph5.6 kmh 28.07 in950.6 mb - 0.00 in0.0 mm 0.05 in1.3 mm
04:32 PM 60.1°F15.6°C 53.6°F12.0°C 79% 3.5 mph NW5.6 kmh NW 2.3 mph3.7 kmh 28.07 in950.6 mb - 0.00 in0.0 mm 0.05 in1.3 mm
04:31 PM 60.1°F15.6°C 53.2°F11.8°C 78% 5.8 mph NNW9.3 kmh NNW 5.8 mph9.3 kmh 28.07 in950.6 mb - 0.00 in0.0 mm 0.05 in1.3 mm
04:30 PM 60.3°F15.7°C 53.4°F11.9°C 78% 6.9 mph NW11.1 kmh NW 5.8 mph9.3 kmh 28.07 in950.6 mb - 0.00 in0.0 mm 0.05 in1.3 mm
04:29 PM 60.4°F15.8°C 53.5°F11.9°C 78% 6.9 mph WSW11.1 kmh WSW 9.2 mph14.8 kmh 28.07 in950.6 mb - 0.00 in0.0 mm 0.05 in1.3 mm
04:28 PM 60.4°F15.8°C 53.5°F11.9°C 78% 6.9 mph NW11.1 kmh NW 9.2 mph14.8 kmh 28.07 in950.6 mb - 0.00 in0.0 mm 0.05 in1.3 mm
04:27 PM 60.4°F15.8°C 53.9°F12.2°C 79% 4.6 mph NW7.4 kmh NW 6.9 mph11.1 kmh 28.07 in950.6 mb - 0.00 in0.0 mm 0.05 in1.3 mm
04:26 PM 60.4°F15.8°C 53.9°F12.2°C 79% 4.6 mph WSW7.4 kmh WSW 6.9 mph11.1 kmh 28.07 in950.6 mb - 0.00 in0.0 mm 0.05 in1.3 mm
04:25 PM 60.5°F15.8°C 53.6°F12.0°C 78% 8.1 mph NW13.0 kmh NW 9.2 mph14.8 kmh 28.07 in950.6 mb - 0.00 in0.0 mm 0.05 in1.3 mm
04:24 PM 60.6°F15.9°C 53.7°F12.1°C 78% 8.1 mph NW13.0 kmh NW 9.2 mph14.8 kmh 28.07 in950.6 mb - 0.00 in0.0 mm 0.05 in1.3 mm
04:23 PM 60.5°F15.8°C 53.6°F12.0°C 78% 5.8 mph NNW9.3 kmh NNW 8.1 mph13.0 kmh 28.07 in950.6 mb - 0.00 in0.0 mm 0.05 in1.3 mm
04:22 PM 60.3°F15.7°C 53.4°F11.9°C 78% 6.9 mph NW11.1 kmh NW 8.1 mph13.0 kmh 28.07 in950.6 mb - 0.00 in0.0 mm 0.05 in1.3 mm
04:21 PM 60.3°F15.7°C 53.4°F11.9°C 78% 5.8 mph W9.3 kmh W 8.1 mph13.0 kmh 28.07 in950.6 mb - 0.00 in0.0 mm 0.05 in1.3 mm
04:20 PM 60.3°F15.7°C 53.4°F11.9°C 78% 6.9 mph WNW11.1 kmh WNW 6.9 mph11.1 kmh 28.07 in950.6 mb - 0.00 in0.0 mm 0.05 in1.3 mm
04:19 PM 60.4°F15.8°C 53.8°F12.1°C 79% 5.8 mph W9.3 kmh W 8.1 mph13.0 kmh 28.07 in950.6 mb - 0.00 in0.0 mm 0.05 in1.3 mm
04:18 PM 60.4°F15.8°C 53.9°F12.2°C 79% 3.5 mph NNW5.6 kmh NNW 5.8 mph9.3 kmh 28.07 in950.6 mb - 0.00 in0.0 mm 0.05 in1.3 mm
04:17 PM 60.4°F15.8°C 53.9°F12.2°C 79% 3.5 mph NNW5.6 kmh NNW 4.6 mph7.4 kmh 28.07 in950.6 mb - 0.00 in0.0 mm 0.05 in1.3 mm
04:16 PM 60.4°F15.8°C 53.9°F12.2°C 79% 3.5 mph ENE5.6 kmh ENE 4.6 mph7.4 kmh 28.07 in950.6 mb - 0.00 in0.0 mm 0.05 in1.3 mm
04:15 PM 60.3°F15.7°C 54.1°F12.3°C 80% 3.5 mph NW5.6 kmh NW 4.6 mph7.4 kmh 28.07 in950.6 mb - 0.00 in0.0 mm 0.05 in1.3 mm
04:14 PM 59.9°F15.5°C 53.7°F12.1°C 80% 3.5 mph N5.6 kmh N 4.6 mph7.4 kmh 28.07 in950.6 mb - 0.00 in0.0 mm 0.05 in1.3 mm
04:13 PM 59.9°F15.5°C 53.7°F12.1°C 80% 4.6 mph NW7.4 kmh NW 4.6 mph7.4 kmh 28.07 in950.6 mb - 0.00 in0.0 mm 0.05 in1.3 mm
04:12 PM 59.9°F15.5°C 54.1°F12.3°C 81% 4.6 mph N7.4 kmh N 5.8 mph9.3 kmh 28.07 in950.6 mb - 0.00 in0.0 mm 0.05 in1.3 mm
04:11 PM 59.8°F15.4°C 54.0°F12.2°C 81% 4.6 mph NW7.4 kmh NW 5.8 mph9.3 kmh 28.07 in950.6 mb - 0.00 in0.0 mm 0.05 in1.3 mm
04:10 PM 59.6°F15.3°C 53.7°F12.1°C 81% 3.5 mph NNE5.6 kmh NNE 4.6 mph7.4 kmh 28.07 in950.6 mb - 0.00 in0.0 mm 0.05 in1.3 mm
04:09 PM 59.3°F15.2°C 53.5°F11.9°C 81% 3.5 mph NW5.6 kmh NW 4.6 mph7.4 kmh 28.07 in950.6 mb - 0.00 in0.0 mm 0.05 in1.3 mm
04:08 PM 59.0°F15.0°C 53.2°F11.8°C 81% 2.3 mph NE3.7 kmh NE 4.6 mph7.4 kmh 28.07 in950.6 mb - 0.00 in0.0 mm 0.05 in1.3 mm
04:07 PM 58.8°F14.9°C 53.0°F11.7°C 81% 4.6 mph WSW7.4 kmh WSW 4.6 mph7.4 kmh 28.07 in950.6 mb - 0.00 in0.0 mm 0.05 in1.3 mm
04:06 PM 58.6°F14.8°C 52.8°F11.6°C 81% 5.8 mph NNW9.3 kmh NNW 6.9 mph11.1 kmh 28.07 in950.6 mb - 0.00 in0.0 mm 0.05 in1.3 mm
04:05 PM 58.6°F14.8°C 53.1°F11.7°C 82% 5.8 mph NW9.3 kmh NW 5.8 mph9.3 kmh 28.07 in950.6 mb - 0.00 in0.0 mm 0.05 in1.3 mm
04:04 PM 58.5°F14.7°C 53.1°F11.7°C 82% 4.6 mph NNE7.4 kmh NNE 6.9 mph11.1 kmh 28.07 in950.6 mb - 0.00 in0.0 mm 0.05 in1.3 mm
04:03 PM 58.5°F14.7°C 53.0°F11.7°C 82% 5.8 mph NW9.3 kmh NW 9.2 mph14.8 kmh 28.07 in950.6 mb - 0.00 in0.0 mm 0.05 in1.3 mm
04:02 PM 58.3°F14.6°C 52.9°F11.6°C 82% 5.8 mph WNW9.3 kmh WNW 6.9 mph11.1 kmh 28.07 in950.6 mb - 0.00 in0.0 mm 0.05 in1.3 mm
04:01 PM 58.3°F14.6°C 53.2°F11.8°C 83% 5.8 mph NNE9.3 kmh NNE 6.9 mph11.1 kmh 28.07 in950.6 mb - 0.00 in0.0 mm 0.05 in1.3 mm
04:00 PM 58.3°F14.6°C 53.2°F11.8°C 83% 4.6 mph WNW7.4 kmh WNW 5.8 mph9.3 kmh 28.07 in950.6 mb - 0.00 in0.0 mm 0.05 in1.3 mm
03:59 PM 58.2°F14.6°C 53.4°F11.9°C 84% 4.6 mph NNW7.4 kmh NNW 5.8 mph9.3 kmh 28.08 in950.9 mb - 0.00 in0.0 mm 0.05 in1.3 mm
03:58 PM 58.1°F14.5°C 53.3°F11.8°C 84% 5.8 mph NNW9.3 kmh NNW 6.9 mph11.1 kmh 28.08 in950.9 mb - 0.00 in0.0 mm 0.05 in1.3 mm
03:57 PM 58.1°F14.5°C 53.3°F11.8°C 84% 5.8 mph NW9.3 kmh NW 8.1 mph13.0 kmh 28.08 in950.9 mb - 0.00 in0.0 mm 0.05 in1.3 mm
03:56 PM 57.9°F14.4°C 53.1°F11.7°C 84% 5.8 mph W9.3 kmh W 5.8 mph9.3 kmh 28.08 in950.9 mb - 0.00 in0.0 mm 0.05 in1.3 mm
03:55 PM 57.9°F14.4°C 53.1°F11.7°C 84% 4.6 mph W7.4 kmh W 5.8 mph9.3 kmh 28.08 in950.9 mb - 0.00 in0.0 mm 0.05 in1.3 mm
03:54 PM 57.9°F14.4°C 53.1°F11.7°C 84% 5.8 mph W9.3 kmh W 5.8 mph9.3 kmh 28.08 in950.9 mb - 0.00 in0.0 mm 0.05 in1.3 mm
03:53 PM 57.9°F14.4°C 53.1°F11.7°C 84% 4.6 mph NW7.4 kmh NW 6.9 mph11.1 kmh 28.08 in950.9 mb - 0.00 in0.0 mm 0.05 in1.3 mm
03:52 PM 58.0°F14.4°C 53.2°F11.8°C 84% 4.6 mph WSW7.4 kmh WSW 5.8 mph9.3 kmh 28.08 in950.9 mb - 0.00 in0.0 mm 0.05 in1.3 mm
03:51 PM 58.1°F14.5°C 53.3°F11.8°C 84% 5.8 mph SW9.3 kmh SW 5.8 mph9.3 kmh 28.08 in950.9 mb - 0.00 in0.0 mm 0.05 in1.3 mm
03:50 PM 58.3°F14.6°C 53.5°F11.9°C 84% 4.6 mph SW7.4 kmh SW 6.9 mph11.1 kmh 28.08 in950.9 mb - 0.00 in0.0 mm 0.05 in1.3 mm
03:49 PM 58.3°F14.6°C 53.5°F11.9°C 84% 5.8 mph NW9.3 kmh NW 5.8 mph9.3 kmh 28.08 in950.9 mb - 0.00 in0.0 mm 0.05 in1.3 mm
03:48 PM 58.3°F14.6°C 53.5°F11.9°C 84% 5.8 mph WNW9.3 kmh WNW 5.8 mph9.3 kmh 28.08 in950.9 mb - 0.00 in0.0 mm 0.05 in1.3 mm
03:47 PM 58.3°F14.6°C 53.5°F11.9°C 84% 4.6 mph W7.4 kmh W 6.9 mph11.1 kmh 28.08 in950.9 mb - 0.00 in0.0 mm 0.05 in1.3 mm
03:46 PM 58.3°F14.6°C 53.5°F11.9°C 84% 5.8 mph N9.3 kmh N 6.9 mph11.1 kmh 28.08 in950.9 mb - 0.00 in0.0 mm 0.05 in1.3 mm
03:45 PM 58.3°F14.6°C 53.5°F11.9°C 84% 4.6 mph N7.4 kmh N 6.9 mph11.1 kmh 28.08 in950.9 mb - 0.00 in0.0 mm 0.05 in1.3 mm
03:44 PM 58.3°F14.6°C 53.2°F11.8°C 83% 4.6 mph NW7.4 kmh NW 5.8 mph9.3 kmh 28.08 in950.9 mb - 0.00 in0.0 mm 0.05 in1.3 mm
03:43 PM 58.6°F14.8°C 53.4°F11.9°C 83% 4.6 mph N7.4 kmh N 4.6 mph7.4 kmh 28.08 in950.9 mb - 0.00 in0.0 mm 0.05 in1.3 mm
03:42 PM 58.6°F14.8°C 53.1°F11.7°C 82% 6.9 mph W11.1 kmh W 6.9 mph11.1 kmh 28.08 in950.9 mb - 0.00 in0.0 mm 0.05 in1.3 mm
03:41 PM 58.6°F14.8°C 53.1°F11.7°C 82% 6.9 mph WNW11.1 kmh WNW 9.2 mph14.8 kmh 28.08 in950.9 mb - 0.00 in0.0 mm 0.05 in1.3 mm
03:40 PM 58.9°F14.9°C 53.4°F11.9°C 82% 8.1 mph NW13.0 kmh NW 6.9 mph11.1 kmh 28.08 in950.9 mb - 0.00 in0.0 mm 0.05 in1.3 mm
03:39 PM 59.0°F15.0°C 53.5°F11.9°C 82% 8.1 mph WSW13.0 kmh WSW 10.4 mph16.7 kmh 28.08 in950.9 mb - 0.00 in0.0 mm 0.05 in1.3 mm
03:38 PM 59.3°F15.2°C 53.8°F12.1°C 82% 9.2 mph WNW14.8 kmh WNW 10.4 mph16.7 kmh 28.08 in950.9 mb - 0.00 in0.0 mm 0.05 in1.3 mm
03:37 PM 59.4°F15.2°C 53.9°F12.2°C 82% 5.8 mph W9.3 kmh W 10.4 mph16.7 kmh 28.08 in950.9 mb - 0.00 in0.0 mm 0.05 in1.3 mm
03:36 PM 59.4°F15.2°C 53.9°F12.2°C 82% 5.8 mph NW9.3 kmh NW 5.8 mph9.3 kmh 28.08 in950.9 mb - 0.00 in0.0 mm 0.05 in1.3 mm
03:35 PM 59.5°F15.3°C 54.0°F12.2°C 82% 4.6 mph WNW7.4 kmh WNW 5.8 mph9.3 kmh 28.08 in950.9 mb - 0.00 in0.0 mm 0.05 in1.3 mm
03:34 PM 59.7°F15.4°C 53.8°F12.1°C 81% 3.5 mph N5.6 kmh N 5.8 mph9.3 kmh 28.08 in950.9 mb - 0.00 in0.0 mm 0.05 in1.3 mm
03:33 PM 59.7°F15.4°C 53.9°F12.2°C 81% 2.3 mph N3.7 kmh N 3.5 mph5.6 kmh 28.08 in950.9 mb - 0.00 in0.0 mm 0.05 in1.3 mm
03:32 PM 59.7°F15.4°C 53.9°F12.2°C 81% 3.5 mph NW5.6 kmh NW 3.5 mph5.6 kmh 28.08 in950.9 mb - 0.00 in0.0 mm 0.05 in1.3 mm
03:31 PM 59.8°F15.4°C 54.0°F12.2°C 81% 5.8 mph W9.3 kmh W 6.9 mph11.1 kmh 28.08 in950.9 mb - 0.00 in0.0 mm 0.05 in1.3 mm
03:30 PM 59.9°F15.5°C 54.1°F12.3°C 81% 4.6 mph W7.4 kmh W 6.9 mph11.1 kmh 28.08 in950.9 mb - 0.00 in0.0 mm 0.05 in1.3 mm
03:29 PM 59.9°F15.5°C 53.7°F12.1°C 80% 5.8 mph WNW9.3 kmh WNW 5.8 mph9.3 kmh 28.08 in950.9 mb - 0.00 in0.0 mm 0.05 in1.3 mm
03:28 PM 59.9°F15.5°C 53.4°F11.9°C 79% 6.9 mph WNW11.1 kmh WNW 9.2 mph14.8 kmh 28.08 in950.9 mb - 0.00 in0.0 mm 0.05 in1.3 mm
03:27 PM 59.9°F15.5°C 53.7°F12.1°C 80% 4.6 mph NW7.4 kmh NW 8.1 mph13.0 kmh 28.08 in950.9 mb - 0.00 in0.0 mm 0.05 in1.3 mm
03:26 PM 59.9°F15.5°C 53.7°F12.1°C 80% 4.6 mph N7.4 kmh N 5.8 mph9.3 kmh 28.08 in950.9 mb - 0.00 in0.0 mm 0.05 in1.3 mm
03:25 PM 60.0°F15.6°C 53.5°F11.9°C 79% 5.8 mph S9.3 kmh S 6.9 mph11.1 kmh 28.08 in950.9 mb - 0.00 in0.0 mm 0.05 in1.3 mm
03:24 PM 60.1°F15.6°C 53.6°F12.0°C 79% 6.9 mph NW11.1 kmh NW 10.4 mph16.7 kmh 28.07 in950.6 mb - 0.00 in0.0 mm 0.05 in1.3 mm
03:23 PM 60.1°F15.6°C 53.6°F12.0°C 79% 5.8 mph WNW9.3 kmh WNW 8.1 mph13.0 kmh 28.07 in950.6 mb - 0.00 in0.0 mm 0.05 in1.3 mm
03:22 PM 60.1°F15.6°C 53.6°F12.0°C 79% 4.6 mph NW7.4 kmh NW 8.1 mph13.0 kmh 28.07 in950.6 mb - 0.00 in0.0 mm 0.05 in1.3 mm
03:21 PM 60.1°F15.6°C 53.2°F11.8°C 78% 5.8 mph NW9.3 kmh NW 8.1 mph13.0 kmh 28.07 in950.6 mb - 0.00 in0.0 mm 0.05 in1.3 mm
03:20 PM 60.1°F15.6°C 52.9°F11.6°C 77% 6.9 mph N11.1 kmh N 8.1 mph13.0 kmh 28.07 in950.6 mb - 0.00 in0.0 mm 0.05 in1.3 mm
03:19 PM 60.2°F15.7°C 53.0°F11.7°C 77% 5.8 mph WNW9.3 kmh WNW 6.9 mph11.1 kmh 28.07 in950.6 mb - 0.00 in0.0 mm 0.05 in1.3 mm
03:18 PM 60.3°F15.7°C 53.1°F11.7°C 77% 5.8 mph N9.3 kmh N 6.9 mph11.1 kmh 28.07 in950.6 mb - 0.00 in0.0 mm 0.05 in1.3 mm
03:17 PM 60.4°F15.8°C 53.1°F11.7°C 77% 5.8 mph SW9.3 kmh SW 8.1 mph13.0 kmh 28.07 in950.6 mb - 0.00 in0.0 mm 0.05 in1.3 mm
03:16 PM 60.5°F15.8°C 52.9°F11.6°C 76% 5.8 mph W9.3 kmh W 8.1 mph13.0 kmh 28.07 in950.6 mb - 0.00 in0.0 mm 0.05 in1.3 mm
03:15 PM 60.8°F16.0°C 53.1°F11.7°C 76% 5.8 mph NW9.3 kmh NW 8.1 mph13.0 kmh 28.07 in950.6 mb - 0.00 in0.0 mm 0.05 in1.3 mm
03:14 PM 61.1°F16.2°C 53.1°F11.7°C 75% 5.8 mph W9.3 kmh W 9.2 mph14.8 kmh 28.07 in950.6 mb - 0.00 in0.0 mm 0.05 in1.3 mm
03:13 PM 61.4°F16.3°C 53.0°F11.7°C 74% 6.9 mph WSW11.1 kmh WSW 6.9 mph11.1 kmh 28.07 in950.6 mb - 0.00 in0.0 mm 0.05 in1.3 mm
03:12 PM 61.5°F16.4°C 53.5°F11.9°C 75% 6.9 mph NW11.1 kmh NW 9.2 mph14.8 kmh 28.06 in950.2 mb - 0.00 in0.0 mm 0.05 in1.3 mm
03:11 PM 61.5°F16.4°C 53.9°F12.2°C 76% 4.6 mph NW7.4 kmh NW 5.8 mph9.3 kmh 28.06 in950.2 mb - 0.00 in0.0 mm 0.05 in1.3 mm
03:10 PM 61.5°F16.4°C 53.9°F12.2°C 76% 4.6 mph N7.4 kmh N 5.8 mph9.3 kmh 28.06 in950.2 mb - 0.00 in0.0 mm 0.05 in1.3 mm
03:09 PM 61.7°F16.5°C 53.7°F12.1°C 75% 5.8 mph N9.3 kmh N 5.8 mph9.3 kmh 28.06 in950.2 mb - 0.00 in0.0 mm 0.05 in1.3 mm
03:08 PM 61.7°F16.5°C 53.7°F12.1°C 75% 5.8 mph NW9.3 kmh NW 6.9 mph11.1 kmh 28.06 in950.2 mb - 0.00 in0.0 mm 0.05 in1.3 mm
03:07 PM 61.7°F16.5°C 54.1°F12.3°C 76% 4.6 mph N7.4 kmh N 6.9 mph11.1 kmh 28.06 in950.2 mb - 0.00 in0.0 mm 0.05 in1.3 mm
03:06 PM 61.9°F16.6°C 53.9°F12.2°C 75% 5.8 mph NW9.3 kmh NW 9.2 mph14.8 kmh 28.06 in950.2 mb - 0.00 in0.0 mm 0.05 in1.3 mm
03:05 PM 62.1°F16.7°C 54.1°F12.3°C 75% 5.8 mph WNW9.3 kmh WNW 9.2 mph14.8 kmh 28.06 in950.2 mb - 0.00 in0.0 mm 0.05 in1.3 mm
03:04 PM 62.1°F16.7°C 54.4°F12.4°C 76% 8.1 mph W13.0 kmh W 10.4 mph16.7 kmh 28.06 in950.2 mb - 0.00 in0.0 mm 0.05 in1.3 mm
03:03 PM 62.1°F16.7°C 54.4°F12.4°C 76% 4.6 mph W7.4 kmh W 10.4 mph16.7 kmh 28.06 in950.2 mb - 0.00 in0.0 mm 0.05 in1.3 mm
03:02 PM 62.0°F16.7°C 54.3°F12.4°C 76% 4.6 mph N7.4 kmh N 5.8 mph9.3 kmh 28.06 in950.2 mb - 0.00 in0.0 mm 0.05 in1.3 mm
03:01 PM 61.8°F16.6°C 54.2°F12.3°C 76% 4.6 mph N7.4 kmh N 5.8 mph9.3 kmh 28.06 in950.2 mb - 0.00 in0.0 mm 0.05 in1.3 mm
03:00 PM 61.5°F16.4°C 54.2°F12.3°C 77% 4.6 mph N7.4 kmh N 4.6 mph7.4 kmh 28.06 in950.2 mb - 0.00 in0.0 mm 0.05 in1.3 mm
02:59 PM 61.2°F16.2°C 54.0°F12.2°C 77% 4.6 mph NNE7.4 kmh NNE 5.8 mph9.3 kmh 28.07 in950.6 mb - 0.00 in0.0 mm 0.05 in1.3 mm
02:58 PM 61.2°F16.2°C 53.9°F12.2°C 77% 5.8 mph NW9.3 kmh NW 5.8 mph9.3 kmh 28.07 in950.6 mb - 0.00 in0.0 mm 0.05 in1.3 mm
02:57 PM 61.1°F16.2°C 53.8°F12.1°C 77% 5.8 mph WNW9.3 kmh WNW 5.8 mph9.3 kmh 28.07 in950.6 mb - 0.00 in0.0 mm 0.05 in1.3 mm
02:56 PM 61.0°F16.1°C 53.4°F11.9°C 76% 5.8 mph WNW9.3 kmh WNW 5.8 mph9.3 kmh 28.07 in950.6 mb - 0.00 in0.0 mm 0.05 in1.3 mm
02:55 PM 61.0°F16.1°C 53.4°F11.9°C 76% 5.8 mph NW9.3 kmh NW 6.9 mph11.1 kmh 28.07 in950.6 mb - 0.00 in0.0 mm 0.05 in1.3 mm
02:54 PM 61.0°F16.1°C 53.4°F11.9°C 76% 5.8 mph NW9.3 kmh NW 5.8 mph9.3 kmh 28.07 in950.6 mb - 0.00 in0.0 mm 0.05 in1.3 mm
02:53 PM 61.0°F16.1°C 53.4°F11.9°C 76% 5.8 mph NW9.3 kmh NW 6.9 mph11.1 kmh 28.07 in950.6 mb - 0.00 in0.0 mm 0.05 in1.3 mm
02:52 PM 60.9°F16.1°C 53.6°F12.0°C 77% 6.9 mph NW11.1 kmh NW 6.9 mph11.1 kmh 28.07 in950.6 mb - 0.00 in0.0 mm 0.05 in1.3 mm
02:51 PM 60.8°F16.0°C 53.5°F11.9°C 77% 5.8 mph NW9.3 kmh NW 6.9 mph11.1 kmh 28.07 in950.6 mb - 0.00 in0.0 mm 0.05 in1.3 mm
02:50 PM 60.6°F15.9°C 53.7°F12.1°C 78% 4.6 mph NW7.4 kmh NW 8.1 mph13.0 kmh 28.07 in950.6 mb - 0.00 in0.0 mm 0.05 in1.3 mm
02:49 PM 60.6°F15.9°C 53.3°F11.8°C 77% 5.8 mph SW9.3 kmh SW 6.9 mph11.1 kmh 28.07 in950.6 mb - 0.00 in0.0 mm 0.05 in1.3 mm
02:48 PM 60.6°F15.9°C 53.3°F11.8°C 77% 3.5 mph NNE5.6 kmh NNE 6.9 mph11.1 kmh 28.07 in950.6 mb - 0.00 in0.0 mm 0.05 in1.3 mm
02:47 PM 60.7°F15.9°C 52.7°F11.5°C 75% 5.8 mph NNW9.3 kmh NNW 5.8 mph9.3 kmh 28.07 in950.6 mb - 0.00 in0.0 mm 0.05 in1.3 mm
02:46 PM 60.9°F16.1°C 52.9°F11.6°C 75% 5.8 mph NW9.3 kmh NW 8.1 mph13.0 kmh 28.07 in950.6 mb - 0.00 in0.0 mm 0.05 in1.3 mm
02:45 PM 61.2°F16.2°C 53.2°F11.8°C 75% 5.8 mph N9.3 kmh N 6.9 mph11.1 kmh 28.07 in950.6 mb - 0.00 in0.0 mm 0.05 in1.3 mm
02:44 PM 61.4°F16.3°C 53.4°F11.9°C 75% 6.9 mph N11.1 kmh N 10.4 mph16.7 kmh 28.07 in950.6 mb - 0.00 in0.0 mm 0.05 in1.3 mm
02:43 PM 61.5°F16.4°C 53.5°F11.9°C 75% 5.8 mph N9.3 kmh N 6.9 mph11.1 kmh 28.07 in950.6 mb - 0.00 in0.0 mm 0.05 in1.3 mm
02:42 PM 61.5°F16.4°C 53.5°F11.9°C 75% 3.5 mph NNW5.6 kmh NNW 6.9 mph11.1 kmh 28.07 in950.6 mb - 0.00 in0.0 mm 0.05 in1.3 mm
02:41 PM 61.5°F16.4°C 53.5°F11.9°C 75% 4.6 mph N7.4 kmh N 5.8 mph9.3 kmh 28.07 in950.6 mb - 0.00 in0.0 mm 0.05 in1.3 mm
02:40 PM 61.7°F16.5°C 53.7°F12.1°C 75% 5.8 mph NNE9.3 kmh NNE 6.9 mph11.1 kmh 28.07 in950.6 mb - 0.00 in0.0 mm 0.05 in1.3 mm
02:39 PM 61.9°F16.6°C 53.9°F12.2°C 75% 5.8 mph NNE9.3 kmh NNE 8.1 mph13.0 kmh 28.07 in950.6 mb - 0.00 in0.0 mm 0.05 in1.3 mm
02:38 PM 62.3°F16.8°C 54.3°F12.4°C 75% 6.9 mph WSW11.1 kmh WSW 6.9 mph11.1 kmh 28.07 in950.6 mb - 0.00 in0.0 mm 0.05 in1.3 mm
02:37 PM 62.3°F16.8°C 54.3°F12.4°C 75% 4.6 mph NNW7.4 kmh NNW 9.2 mph14.8 kmh 28.07 in950.6 mb - 0.00 in0.0 mm 0.05 in1.3 mm
02:36 PM 62.1°F16.7°C 54.8°F12.7°C 77% 3.5 mph NE5.6 kmh NE 4.6 mph7.4 kmh 28.07 in950.6 mb - 0.00 in0.0 mm 0.05 in1.3 mm
02:35 PM 62.0°F16.7°C 54.7°F12.6°C 77% 3.5 mph N5.6 kmh N 3.5 mph5.6 kmh 28.07 in950.6 mb - 0.00 in0.0 mm 0.05 in1.3 mm
02:34 PM 61.6°F16.4°C 54.3°F12.4°C 77% 4.6 mph NNE7.4 kmh NNE 5.8 mph9.3 kmh 28.07 in950.6 mb - 0.00 in0.0 mm 0.05 in1.3 mm
02:33 PM 61.4°F16.3°C 54.4°F12.4°C 78% 6.9 mph N11.1 kmh N 8.1 mph13.0 kmh 28.07 in950.6 mb - 0.01 in0.3 mm 0.05 in1.3 mm
02:32 PM 61.0°F16.1°C 54.4°F12.4°C 79% 4.6 mph NNW7.4 kmh NNW 8.1 mph13.0 kmh 28.07 in950.6 mb - 0.01 in0.3 mm 0.05 in1.3 mm
02:31 PM 60.3°F15.7°C 53.8°F12.1°C 79% 4.6 mph SW7.4 kmh SW 5.8 mph9.3 kmh 28.07 in950.6 mb - 0.00 in0.0 mm 0.04 in1.0 mm
02:30 PM 60.1°F15.6°C 53.6°F12.0°C 79% 4.6 mph W7.4 kmh W 6.9 mph11.1 kmh 28.07 in950.6 mb - 0.00 in0.0 mm 0.04 in1.0 mm
02:29 PM 59.8°F15.4°C 53.6°F12.0°C 80% 3.5 mph NW5.6 kmh NW 6.9 mph11.1 kmh 28.07 in950.6 mb - 0.00 in0.0 mm 0.04 in1.0 mm
02:28 PM 59.7°F15.4°C 53.5°F11.9°C 80% 4.6 mph NW7.4 kmh NW 5.8 mph9.3 kmh 28.07 in950.6 mb - 0.00 in0.0 mm 0.04 in1.0 mm
02:27 PM 59.6°F15.3°C 53.7°F12.1°C 81% 2.3 mph NW3.7 kmh NW 5.8 mph9.3 kmh 28.07 in950.6 mb - 0.00 in0.0 mm 0.04 in1.0 mm
02:26 PM 59.5°F15.3°C 53.6°F12.0°C 81% 2.3 mph NNW3.7 kmh NNW 2.3 mph3.7 kmh 28.07 in950.6 mb - 0.00 in0.0 mm 0.04 in1.0 mm
02:25 PM 59.3°F15.2°C 53.4°F11.9°C 81% 3.5 mph NE5.6 kmh NE 4.6 mph7.4 kmh 28.07 in950.6 mb - 0.00 in0.0 mm 0.04 in1.0 mm
02:24 PM 59.2°F15.1°C 53.0°F11.7°C 80% 3.5 mph N5.6 kmh N 4.6 mph7.4 kmh 28.08 in950.9 mb - 0.00 in0.0 mm 0.04 in1.0 mm
02:23 PM 59.2°F15.1°C 53.0°F11.7°C 80% 3.5 mph NNE5.6 kmh NNE 3.5 mph5.6 kmh 28.08 in950.9 mb - 0.00 in0.0 mm 0.04 in1.0 mm
02:22 PM 59.2°F15.1°C 53.0°F11.7°C 80% 4.6 mph N7.4 kmh N 5.8 mph9.3 kmh 28.08 in950.9 mb - 0.00 in0.0 mm 0.04 in1.0 mm
02:21 PM 59.2°F15.1°C 53.0°F11.7°C 80% 4.6 mph NNE7.4 kmh NNE 5.8 mph9.3 kmh 28.08 in950.9 mb - 0.00 in0.0 mm 0.04 in1.0 mm
02:20 PM 59.4°F15.2°C 53.2°F11.8°C 80% 5.8 mph NW9.3 kmh NW 5.8 mph9.3 kmh 28.08 in950.9 mb - 0.00 in0.0 mm 0.04 in1.0 mm
02:19 PM 59.4°F15.2°C 53.2°F11.8°C 80% 6.9 mph NNW11.1 kmh NNW 6.9 mph11.1 kmh 28.08 in950.9 mb - 0.00 in0.0 mm 0.04 in1.0 mm
02:18 PM 59.4°F15.2°C 53.2°F11.8°C 80% 8.1 mph NW13.0 kmh NW 8.1 mph13.0 kmh 28.08 in950.9 mb - 0.00 in0.0 mm 0.04 in1.0 mm
02:17 PM 59.4°F15.2°C 53.2°F11.8°C 80% 5.8 mph NW9.3 kmh NW 11.5 mph18.5 kmh 28.08 in950.9 mb - 0.00 in0.0 mm 0.04 in1.0 mm
02:16 PM 59.4°F15.2°C 53.2°F11.8°C 80% 4.6 mph WNW7.4 kmh WNW 6.9 mph11.1 kmh 28.08 in950.9 mb - 0.00 in0.0 mm 0.04 in1.0 mm
02:15 PM 59.4°F15.2°C 53.2°F11.8°C 80% 3.5 mph WNW5.6 kmh WNW 4.6 mph7.4 kmh 28.08 in950.9 mb - 0.00 in0.0 mm 0.04 in1.0 mm
02:14 PM 59.4°F15.2°C 52.9°F11.6°C 79% 4.6 mph NNW7.4 kmh NNW 3.5 mph5.6 kmh 28.08 in950.9 mb - 0.00 in0.0 mm 0.04 in1.0 mm
02:13 PM 59.4°F15.2°C 52.9°F11.6°C 79% 6.9 mph NW11.1 kmh NW 9.2 mph14.8 kmh 28.08 in950.9 mb - 0.00 in0.0 mm 0.04 in1.0 mm
02:12 PM 59.4°F15.2°C 52.9°F11.6°C 79% 5.8 mph WNW9.3 kmh WNW 8.1 mph13.0 kmh 28.08 in950.9 mb - 0.00 in0.0 mm 0.04 in1.0 mm
02:11 PM 59.5°F15.3°C 52.9°F11.6°C 79% 5.8 mph WNW9.3 kmh WNW 6.9 mph11.1 kmh 28.08 in950.9 mb - 0.00 in0.0 mm 0.04 in1.0 mm
02:10 PM 59.5°F15.3°C 53.0°F11.7°C 79% 5.8 mph W9.3 kmh W 5.8 mph9.3 kmh 28.08 in950.9 mb - 0.00 in0.0 mm 0.04 in1.0 mm
02:09 PM 59.7°F15.4°C 53.1°F11.7°C 79% 6.9 mph WNW11.1 kmh WNW 8.1 mph13.0 kmh 28.08 in950.9 mb - 0.00 in0.0 mm 0.04 in1.0 mm
02:08 PM 59.8°F15.4°C 53.3°F11.8°C 79% 5.8 mph NNW9.3 kmh NNW 6.9 mph11.1 kmh 28.08 in950.9 mb - 0.00 in0.0 mm 0.04 in1.0 mm
02:07 PM 60.1°F15.6°C 53.2°F11.8°C 78% 6.9 mph WNW11.1 kmh WNW 8.1 mph13.0 kmh 28.08 in950.9 mb - 0.00 in0.0 mm 0.04 in1.0 mm
02:06 PM 60.1°F15.6°C 53.2°F11.8°C 78% 6.9 mph NNW11.1 kmh NNW 8.1 mph13.0 kmh 28.08 in950.9 mb - 0.00 in0.0 mm 0.04 in1.0 mm
02:05 PM 60.3°F15.7°C 53.7°F12.1°C 79% 4.6 mph NNW7.4 kmh NNW 10.4 mph16.7 kmh 28.08 in950.9 mb - 0.00 in0.0 mm 0.04 in1.0 mm
02:04 PM 60.3°F15.7°C 53.8°F12.1°C 79% 5.8 mph W9.3 kmh W 6.9 mph11.1 kmh 28.08 in950.9 mb - 0.00 in0.0 mm 0.04 in1.0 mm
02:03 PM 60.4°F15.8°C 53.5°F11.9°C 78% 5.8 mph NW9.3 kmh NW 9.2 mph14.8 kmh 28.08 in950.9 mb - 0.00 in0.0 mm 0.04 in1.0 mm
02:02 PM 60.7°F15.9°C 53.8°F12.1°C 78% 5.8 mph NW9.3 kmh NW 6.9 mph11.1 kmh 28.08 in950.9 mb - 0.00 in0.0 mm 0.04 in1.0 mm
02:01 PM 61.1°F16.2°C 54.2°F12.3°C 78% 4.6 mph WNW7.4 kmh WNW 6.9 mph11.1 kmh 28.08 in950.9 mb - 0.00 in0.0 mm 0.04 in1.0 mm
02:00 PM 61.2°F16.2°C 54.3°F12.4°C 78% 4.6 mph WNW7.4 kmh WNW 5.8 mph9.3 kmh 28.08 in950.9 mb - 0.00 in0.0 mm 0.04 in1.0 mm
01:59 PM 61.4°F16.3°C 54.1°F12.3°C 77% 6.9 mph NNW11.1 kmh NNW 9.2 mph14.8 kmh 28.08 in950.9 mb - 0.00 in0.0 mm 0.04 in1.0 mm
01:58 PM 61.5°F16.4°C 54.2°F12.3°C 77% 6.9 mph WNW11.1 kmh WNW 8.1 mph13.0 kmh 28.08 in950.9 mb - 0.00 in0.0 mm 0.04 in1.0 mm
01:57 PM 61.5°F16.4°C 54.2°F12.3°C 77% 5.8 mph WNW9.3 kmh WNW 8.1 mph13.0 kmh 28.08 in950.9 mb - 0.00 in0.0 mm 0.04 in1.0 mm
01:56 PM 61.7°F16.5°C 54.8°F12.7°C 78% 4.6 mph NNW7.4 kmh NNW 6.9 mph11.1 kmh 28.08 in950.9 mb - 0.00 in0.0 mm 0.04 in1.0 mm
01:55 PM 61.7°F16.5°C 54.8°F12.7°C 78% 5.8 mph WNW9.3 kmh WNW 5.8 mph9.3 kmh 28.08 in950.9 mb - 0.00 in0.0 mm 0.04 in1.0 mm
01:54 PM 61.7°F16.5°C 54.8°F12.7°C 78% 4.6 mph NW7.4 kmh NW 8.1 mph13.0 kmh 28.08 in950.9 mb - 0.00 in0.0 mm 0.04 in1.0 mm
01:53 PM 61.8°F16.6°C 54.5°F12.5°C 77% 3.5 mph NNW5.6 kmh NNW 6.9 mph11.1 kmh 28.08 in950.9 mb - 0.00 in0.0 mm 0.04 in1.0 mm
01:52 PM 61.5°F16.4°C 54.6°F12.6°C 78% 3.5 mph WNW5.6 kmh WNW 4.6 mph7.4 kmh 28.08 in950.9 mb - 0.00 in0.0 mm 0.04 in1.0 mm
01:51 PM 61.3°F16.3°C 54.0°F12.2°C 77% 3.5 mph WNW5.6 kmh WNW 4.6 mph7.4 kmh 28.08 in950.9 mb - 0.00 in0.0 mm 0.04 in1.0 mm
01:50 PM 61.4°F16.3°C 53.8°F12.1°C 76% 4.6 mph NW7.4 kmh NW 4.6 mph7.4 kmh 28.08 in950.9 mb - 0.00 in0.0 mm 0.04 in1.0 mm
01:49 PM 61.5°F16.4°C 53.9°F12.2°C 76% 3.5 mph N5.6 kmh N 5.8 mph9.3 kmh 28.08 in950.9 mb - 0.00 in0.0 mm 0.04 in1.0 mm
01:48 PM 61.5°F16.4°C 53.9°F12.2°C 76% 4.6 mph N7.4 kmh N 4.6 mph7.4 kmh 28.08 in950.9 mb - 0.00 in0.0 mm 0.04 in1.0 mm
01:47 PM 61.7°F16.5°C 53.7°F12.1°C 75% 5.8 mph N9.3 kmh N 6.9 mph11.1 kmh 28.08 in950.9 mb - 0.00 in0.0 mm 0.04 in1.0 mm
01:46 PM 61.8°F16.6°C 53.8°F12.1°C 75% 6.9 mph NNE11.1 kmh NNE 5.8 mph9.3 kmh 28.08 in950.9 mb - 0.00 in0.0 mm 0.04 in1.0 mm
01:45 PM 62.0°F16.7°C 54.0°F12.2°C 75% 6.9 mph NNE11.1 kmh NNE 9.2 mph14.8 kmh 28.08 in950.9 mb - 0.00 in0.0 mm 0.04 in1.0 mm
01:44 PM 62.1°F16.7°C 54.8°F12.7°C 77% 4.6 mph N7.4 kmh N 8.1 mph13.0 kmh 28.08 in950.9 mb - 0.00 in0.0 mm 0.04 in1.0 mm
01:43 PM 62.0°F16.7°C 55.4°F13.0°C 79% 3.5 mph NW5.6 kmh NW 5.8 mph9.3 kmh 28.08 in950.9 mb - 0.00 in0.0 mm 0.04 in1.0 mm
01:42 PM 61.7°F16.5°C 55.1°F12.8°C 79% 3.5 mph N5.6 kmh N 3.5 mph5.6 kmh 28.08 in950.9 mb - 0.00 in0.0 mm 0.04 in1.0 mm
01:41 PM 61.6°F16.4°C 54.3°F12.4°C 77% 5.8 mph W9.3 kmh W 6.9 mph11.1 kmh 28.08 in950.9 mb - 0.00 in0.0 mm 0.04 in1.0 mm
01:40 PM 61.6°F16.4°C 54.3°F12.4°C 77% 5.8 mph NNW9.3 kmh NNW 5.8 mph9.3 kmh 28.08 in950.9 mb - 0.00 in0.0 mm 0.04 in1.0 mm
01:39 PM 61.7°F16.5°C 54.4°F12.4°C 77% 3.5 mph N5.6 kmh N 5.8 mph9.3 kmh 28.08 in950.9 mb - 0.00 in0.0 mm 0.04 in1.0 mm
01:38 PM 62.0°F16.7°C 54.0°F12.2°C 75% 5.8 mph NW9.3 kmh NW 5.8 mph9.3 kmh 28.08 in950.9 mb - 0.00 in0.0 mm 0.04 in1.0 mm
01:37 PM 62.3°F16.8°C 54.3°F12.4°C 75% 5.8 mph W9.3 kmh W 5.8 mph9.3 kmh 28.08 in950.9 mb - 0.00 in0.0 mm 0.04 in1.0 mm
01:36 PM 62.8°F17.1°C 54.8°F12.7°C 75% 6.9 mph NW11.1 kmh NW 6.9 mph11.1 kmh 28.08 in950.9 mb - 0.00 in0.0 mm 0.04 in1.0 mm
01:35 PM 63.1°F17.3°C 55.0°F12.8°C 75% 4.6 mph N7.4 kmh N 8.1 mph13.0 kmh 28.08 in950.9 mb - 0.00 in0.0 mm 0.04 in1.0 mm
01:34 PM 63.3°F17.4°C 54.9°F12.7°C 74% 4.6 mph N7.4 kmh N 5.8 mph9.3 kmh 28.08 in950.9 mb - 0.00 in0.0 mm 0.04 in1.0 mm
01:33 PM 63.9°F17.7°C 55.8°F13.2°C 75% 4.6 mph ENE7.4 kmh ENE 5.8 mph9.3 kmh 28.08 in950.9 mb - 0.00 in0.0 mm 0.04 in1.0 mm
01:32 PM 63.7°F17.6°C 56.7°F13.7°C 78% 4.6 mph NE7.4 kmh NE 5.8 mph9.3 kmh 28.08 in950.9 mb - 0.00 in0.0 mm 0.04 in1.0 mm
01:31 PM 63.0°F17.2°C 55.7°F13.2°C 77% 4.6 mph N7.4 kmh N 6.9 mph11.1 kmh 28.08 in950.9 mb - 0.00 in0.0 mm 0.04 in1.0 mm
01:30 PM 62.5°F16.9°C 55.5°F13.1°C 78% 4.6 mph N7.4 kmh N 5.8 mph9.3 kmh 28.08 in950.9 mb - 0.00 in0.0 mm 0.04 in1.0 mm
01:29 PM 62.0°F16.7°C 55.1°F12.8°C 78% 5.8 mph NW9.3 kmh NW 6.9 mph11.1 kmh 28.08 in950.9 mb - 0.00 in0.0 mm 0.04 in1.0 mm
01:28 PM 61.7°F16.5°C 54.8°F12.7°C 78% 5.8 mph N9.3 kmh N 6.9 mph11.1 kmh 28.08 in950.9 mb - 0.00 in0.0 mm 0.04 in1.0 mm
01:27 PM 61.9°F16.6°C 54.6°F12.6°C 77% 6.9 mph NNW11.1 kmh NNW 6.9 mph11.1 kmh 28.08 in950.9 mb - 0.00 in0.0 mm 0.04 in1.0 mm
01:26 PM 61.8°F16.6°C 55.3°F12.9°C 79% 4.6 mph NNW7.4 kmh NNW 6.9 mph11.1 kmh 28.08 in950.9 mb - 0.00 in0.0 mm 0.04 in1.0 mm
01:25 PM 61.6°F16.4°C 55.0°F12.8°C 79% 6.9 mph NNE11.1 kmh NNE 5.8 mph9.3 kmh 28.08 in950.9 mb - 0.00 in0.0 mm 0.04 in1.0 mm
01:24 PM 61.3°F16.3°C 54.7°F12.6°C 79% 6.9 mph N11.1 kmh N 10.4 mph16.7 kmh 28.08 in950.9 mb - 0.00 in0.0 mm 0.04 in1.0 mm
01:23 PM 61.1°F16.2°C 55.2°F12.9°C 81% 4.6 mph NE7.4 kmh NE 5.8 mph9.3 kmh 28.08 in950.9 mb - 0.00 in0.0 mm 0.04 in1.0 mm
01:22 PM 60.5°F15.8°C 54.7°F12.6°C 81% 5.8 mph ENE9.3 kmh ENE 5.8 mph9.3 kmh 28.08 in950.9 mb - 0.00 in0.0 mm 0.04 in1.0 mm
01:21 PM 60.4°F15.8°C 54.5°F12.5°C 81% 5.8 mph N9.3 kmh N 6.9 mph11.1 kmh 28.08 in950.9 mb - 0.00 in0.0 mm 0.04 in1.0 mm
01:20 PM 60.2°F15.7°C 54.6°F12.6°C 82% 4.6 mph NE7.4 kmh NE 9.2 mph14.8 kmh 28.08 in950.9 mb - 0.00 in0.0 mm 0.04 in1.0 mm
01:19 PM 59.8°F15.4°C 54.3°F12.4°C 82% 3.5 mph N5.6 kmh N 4.6 mph7.4 kmh 28.08 in950.9 mb - 0.00 in0.0 mm 0.04 in1.0 mm
01:18 PM 59.5°F15.3°C 54.0°F12.2°C 82% 4.6 mph N7.4 kmh N 5.8 mph9.3 kmh 28.08 in950.9 mb - 0.00 in0.0 mm 0.04 in1.0 mm
01:17 PM 59.5°F15.3°C 54.0°F12.2°C 82% 4.6 mph N7.4 kmh N 5.8 mph9.3 kmh 28.08 in950.9 mb - 0.00 in0.0 mm 0.04 in1.0 mm
01:16 PM 59.5°F15.3°C 54.0°F12.2°C 82% 5.8 mph NE9.3 kmh NE 5.8 mph9.3 kmh 28.08 in950.9 mb - 0.00 in0.0 mm 0.04 in1.0 mm
01:15 PM 59.5°F15.3°C 54.3°F12.4°C 83% 5.8 mph NNE9.3 kmh NNE 8.1 mph13.0 kmh 28.08 in950.9 mb - 0.00 in0.0 mm 0.04 in1.0 mm
01:14 PM 59.5°F15.3°C 54.3°F12.4°C 83% 4.6 mph N7.4 kmh N 8.1 mph13.0 kmh 28.08 in950.9 mb - 0.00 in0.0 mm 0.04 in1.0 mm
01:13 PM 59.4°F15.2°C 54.2°F12.3°C 83% 4.6 mph NNE7.4 kmh NNE 4.6 mph7.4 kmh 28.08 in950.9 mb - 0.00 in0.0 mm 0.04 in1.0 mm
01:12 PM 59.4°F15.2°C 54.2°F12.3°C 83% 5.8 mph N9.3 kmh N 5.8 mph9.3 kmh 28.10 in951.6 mb - 0.00 in0.0 mm 0.04 in1.0 mm
01:11 PM 59.2°F15.1°C 54.4°F12.4°C 84% 5.8 mph NE9.3 kmh NE 6.9 mph11.1 kmh 28.10 in951.6 mb - 0.00 in0.0 mm 0.04 in1.0 mm
01:10 PM 58.9°F14.9°C 54.4°F12.4°C 85% 4.6 mph N7.4 kmh N 6.9 mph11.1 kmh 28.10 in951.6 mb - 0.00 in0.0 mm 0.04 in1.0 mm
01:09 PM 58.6°F14.8°C 54.1°F12.3°C 85% 5.8 mph NNW9.3 kmh NNW 5.8 mph9.3 kmh 28.10 in951.6 mb - 0.00 in0.0 mm 0.04 in1.0 mm
01:08 PM 58.6°F14.8°C 54.4°F12.4°C 86% 3.5 mph N5.6 kmh N 5.8 mph9.3 kmh 28.10 in951.6 mb - 0.00 in0.0 mm 0.04 in1.0 mm
01:07 PM 58.3°F14.6°C 54.1°F12.3°C 86% 2.3 mph NNW3.7 kmh NNW 3.5 mph5.6 kmh 28.10 in951.6 mb - 0.00 in0.0 mm 0.04 in1.0 mm
01:06 PM 57.9°F14.4°C 53.7°F12.1°C 86% 3.5 mph N5.6 kmh N 3.5 mph5.6 kmh 28.10 in951.6 mb - 0.00 in0.0 mm 0.04 in1.0 mm
01:05 PM 57.7°F14.3°C 53.5°F11.9°C 86% 3.5 mph WNW5.6 kmh WNW 5.8 mph9.3 kmh 28.10 in951.6 mb - 0.00 in0.0 mm 0.04 in1.0 mm
01:04 PM 57.5°F14.2°C 53.7°F12.1°C 87% 3.5 mph NNE5.6 kmh NNE 5.8 mph9.3 kmh 28.10 in951.6 mb - 0.00 in0.0 mm 0.04 in1.0 mm
01:03 PM 57.2°F14.0°C 53.4°F11.9°C 87% 4.6 mph NE7.4 kmh NE 4.6 mph7.4 kmh 28.10 in951.6 mb - 0.00 in0.0 mm 0.04 in1.0 mm
01:02 PM 57.2°F14.0°C 53.4°F11.9°C 87% 4.6 mph NW7.4 kmh NW 5.8 mph9.3 kmh 28.10 in951.6 mb - 0.00 in0.0 mm 0.04 in1.0 mm
01:01 PM 57.1°F13.9°C 53.3°F11.8°C 87% 3.5 mph NNE5.6 kmh NNE 4.6 mph7.4 kmh 28.10 in951.6 mb - 0.00 in0.0 mm 0.04 in1.0 mm
01:00 PM 57.0°F13.9°C 53.2°F11.8°C 87% 3.5 mph N5.6 kmh N 3.5 mph5.6 kmh 28.10 in951.6 mb - 0.00 in0.0 mm 0.04 in1.0 mm
12:59 PM 57.0°F13.9°C 53.2°F11.8°C 87% 3.5 mph NNW5.6 kmh NNW 5.8 mph9.3 kmh 28.10 in951.6 mb - 0.00 in0.0 mm 0.04 in1.0 mm
12:58 PM 57.0°F13.9°C 53.2°F11.8°C 87% 3.5 mph NW5.6 kmh NW 4.6 mph7.4 kmh 28.10 in951.6 mb - 0.00 in0.0 mm 0.04 in1.0 mm
12:57 PM 57.0°F13.9°C 53.2°F11.8°C 87% 2.3 mph NNW3.7 kmh NNW 4.6 mph7.4 kmh 28.10 in951.6 mb - 0.00 in0.0 mm 0.04 in1.0 mm
12:56 PM 57.0°F13.9°C 53.2°F11.8°C 87% 3.5 mph NE5.6 kmh NE 3.5 mph5.6 kmh 28.10 in951.6 mb - 0.00 in0.0 mm 0.04 in1.0 mm
12:55 PM 57.2°F14.0°C 53.0°F11.7°C 86% 6.9 mph NNE11.1 kmh NNE 6.9 mph11.1 kmh 28.10 in951.6 mb - 0.00 in0.0 mm 0.04 in1.0 mm
12:54 PM 57.3°F14.1°C 53.5°F11.9°C 87% 6.9 mph NNW11.1 kmh NNW 6.9 mph11.1 kmh 28.10 in951.6 mb - 0.00 in0.0 mm 0.04 in1.0 mm
12:53 PM 57.4°F14.1°C 53.6°F12.0°C 87% 4.6 mph W7.4 kmh W 10.4 mph16.7 kmh 28.10 in951.6 mb - 0.00 in0.0 mm 0.04 in1.0 mm
12:52 PM 57.4°F14.1°C 53.3°F11.8°C 86% 4.6 mph NNW7.4 kmh NNW 4.6 mph7.4 kmh 28.10 in951.6 mb - 0.00 in0.0 mm 0.04 in1.0 mm
12:51 PM 57.6°F14.2°C 53.4°F11.9°C 86% 5.8 mph WNW9.3 kmh WNW 6.9 mph11.1 kmh 28.10 in951.6 mb - 0.00 in0.0 mm 0.04 in1.0 mm
12:50 PM 57.6°F14.2°C 53.1°F11.7°C 85% 4.6 mph NW7.4 kmh NW 5.8 mph9.3 kmh 28.10 in951.6 mb - 0.00 in0.0 mm 0.04 in1.0 mm
12:49 PM 57.7°F14.3°C 53.2°F11.8°C 85% 3.5 mph NW5.6 kmh NW 5.8 mph9.3 kmh 28.10 in951.6 mb - 0.00 in0.0 mm 0.04 in1.0 mm
12:48 PM 58.0°F14.4°C 53.5°F11.9°C 85% 3.5 mph N5.6 kmh N 4.6 mph7.4 kmh 28.09 in951.2 mb - 0.00 in0.0 mm 0.04 in1.0 mm
12:47 PM 58.1°F14.5°C 53.6°F12.0°C 85% 4.6 mph NW7.4 kmh NW 5.8 mph9.3 kmh 28.09 in951.2 mb - 0.00 in0.0 mm 0.04 in1.0 mm
12:46 PM 58.2°F14.6°C 53.7°F12.1°C 85% 4.6 mph NW7.4 kmh NW 5.8 mph9.3 kmh 28.09 in951.2 mb - 0.00 in0.0 mm 0.04 in1.0 mm
12:45 PM 58.4°F14.7°C 53.9°F12.2°C 85% 3.5 mph N5.6 kmh N 4.6 mph7.4 kmh 28.09 in951.2 mb - 0.00 in0.0 mm 0.04 in1.0 mm
12:44 PM 58.6°F14.8°C 53.8°F12.1°C 84% 3.5 mph WNW5.6 kmh WNW 4.6 mph7.4 kmh 28.09 in951.2 mb - 0.00 in0.0 mm 0.04 in1.0 mm
12:43 PM 58.9°F14.9°C 54.0°F12.2°C 84% 4.6 mph WNW7.4 kmh WNW 4.6 mph7.4 kmh 28.09 in951.2 mb - 0.00 in0.0 mm 0.04 in1.0 mm
12:42 PM 59.2°F15.1°C 54.0°F12.2°C 83% 4.6 mph WNW7.4 kmh WNW 5.8 mph9.3 kmh 28.09 in951.2 mb - 0.00 in0.0 mm 0.04 in1.0 mm
12:41 PM 59.5°F15.3°C 54.0°F12.2°C 82% 6.9 mph NW11.1 kmh NW 8.1 mph13.0 kmh 28.09 in951.2 mb - 0.00 in0.0 mm 0.04 in1.0 mm
12:40 PM 59.8°F15.4°C 54.6°F12.6°C 83% 4.6 mph WNW7.4 kmh WNW 8.1 mph13.0 kmh 28.09 in951.2 mb - 0.00 in0.0 mm 0.04 in1.0 mm
12:39 PM 60.1°F15.6°C 54.9°F12.7°C 83% 3.5 mph NW5.6 kmh NW 4.6 mph7.4 kmh 28.09 in951.2 mb - 0.00 in0.0 mm 0.04 in1.0 mm
12:38 PM 60.4°F15.8°C 54.5°F12.5°C 81% 5.8 mph NW9.3 kmh NW 5.8 mph9.3 kmh 28.09 in951.2 mb - 0.00 in0.0 mm 0.04 in1.0 mm
12:37 PM 60.6°F15.9°C 55.1°F12.8°C 82% 6.9 mph W11.1 kmh W 6.9 mph11.1 kmh 28.09 in951.2 mb - 0.00 in0.0 mm 0.04 in1.0 mm
12:36 PM 60.6°F15.9°C 55.4°F13.0°C 83% 6.9 mph W11.1 kmh W 8.1 mph13.0 kmh 28.10 in951.6 mb - 0.00 in0.0 mm 0.04 in1.0 mm
12:35 PM 60.4°F15.8°C 55.5°F13.1°C 84% 5.8 mph NW9.3 kmh NW 6.9 mph11.1 kmh 28.10 in951.6 mb - 0.00 in0.0 mm 0.04 in1.0 mm
12:34 PM 59.9°F15.5°C 55.1°F12.8°C 84% 4.6 mph WNW7.4 kmh WNW 6.9 mph11.1 kmh 28.10 in951.6 mb - 0.00 in0.0 mm 0.04 in1.0 mm
12:33 PM 59.3°F15.2°C 54.8°F12.7°C 85% 3.5 mph WNW5.6 kmh WNW 6.9 mph11.1 kmh 28.10 in951.6 mb - 0.00 in0.0 mm 0.04 in1.0 mm
12:32 PM 58.8°F14.9°C 54.3°F12.4°C 85% 4.6 mph SW7.4 kmh SW 5.8 mph9.3 kmh 28.10 in951.6 mb - 0.00 in0.0 mm 0.04 in1.0 mm
12:31 PM 58.6°F14.8°C 54.4°F12.4°C 86% 3.5 mph W5.6 kmh W 5.8 mph9.3 kmh 28.10 in951.6 mb - 0.00 in0.0 mm 0.04 in1.0 mm
12:30 PM 58.4°F14.7°C 54.5°F12.5°C 87% 3.5 mph WNW5.6 kmh WNW 4.6 mph7.4 kmh 28.10 in951.6 mb - 0.00 in0.0 mm 0.04 in1.0 mm
12:29 PM 58.3°F14.6°C 54.4°F12.4°C 87% 5.8 mph NW9.3 kmh NW 8.1 mph13.0 kmh 28.10 in951.6 mb - 0.00 in0.0 mm 0.04 in1.0 mm
12:28 PM 58.1°F14.5°C 54.6°F12.6°C 88% 4.6 mph WSW7.4 kmh WSW 8.1 mph13.0 kmh 28.10 in951.6 mb - 0.00 in0.0 mm 0.04 in1.0 mm
12:27 PM 58.0°F14.4°C 54.7°F12.6°C 89% 2.3 mph N3.7 kmh N 5.8 mph9.3 kmh 28.10 in951.6 mb - 0.00 in0.0 mm 0.04 in1.0 mm
12:26 PM 57.5°F14.2°C 53.9°F12.2°C 88% 4.6 mph NNW7.4 kmh NNW 4.6 mph7.4 kmh 28.10 in951.6 mb - 0.00 in0.0 mm 0.04 in1.0 mm
12:25 PM 57.3°F14.1°C 54.1°F12.3°C 89% 5.8 mph NW9.3 kmh NW 6.9 mph11.1 kmh 28.10 in951.6 mb - 0.00 in0.0 mm 0.04 in1.0 mm
12:24 PM 56.9°F13.8°C 53.7°F12.1°C 89% 3.5 mph W5.6 kmh W 6.9 mph11.1 kmh 28.10 in951.6 mb - 0.00 in0.0 mm 0.04 in1.0 mm
12:23 PM 56.7°F13.7°C 53.5°F11.9°C 89% 4.6 mph WSW7.4 kmh WSW 5.8 mph9.3 kmh 28.10 in951.6 mb - 0.00 in0.0 mm 0.04 in1.0 mm
12:22 PM 56.7°F13.7°C 53.5°F11.9°C 89% 4.6 mph NW7.4 kmh NW 5.8 mph9.3 kmh 28.10 in951.6 mb - 0.00 in0.0 mm 0.04 in1.0 mm
12:21 PM 56.6°F13.7°C 53.4°F11.9°C 89% 4.6 mph NNW7.4 kmh NNW 4.6 mph7.4 kmh 28.10 in951.6 mb - 0.00 in0.0 mm 0.04 in1.0 mm
12:20 PM 56.5°F13.6°C 53.3°F11.8°C 89% 4.6 mph NW7.4 kmh NW 4.6 mph7.4 kmh 28.10 in951.6 mb - 0.00 in0.0 mm 0.04 in1.0 mm
12:19 PM 56.3°F13.5°C 53.1°F11.7°C 89% 4.6 mph NW7.4 kmh NW 6.9 mph11.1 kmh 28.10 in951.6 mb - 0.00 in0.0 mm 0.04 in1.0 mm
12:18 PM 56.1°F13.4°C 52.9°F11.6°C 89% 4.6 mph NW7.4 kmh NW 4.6 mph7.4 kmh 28.10 in951.6 mb - 0.00 in0.0 mm 0.04 in1.0 mm
12:17 PM 55.9°F13.3°C 53.0°F11.7°C 90% 5.8 mph NW9.3 kmh NW 6.9 mph11.1 kmh 28.10 in951.6 mb - 0.00 in0.0 mm 0.04 in1.0 mm
12:16 PM 55.8°F13.2°C 52.9°F11.6°C 90% 3.5 mph NW5.6 kmh NW 6.9 mph11.1 kmh 28.10 in951.6 mb - 0.00 in0.0 mm 0.04 in1.0 mm
12:15 PM 55.8°F13.2°C 52.9°F11.6°C 90% 2.3 mph SW3.7 kmh SW 3.5 mph5.6 kmh 28.10 in951.6 mb - 0.00 in0.0 mm 0.04 in1.0 mm
12:14 PM 55.8°F13.2°C 52.9°F11.6°C 90% 2.3 mph NW3.7 kmh NW 2.3 mph3.7 kmh 28.10 in951.6 mb - 0.00 in0.0 mm 0.04 in1.0 mm
12:13 PM 55.8°F13.2°C 52.9°F11.6°C 90% 3.5 mph W5.6 kmh W 3.5 mph5.6 kmh 28.10 in951.6 mb - 0.00 in0.0 mm 0.04 in1.0 mm
12:12 PM 55.8°F13.2°C 53.2°F11.8°C 91% 3.5 mph NNW5.6 kmh NNW 4.6 mph7.4 kmh 28.10 in951.6 mb - 0.00 in0.0 mm 0.04 in1.0 mm
12:11 PM 55.8°F13.2°C 53.2°F11.8°C 91% 4.6 mph NW7.4 kmh NW 5.8 mph9.3 kmh 28.10 in951.6 mb - 0.00 in0.0 mm 0.04 in1.0 mm
12:10 PM 55.8°F13.2°C 53.2°F11.8°C 91% 3.5 mph NW5.6 kmh NW 5.8 mph9.3 kmh 28.10 in951.6 mb - 0.00 in0.0 mm 0.04 in1.0 mm
12:09 PM 55.8°F13.2°C 53.5°F11.9°C 92% 3.5 mph WNW5.6 kmh WNW 4.6 mph7.4 kmh 28.10 in951.6 mb - 0.01 in0.3 mm 0.04 in1.0 mm
12:08 PM 55.8°F13.2°C 53.5°F11.9°C 92% 4.6 mph NE7.4 kmh NE 4.6 mph7.4 kmh 28.10 in951.6 mb - 0.01 in0.3 mm 0.04 in1.0 mm
12:07 PM 55.8°F13.2°C 53.5°F11.9°C 92% 2.3 mph NW3.7 kmh NW 4.6 mph7.4 kmh 28.10 in951.6 mb - 0.00 in0.0 mm 0.03 in0.8 mm
12:06 PM 55.8°F13.2°C 53.5°F11.9°C 92% 2.3 mph N3.7 kmh N 3.5 mph5.6 kmh 28.10 in951.6 mb - 0.00 in0.0 mm 0.03 in0.8 mm
12:05 PM 55.7°F13.2°C 53.4°F11.9°C 92% 3.5 mph NNW5.6 kmh NNW 4.6 mph7.4 kmh 28.10 in951.6 mb - 0.00 in0.0 mm 0.03 in0.8 mm
12:04 PM 55.7°F13.2°C 53.4°F11.9°C 92% 4.6 mph NW7.4 kmh NW 5.8 mph9.3 kmh 28.10 in951.6 mb - 0.00 in0.0 mm 0.03 in0.8 mm
12:03 PM 55.7°F13.2°C 53.4°F11.9°C 92% 3.5 mph NW5.6 kmh NW 5.8 mph9.3 kmh 28.10 in951.6 mb - 0.00 in0.0 mm 0.03 in0.8 mm
12:02 PM 55.4°F13.0°C 53.1°F11.7°C 92% 3.5 mph NW5.6 kmh NW 4.6 mph7.4 kmh 28.10 in951.6 mb - 0.00 in0.0 mm 0.03 in0.8 mm
12:01 PM 55.2°F12.9°C 52.9°F11.6°C 92% 3.5 mph NNW5.6 kmh NNW 4.6 mph7.4 kmh 28.10 in951.6 mb - 0.00 in0.0 mm 0.03 in0.8 mm
12:00 PM 55.2°F12.9°C 53.2°F11.8°C 93% 1.2 mph NE1.9 kmh NE 4.6 mph7.4 kmh 28.10 in951.6 mb - 0.00 in0.0 mm 0.03 in0.8 mm
11:59 AM 55.1°F12.8°C 52.8°F11.6°C 92% 1.2 mph NW1.9 kmh NW 2.3 mph3.7 kmh 28.10 in951.6 mb - 0.00 in0.0 mm 0.03 in0.8 mm
11:58 AM 55.0°F12.8°C 52.7°F11.5°C 92% 1.2 mph WNW1.9 kmh WNW 2.3 mph3.7 kmh 28.10 in951.6 mb - 0.00 in0.0 mm 0.03 in0.8 mm
11:57 AM 54.9°F12.7°C 52.6°F11.4°C 92% 1.2 mph NNE1.9 kmh NNE 2.3 mph3.7 kmh 28.10 in951.6 mb - 0.00 in0.0 mm 0.03 in0.8 mm
11:56 AM 54.7°F12.6°C 52.4°F11.3°C 92% 3.5 mph N5.6 kmh N 2.3 mph3.7 kmh 28.10 in951.6 mb - 0.00 in0.0 mm 0.03 in0.8 mm
11:55 AM 54.7°F12.6°C 52.4°F11.3°C 92% 3.5 mph N5.6 kmh N 4.6 mph7.4 kmh 28.10 in951.6 mb - 0.00 in0.0 mm 0.03 in0.8 mm
11:54 AM 54.7°F12.6°C 52.4°F11.3°C 92% 4.6 mph N7.4 kmh N 4.6 mph7.4 kmh 28.10 in951.6 mb - 0.00 in0.0 mm 0.03 in0.8 mm
11:53 AM 54.7°F12.6°C 52.4°F11.3°C 92% 4.6 mph NNE7.4 kmh NNE 5.8 mph9.3 kmh 28.10 in951.6 mb - 0.00 in0.0 mm 0.03 in0.8 mm
11:52 AM 54.7°F12.6°C 52.4°F11.3°C 92% 4.6 mph WSW7.4 kmh WSW 5.8 mph9.3 kmh 28.10 in951.6 mb - 0.00 in0.0 mm 0.03 in0.8 mm
11:51 AM 54.7°F12.6°C 52.4°F11.3°C 92% 4.6 mph W7.4 kmh W 5.8 mph9.3 kmh 28.10 in951.6 mb - 0.00 in0.0 mm 0.03 in0.8 mm
11:50 AM 54.9°F12.7°C 52.6°F11.4°C 92% 3.5 mph NW5.6 kmh NW 4.6 mph7.4 kmh 28.10 in951.6 mb - 0.00 in0.0 mm 0.03 in0.8 mm
11:49 AM 55.0°F12.8°C 52.4°F11.3°C 91% 3.5 mph W5.6 kmh W 3.5 mph5.6 kmh 28.10 in951.6 mb - 0.00 in0.0 mm 0.03 in0.8 mm
11:48 AM 55.0°F12.8°C 52.4°F11.3°C 91% 4.6 mph NW7.4 kmh NW 5.8 mph9.3 kmh 28.10 in951.6 mb - 0.00 in0.0 mm 0.03 in0.8 mm
11:47 AM 55.2°F12.9°C 52.6°F11.4°C 91% 4.6 mph WNW7.4 kmh WNW 5.8 mph9.3 kmh 28.10 in951.6 mb - 0.00 in0.0 mm 0.03 in0.8 mm
11:46 AM 55.2°F12.9°C 52.6°F11.4°C 91% 4.6 mph NW7.4 kmh NW 5.8 mph9.3 kmh 28.10 in951.6 mb - 0.00 in0.0 mm 0.03 in0.8 mm
11:45 AM 55.3°F12.9°C 52.7°F11.5°C 91% 4.6 mph WNW7.4 kmh WNW 5.8 mph9.3 kmh 28.10 in951.6 mb - 0.00 in0.0 mm 0.03 in0.8 mm
11:44 AM 55.4°F13.0°C 52.8°F11.6°C 91% 4.6 mph W7.4 kmh W 5.8 mph9.3 kmh 28.10 in951.6 mb - 0.00 in0.0 mm 0.03 in0.8 mm
11:43 AM 55.5°F13.1°C 52.6°F11.4°C 90% 6.9 mph N11.1 kmh N 8.1 mph13.0 kmh 28.10 in951.6 mb - 0.00 in0.0 mm 0.03 in0.8 mm
11:42 AM 55.6°F13.1°C 52.7°F11.5°C 90% 5.8 mph NW9.3 kmh NW 8.1 mph13.0 kmh 28.10 in951.6 mb - 0.00 in0.0 mm 0.03 in0.8 mm
11:41 AM 55.6°F13.1°C 52.7°F11.5°C 90% 6.9 mph NW11.1 kmh NW 5.8 mph9.3 kmh 28.10 in951.6 mb - 0.00 in0.0 mm 0.03 in0.8 mm
11:40 AM 55.6°F13.1°C 52.7°F11.5°C 90% 6.9 mph N11.1 kmh N 9.2 mph14.8 kmh 28.10 in951.6 mb - 0.00 in0.0 mm 0.03 in0.8 mm
11:39 AM 55.6°F13.1°C 52.7°F11.5°C 90% 5.8 mph NW9.3 kmh NW 8.1 mph13.0 kmh 28.10 in951.6 mb - 0.00 in0.0 mm 0.03 in0.8 mm
11:38 AM 55.7°F13.2°C 52.8°F11.6°C 90% 4.6 mph WNW7.4 kmh WNW 6.9 mph11.1 kmh 28.10 in951.6 mb - 0.00 in0.0 mm 0.03 in0.8 mm
11:37 AM 55.8°F13.2°C 52.9°F11.6°C 90% 4.6 mph WNW7.4 kmh WNW 6.9 mph11.1 kmh 28.10 in951.6 mb - 0.00 in0.0 mm 0.03 in0.8 mm
11:36 AM 55.8°F13.2°C 52.9°F11.6°C 90% 3.5 mph W5.6 kmh W 6.9 mph11.1 kmh 28.10 in951.6 mb - 0.00 in0.0 mm 0.03 in0.8 mm
11:35 AM 55.8°F13.2°C 52.9°F11.6°C 90% 6.9 mph W11.1 kmh W 6.9 mph11.1 kmh 28.10 in951.6 mb - 0.00 in0.0 mm 0.03 in0.8 mm
11:34 AM 55.9°F13.3°C 53.0°F11.7°C 90% 5.8 mph SW9.3 kmh SW 6.9 mph11.1 kmh 28.10 in951.6 mb - 0.00 in0.0 mm 0.03 in0.8 mm
11:33 AM 55.9°F13.3°C 53.0°F11.7°C 90% 5.8 mph W9.3 kmh W 6.9 mph11.1 kmh 28.10 in951.6 mb - 0.00 in0.0 mm 0.03 in0.8 mm
11:32 AM 56.1°F13.4°C 52.9°F11.6°C 89% 5.8 mph NW9.3 kmh NW 6.9 mph11.1 kmh 28.10 in951.6 mb - 0.00 in0.0 mm 0.03 in0.8 mm
11:31 AM 56.1°F13.4°C 52.9°F11.6°C 89% 4.6 mph NW7.4 kmh NW 6.9 mph11.1 kmh 28.10 in951.6 mb - 0.00 in0.0 mm 0.03 in0.8 mm
11:30 AM 56.3°F13.5°C 53.1°F11.7°C 89% 4.6 mph NE7.4 kmh NE 5.8 mph9.3 kmh 28.10 in951.6 mb - 0.00 in0.0 mm 0.03 in0.8 mm
11:29 AM 56.3°F13.5°C 53.1°F11.7°C 89% 4.6 mph NE7.4 kmh NE 5.8 mph9.3 kmh 28.10 in951.6 mb - 0.00 in0.0 mm 0.03 in0.8 mm
11:28 AM 56.3°F13.5°C 53.1°F11.7°C 89% 4.6 mph N7.4 kmh N 4.6 mph7.4 kmh 28.10 in951.6 mb - 0.00 in0.0 mm 0.03 in0.8 mm
11:27 AM 56.3°F13.5°C 53.4°F11.9°C 90% 6.9 mph NW11.1 kmh NW 5.8 mph9.3 kmh 28.10 in951.6 mb - 0.00 in0.0 mm 0.03 in0.8 mm
11:26 AM 56.3°F13.5°C 53.4°F11.9°C 90% 6.9 mph W11.1 kmh W 10.4 mph16.7 kmh 28.10 in951.6 mb - 0.00 in0.0 mm 0.03 in0.8 mm
11:25 AM 56.3°F13.5°C 53.4°F11.9°C 90% 4.6 mph W7.4 kmh W 9.2 mph14.8 kmh 28.10 in951.6 mb - 0.00 in0.0 mm 0.03 in0.8 mm
11:24 AM 56.3°F13.5°C 53.4°F11.9°C 90% 4.6 mph NE7.4 kmh NE 4.6 mph7.4 kmh 28.10 in951.6 mb - 0.00 in0.0 mm 0.03 in0.8 mm
11:23 AM 56.2°F13.4°C 53.3°F11.8°C 90% 4.6 mph WNW7.4 kmh WNW 5.8 mph9.3 kmh 28.10 in951.6 mb - 0.00 in0.0 mm 0.03 in0.8 mm
11:22 AM 56.1°F13.4°C 53.5°F11.9°C 91% 3.5 mph WNW5.6 kmh WNW 5.8 mph9.3 kmh 28.10 in951.6 mb - 0.00 in0.0 mm 0.03 in0.8 mm
11:21 AM 55.9°F13.3°C 53.3°F11.8°C 91% 3.5 mph NW5.6 kmh NW 4.6 mph7.4 kmh 28.10 in951.6 mb - 0.00 in0.0 mm 0.03 in0.8 mm
11:20 AM 55.9°F13.3°C 53.3°F11.8°C 91% 3.5 mph N5.6 kmh N 3.5 mph5.6 kmh 28.10 in951.6 mb - 0.00 in0.0 mm 0.03 in0.8 mm
11:19 AM 55.7°F13.2°C 53.1°F11.7°C 91% 2.3 mph NNW3.7 kmh NNW 4.6 mph7.4 kmh 28.10 in951.6 mb - 0.00 in0.0 mm 0.03 in0.8 mm
11:18 AM 55.6°F13.1°C 53.0°F11.7°C 91% 3.5 mph NE5.6 kmh NE 5.8 mph9.3 kmh 28.10 in951.6 mb - 0.00 in0.0 mm 0.03 in0.8 mm
11:17 AM 55.4°F13.0°C 52.9°F11.6°C 91% 2.3 mph WNW3.7 kmh WNW 4.6 mph7.4 kmh 28.10 in951.6 mb - 0.00 in0.0 mm 0.03 in0.8 mm
11:16 AM 55.4°F13.0°C 52.8°F11.6°C 91% 2.3 mph WNW3.7 kmh WNW 3.5 mph5.6 kmh 28.10 in951.6 mb - 0.00 in0.0 mm 0.03 in0.8 mm
11:15 AM 55.2°F12.9°C 52.6°F11.4°C 91% 2.3 mph NW3.7 kmh NW 2.3 mph3.7 kmh 28.10 in951.6 mb - 0.00 in0.0 mm 0.03 in0.8 mm
11:14 AM 55.2°F12.9°C 52.6°F11.4°C 91% 3.5 mph NW5.6 kmh NW 3.5 mph5.6 kmh 28.10 in951.6 mb - 0.00 in0.0 mm 0.03 in0.8 mm
11:13 AM 55.2°F12.9°C 52.6°F11.4°C 91% 2.3 mph NW3.7 kmh NW 3.5 mph5.6 kmh 28.10 in951.6 mb - 0.00 in0.0 mm 0.03 in0.8 mm
11:12 AM 55.2°F12.9°C 52.6°F11.4°C 91% 3.5 mph N5.6 kmh N 4.6 mph7.4 kmh 28.10 in951.6 mb - 0.00 in0.0 mm 0.03 in0.8 mm
11:11 AM 55.2°F12.9°C 52.6°F11.4°C 91% 4.6 mph N7.4 kmh N 4.6 mph7.4 kmh 28.10 in951.6 mb - 0.00 in0.0 mm 0.03 in0.8 mm
11:10 AM 55.2°F12.9°C 52.9°F11.6°C 92% 3.5 mph NW5.6 kmh NW 5.8 mph9.3 kmh 28.10 in951.6 mb - 0.00 in0.0 mm 0.03 in0.8 mm
11:09 AM 55.2°F12.9°C 52.9°F11.6°C 92% 3.5 mph NNW5.6 kmh NNW 3.5 mph5.6 kmh 28.10 in951.6 mb - 0.00 in0.0 mm 0.03 in0.8 mm
11:08 AM 55.2°F12.9°C 52.9°F11.6°C 92% 3.5 mph N5.6 kmh N 4.6 mph7.4 kmh 28.10 in951.6 mb - 0.00 in0.0 mm 0.03 in0.8 mm
11:07 AM 55.2°F12.9°C 52.9°F11.6°C 92% 4.6 mph WSW7.4 kmh WSW 4.6 mph7.4 kmh 28.10 in951.6 mb - 0.00 in0.0 mm 0.03 in0.8 mm
11:06 AM 55.2°F12.9°C 52.9°F11.6°C 92% 4.6 mph NNW7.4 kmh NNW 6.9 mph11.1 kmh 28.10 in951.6 mb - 0.00 in0.0 mm 0.03 in0.8 mm
11:05 AM 55.2°F12.9°C 52.9°F11.6°C 92% 3.5 mph N5.6 kmh N 5.8 mph9.3 kmh 28.10 in951.6 mb - 0.00 in0.0 mm 0.03 in0.8 mm
11:04 AM 55.2°F12.9°C 52.9°F11.6°C 92% 3.5 mph NW5.6 kmh NW 3.5 mph5.6 kmh 28.10 in951.6 mb - 0.00 in0.0 mm 0.03 in0.8 mm
11:03 AM 55.1°F12.8°C 52.8°F11.6°C 92% 4.6 mph N7.4 kmh N 5.8 mph9.3 kmh 28.10 in951.6 mb - 0.00 in0.0 mm 0.03 in0.8 mm
11:02 AM 55.0°F12.8°C 52.7°F11.5°C 92% 3.5 mph NW5.6 kmh NW 6.9 mph11.1 kmh 28.10 in951.6 mb - 0.00 in0.0 mm 0.03 in0.8 mm
11:01 AM 55.0°F12.8°C 52.7°F11.5°C 92% 4.6 mph WNW7.4 kmh WNW 5.8 mph9.3 kmh 28.10 in951.6 mb - 0.00 in0.0 mm 0.03 in0.8 mm
11:00 AM 55.0°F12.8°C 52.7°F11.5°C 92% 3.5 mph NW5.6 kmh NW 4.6 mph7.4 kmh 28.09 in951.2 mb - 0.00 in0.0 mm 0.03 in0.8 mm
10:59 AM 55.0°F12.8°C 52.7°F11.5°C 92% 3.5 mph NW5.6 kmh NW 4.6 mph7.4 kmh 28.09 in951.2 mb - 0.00 in0.0 mm 0.03 in0.8 mm
10:58 AM 55.0°F12.8°C 52.7°F11.5°C 92% 4.6 mph NNW7.4 kmh NNW 5.8 mph9.3 kmh 28.09 in951.2 mb - 0.00 in0.0 mm 0.03 in0.8 mm
10:57 AM 55.0°F12.8°C 52.7°F11.5°C 92% 4.6 mph WNW7.4 kmh WNW 5.8 mph9.3 kmh 28.09 in951.2 mb - 0.00 in0.0 mm 0.03 in0.8 mm
10:56 AM 55.0°F12.8°C 52.7°F11.5°C 92% 4.6 mph W7.4 kmh W 4.6 mph7.4 kmh 28.09 in951.2 mb - 0.00 in0.0 mm 0.03 in0.8 mm
10:55 AM 55.0°F12.8°C 52.7°F11.5°C 92% 5.8 mph WSW9.3 kmh WSW 8.1 mph13.0 kmh 28.09 in951.2 mb - 0.00 in0.0 mm 0.03 in0.8 mm
10:54 AM 55.2°F12.9°C 52.9°F11.6°C 92% 5.8 mph NW9.3 kmh NW 8.1 mph13.0 kmh 28.09 in951.2 mb - 0.00 in0.0 mm 0.03 in0.8 mm
10:53 AM 55.2°F12.9°C 52.9°F11.6°C 92% 4.6 mph NNE7.4 kmh NNE 5.8 mph9.3 kmh 28.09 in951.2 mb - 0.00 in0.0 mm 0.03 in0.8 mm
10:52 AM 55.2°F12.9°C 52.9°F11.6°C 92% 4.6 mph W7.4 kmh W 4.6 mph7.4 kmh 28.09 in951.2 mb - 0.00 in0.0 mm 0.03 in0.8 mm
10:51 AM 55.2°F12.9°C 53.2°F11.8°C 93% 3.5 mph W5.6 kmh W 5.8 mph9.3 kmh 28.09 in951.2 mb - 0.00 in0.0 mm 0.03 in0.8 mm
10:50 AM 55.2°F12.9°C 53.2°F11.8°C 93% 2.3 mph NW3.7 kmh NW 3.5 mph5.6 kmh 28.09 in951.2 mb - 0.00 in0.0 mm 0.03 in0.8 mm
10:49 AM 55.1°F12.8°C 53.1°F11.7°C 93% 2.3 mph ENE3.7 kmh ENE 2.3 mph3.7 kmh 28.09 in951.2 mb - 0.00 in0.0 mm 0.03 in0.8 mm
10:48 AM 55.0°F12.8°C 53.0°F11.7°C 93% 4.6 mph NNE7.4 kmh NNE 5.8 mph9.3 kmh 28.09 in951.2 mb - 0.00 in0.0 mm 0.03 in0.8 mm
10:47 AM 55.0°F12.8°C 53.0°F11.7°C 93% 4.6 mph WNW7.4 kmh WNW 5.8 mph9.3 kmh 28.09 in951.2 mb - 0.00 in0.0 mm 0.03 in0.8 mm
10:46 AM 55.0°F12.8°C 53.0°F11.7°C 93% 3.5 mph N5.6 kmh N 4.6 mph7.4 kmh 28.09 in951.2 mb - 0.00 in0.0 mm 0.03 in0.8 mm
10:45 AM 55.0°F12.8°C 53.0°F11.7°C 93% 3.5 mph N5.6 kmh N 3.5 mph5.6 kmh 28.09 in951.2 mb - 0.00 in0.0 mm 0.03 in0.8 mm
10:44 AM 55.0°F12.8°C 53.0°F11.7°C 93% 5.8 mph N9.3 kmh N 5.8 mph9.3 kmh 28.09 in951.2 mb - 0.00 in0.0 mm 0.03 in0.8 mm
10:43 AM 55.0°F12.8°C 53.0°F11.7°C 93% 3.5 mph NW5.6 kmh NW 6.9 mph11.1 kmh 28.09 in951.2 mb - 0.00 in0.0 mm 0.03 in0.8 mm
10:42 AM 54.9°F12.7°C 52.9°F11.6°C 93% 2.3 mph N3.7 kmh N 4.6 mph7.4 kmh 28.09 in951.2 mb - 0.00 in0.0 mm 0.03 in0.8 mm
10:41 AM 54.6°F12.6°C 52.6°F11.4°C 93% 2.3 mph NNE3.7 kmh NNE 2.3 mph3.7 kmh 28.09 in951.2 mb - 0.00 in0.0 mm 0.03 in0.8 mm
10:40 AM 54.4°F12.4°C 52.4°F11.3°C 93% 2.3 mph NW3.7 kmh NW 3.5 mph5.6 kmh 28.09 in951.2 mb - 0.00 in0.0 mm 0.03 in0.8 mm
10:39 AM 54.3°F12.4°C 52.3°F11.3°C 93% 4.6 mph NW7.4 kmh NW 4.6 mph7.4 kmh 28.09 in951.2 mb - 0.00 in0.0 mm 0.03 in0.8 mm
10:38 AM 54.3°F12.4°C 52.3°F11.3°C 93% 4.6 mph W7.4 kmh W 5.8 mph9.3 kmh 28.09 in951.2 mb - 0.00 in0.0 mm 0.03 in0.8 mm
10:37 AM 54.3°F12.4°C 52.6°F11.4°C 94% 2.3 mph NW3.7 kmh NW 5.8 mph9.3 kmh 28.09 in951.2 mb - 0.00 in0.0 mm 0.03 in0.8 mm
10:36 AM 54.3°F12.4°C 52.6°F11.4°C 94% 3.5 mph SW5.6 kmh SW 3.5 mph5.6 kmh 28.09 in951.2 mb - 0.00 in0.0 mm 0.03 in0.8 mm
10:35 AM 54.3°F12.4°C 52.6°F11.4°C 94% 4.6 mph NW7.4 kmh NW 4.6 mph7.4 kmh 28.09 in951.2 mb - 0.00 in0.0 mm 0.03 in0.8 mm
10:34 AM 54.3°F12.4°C 52.6°F11.4°C 94% 5.8 mph WNW9.3 kmh WNW 6.9 mph11.1 kmh 28.09 in951.2 mb - 0.00 in0.0 mm 0.03 in0.8 mm
10:33 AM 54.3°F12.4°C 52.6°F11.4°C 94% 4.6 mph ESE7.4 kmh ESE 6.9 mph11.1 kmh 28.09 in951.2 mb - 0.00 in0.0 mm 0.03 in0.8 mm
10:32 AM 54.3°F12.4°C 52.9°F11.6°C 95% 2.3 mph NW3.7 kmh NW 5.8 mph9.3 kmh 28.09 in951.2 mb - 0.00 in0.0 mm 0.03 in0.8 mm
10:31 AM 54.1°F12.3°C 52.7°F11.5°C 95% 2.3 mph N3.7 kmh N 3.5 mph5.6 kmh 28.09 in951.2 mb - 0.00 in0.0 mm 0.03 in0.8 mm
10:30 AM 54.1°F12.3°C 52.7°F11.5°C 95% 3.5 mph WNW5.6 kmh WNW 3.5 mph5.6 kmh 28.09 in951.2 mb - 0.00 in0.0 mm 0.03 in0.8 mm
10:29 AM 54.1°F12.3°C 52.7°F11.5°C 95% 2.3 mph N3.7 kmh N 4.6 mph7.4 kmh 28.09 in951.2 mb - 0.00 in0.0 mm 0.03 in0.8 mm
10:28 AM 54.1°F12.3°C 52.7°F11.5°C 95% 3.5 mph N5.6 kmh N 4.6 mph7.4 kmh 28.09 in951.2 mb - 0.00 in0.0 mm 0.03 in0.8 mm
10:27 AM 54.1°F12.3°C 52.7°F11.5°C 95% 1.2 mph NW1.9 kmh NW 4.6 mph7.4 kmh 28.09 in951.2 mb - 0.00 in0.0 mm 0.03 in0.8 mm
10:26 AM 54.1°F12.3°C 52.7°F11.5°C 95% 2.3 mph N3.7 kmh N 1.2 mph1.9 kmh 28.09 in951.2 mb - 0.00 in0.0 mm 0.03 in0.8 mm
10:25 AM 54.1°F12.3°C 52.7°F11.5°C 95% 3.5 mph WSW5.6 kmh WSW 4.6 mph7.4 kmh 28.09 in951.2 mb - 0.00 in0.0 mm 0.03 in0.8 mm
10:24 AM 54.1°F12.3°C 52.7°F11.5°C 95% 3.5 mph W5.6 kmh W 4.6 mph7.4 kmh 28.09 in951.2 mb - 0.00 in0.0 mm 0.03 in0.8 mm
10:23 AM 54.1°F12.3°C 52.7°F11.5°C 95% 4.6 mph NW7.4 kmh NW 5.8 mph9.3 kmh 28.09 in951.2 mb - 0.00 in0.0 mm 0.03 in0.8 mm
10:22 AM 54.1°F12.3°C 52.7°F11.5°C 95% 4.6 mph WNW7.4 kmh WNW 5.8 mph9.3 kmh 28.09 in951.2 mb - 0.00 in0.0 mm 0.03 in0.8 mm
10:21 AM 54.1°F12.3°C 52.7°F11.5°C 95% 4.6 mph NW7.4 kmh NW 5.8 mph9.3 kmh 28.09 in951.2 mb - 0.00 in0.0 mm 0.03 in0.8 mm
10:20 AM 54.1°F12.3°C 52.7°F11.5°C 95% 4.6 mph NW7.4 kmh NW 5.8 mph9.3 kmh 28.09 in951.2 mb - 0.00 in0.0 mm 0.03 in0.8 mm
10:19 AM 54.1°F12.3°C 52.7°F11.5°C 95% 4.6 mph NW7.4 kmh NW 5.8 mph9.3 kmh 28.09 in951.2 mb - 0.00 in0.0 mm 0.03 in0.8 mm
10:18 AM 54.1°F12.3°C 52.7°F11.5°C 95% 3.5 mph WNW5.6 kmh WNW 5.8 mph9.3 kmh 28.09 in951.2 mb - 0.00 in0.0 mm 0.03 in0.8 mm
10:17 AM 54.1°F12.3°C 52.7°F11.5°C 95% 2.3 mph N3.7 kmh N 4.6 mph7.4 kmh 28.09 in951.2 mb - 0.00 in0.0 mm 0.03 in0.8 mm
10:16 AM 54.1°F12.3°C 52.7°F11.5°C 95% 2.3 mph SE3.7 kmh SE 3.5 mph5.6 kmh 28.09 in951.2 mb - 0.00 in0.0 mm 0.03 in0.8 mm
10:15 AM 54.1°F12.3°C 52.7°F11.5°C 95% 2.3 mph NW3.7 kmh NW 4.6 mph7.4 kmh 28.09 in951.2 mb - 0.00 in0.0 mm 0.03 in0.8 mm
10:14 AM 54.1°F12.3°C 52.7°F11.5°C 95% 3.5 mph N5.6 kmh N 4.6 mph7.4 kmh 28.09 in951.2 mb - 0.00 in0.0 mm 0.03 in0.8 mm
10:13 AM 54.0°F12.2°C 52.6°F11.4°C 95% 4.6 mph N7.4 kmh N 5.8 mph9.3 kmh 28.09 in951.2 mb - 0.00 in0.0 mm 0.03 in0.8 mm
10:12 AM 53.9°F12.2°C 52.5°F11.4°C 95% 4.6 mph NNW7.4 kmh NNW 5.8 mph9.3 kmh 28.08 in950.9 mb - 0.00 in0.0 mm 0.03 in0.8 mm
10:11 AM 53.8°F12.1°C 52.4°F11.3°C 95% 2.3 mph W3.7 kmh W 4.6 mph7.4 kmh 28.08 in950.9 mb - 0.00 in0.0 mm 0.03 in0.8 mm
10:10 AM 53.8°F12.1°C 52.4°F11.3°C 95% 2.3 mph W3.7 kmh W 2.3 mph3.7 kmh 28.08 in950.9 mb - 0.00 in0.0 mm 0.03 in0.8 mm
10:09 AM 53.8°F12.1°C 52.4°F11.3°C 95% 3.5 mph N5.6 kmh N 3.5 mph5.6 kmh 28.08 in950.9 mb - 0.00 in0.0 mm 0.03 in0.8 mm
10:08 AM 53.8°F12.1°C 52.4°F11.3°C 95% 3.5 mph SW5.6 kmh SW 4.6 mph7.4 kmh 28.08 in950.9 mb - 0.00 in0.0 mm 0.03 in0.8 mm
10:07 AM 53.8°F12.1°C 52.4°F11.3°C 95% 3.5 mph WSW5.6 kmh WSW 4.6 mph7.4 kmh 28.08 in950.9 mb - 0.00 in0.0 mm 0.03 in0.8 mm
10:06 AM 53.6°F12.0°C 52.2°F11.2°C 95% 4.6 mph N7.4 kmh N 4.6 mph7.4 kmh 28.08 in950.9 mb - 0.00 in0.0 mm 0.03 in0.8 mm
10:05 AM 53.6°F12.0°C 52.2°F11.2°C 95% 4.6 mph NW7.4 kmh NW 6.9 mph11.1 kmh 28.08 in950.9 mb - 0.00 in0.0 mm 0.03 in0.8 mm
10:04 AM 53.6°F12.0°C 52.2°F11.2°C 95% 3.5 mph NW5.6 kmh NW 5.8 mph9.3 kmh 28.08 in950.9 mb - 0.00 in0.0 mm 0.03 in0.8 mm
10:03 AM 53.6°F12.0°C 52.2°F11.2°C 95% 4.6 mph NW7.4 kmh NW 4.6 mph7.4 kmh 28.08 in950.9 mb - 0.00 in0.0 mm 0.03 in0.8 mm
10:02 AM 53.8°F12.1°C 52.4°F11.3°C 95% 4.6 mph NW7.4 kmh NW 4.6 mph7.4 kmh 28.08 in950.9 mb - 0.00 in0.0 mm 0.03 in0.8 mm
10:01 AM 53.8°F12.1°C 52.4°F11.3°C 95% 2.3 mph NE3.7 kmh NE 4.6 mph7.4 kmh 28.08 in950.9 mb - 0.00 in0.0 mm 0.03 in0.8 mm
10:00 AM 53.8°F12.1°C 52.4°F11.3°C 95% 2.3 mph WSW3.7 kmh WSW 2.3 mph3.7 kmh 28.09 in951.2 mb - 0.00 in0.0 mm 0.03 in0.8 mm
09:59 AM 53.6°F12.0°C 52.2°F11.2°C 95% 2.3 mph NW3.7 kmh NW 2.3 mph3.7 kmh 28.09 in951.2 mb - 0.00 in0.0 mm 0.03 in0.8 mm
09:58 AM 53.7°F12.1°C 52.4°F11.3°C 95% 2.3 mph WNW3.7 kmh WNW 3.5 mph5.6 kmh 28.09 in951.2 mb - 0.00 in0.0 mm 0.03 in0.8 mm
09:57 AM 53.7°F12.1°C 52.3°F11.3°C 95% 2.3 mph N3.7 kmh N 3.5 mph5.6 kmh 28.09 in951.2 mb - 0.00 in0.0 mm 0.03 in0.8 mm
09:56 AM 53.6°F12.0°C 52.2°F11.2°C 95% 3.5 mph NNW5.6 kmh NNW 3.5 mph5.6 kmh 28.09 in951.2 mb - 0.00 in0.0 mm 0.03 in0.8 mm
09:55 AM 53.5°F11.9°C 52.1°F11.2°C 95% 2.3 mph NW3.7 kmh NW 3.5 mph5.6 kmh 28.09 in951.2 mb - 0.00 in0.0 mm 0.03 in0.8 mm
09:54 AM 53.4°F11.9°C 52.0°F11.1°C 95% 1.2 mph WSW1.9 kmh WSW 2.3 mph3.7 kmh 28.09 in951.2 mb - 0.00 in0.0 mm 0.03 in0.8 mm
09:53 AM 53.4°F11.9°C 52.0°F11.1°C 95% 2.3 mph NW3.7 kmh NW 2.3 mph3.7 kmh 28.09 in951.2 mb - 0.00 in0.0 mm 0.03 in0.8 mm
09:52 AM 53.2°F11.8°C 51.8°F11.0°C 95% 2.3 mph W3.7 kmh W 2.3 mph3.7 kmh 28.09 in951.2 mb - 0.00 in0.0 mm 0.03 in0.8 mm
09:51 AM 53.2°F11.8°C 51.8°F11.0°C 95% 3.5 mph SW5.6 kmh SW 4.6 mph7.4 kmh 28.09 in951.2 mb - 0.00 in0.0 mm 0.03 in0.8 mm
09:50 AM 53.2°F11.8°C 51.8°F11.0°C 95% 2.3 mph 3.7 kmh 4.6 mph7.4 kmh 28.09 in951.2 mb - 0.00 in0.0 mm 0.03 in0.8 mm
09:49 AM 53.3°F11.8°C 51.9°F11.1°C 95% 2.3 mph W3.7 kmh W 2.3 mph3.7 kmh 28.09 in951.2 mb - 0.00 in0.0 mm 0.03 in0.8 mm
09:48 AM 53.5°F11.9°C 52.1°F11.2°C 95% 2.3 mph W3.7 kmh W 3.5 mph5.6 kmh 28.08 in950.9 mb - 0.00 in0.0 mm 0.03 in0.8 mm
09:47 AM 53.6°F12.0°C 52.2°F11.2°C 95% 2.3 mph W3.7 kmh W 3.5 mph5.6 kmh 28.08 in950.9 mb - 0.00 in0.0 mm 0.03 in0.8 mm
09:46 AM 53.4°F11.9°C 52.0°F11.1°C 95% 2.3 mph NW3.7 kmh NW 2.3 mph3.7 kmh 28.08 in950.9 mb - 0.00 in0.0 mm 0.03 in0.8 mm
09:45 AM 53.4°F11.9°C 52.0°F11.1°C 95% 2.3 mph WNW3.7 kmh WNW 3.5 mph5.6 kmh 28.08 in950.9 mb - 0.00 in0.0 mm 0.03 in0.8 mm
09:44 AM 53.3°F11.8°C 51.9°F11.1°C 95% 2.3 mph NNW3.7 kmh NNW 3.5 mph5.6 kmh 28.08 in950.9 mb - 0.00 in0.0 mm 0.03 in0.8 mm
09:43 AM 53.2°F11.8°C 51.8°F11.0°C 95% 3.5 mph N5.6 kmh N 4.6 mph7.4 kmh 28.08 in950.9 mb - 0.00 in0.0 mm 0.03 in0.8 mm
09:42 AM 53.2°F11.8°C 51.8°F11.0°C 95% 2.3 mph N3.7 kmh N 4.6 mph7.4 kmh 28.08 in950.9 mb - 0.00 in0.0 mm 0.03 in0.8 mm
09:41 AM 53.2°F11.8°C 51.5°F10.8°C 94% 2.3 mph NNW3.7 kmh NNW 2.3 mph3.7 kmh 28.08 in950.9 mb - 0.00 in0.0 mm 0.03 in0.8 mm
09:40 AM 53.1°F11.7°C 51.4°F10.8°C 94% 2.3 mph N3.7 kmh N 2.3 mph3.7 kmh 28.08 in950.9 mb - 0.00 in0.0 mm 0.03 in0.8 mm
09:39 AM 53.1°F11.7°C 51.4°F10.8°C 94% 3.5 mph NNW5.6 kmh NNW 4.6 mph7.4 kmh 28.08 in950.9 mb - 0.00 in0.0 mm 0.03 in0.8 mm
09:38 AM 53.1°F11.7°C 51.4°F10.8°C 94% 1.2 mph NNW1.9 kmh NNW 4.6 mph7.4 kmh 28.08 in950.9 mb - 0.00 in0.0 mm 0.03 in0.8 mm
09:37 AM 53.1°F11.7°C 51.4°F10.8°C 94% 2.3 mph NW3.7 kmh NW 3.5 mph5.6 kmh 28.08 in950.9 mb - 0.00 in0.0 mm 0.03 in0.8 mm
09:36 AM 53.1°F11.7°C 51.4°F10.8°C 94% 3.5 mph N5.6 kmh N 3.5 mph5.6 kmh 28.08 in950.9 mb - 0.00 in0.0 mm 0.03 in0.8 mm
09:35 AM 53.1°F11.7°C 51.4°F10.8°C 94% 3.5 mph NW5.6 kmh NW 5.8 mph9.3 kmh 28.08 in950.9 mb - 0.00 in0.0 mm 0.03 in0.8 mm
09:34 AM 53.1°F11.7°C 51.4°F10.8°C 94% 2.3 mph NW3.7 kmh NW 4.6 mph7.4 kmh 28.08 in950.9 mb - 0.00 in0.0 mm 0.03 in0.8 mm
09:33 AM 52.9°F11.6°C 51.2°F10.7°C 94% 3.5 mph WNW5.6 kmh WNW 3.5 mph5.6 kmh 28.08 in950.9 mb - 0.00 in0.0 mm 0.03 in0.8 mm
09:32 AM 52.9°F11.6°C 51.2°F10.7°C 94% 2.3 mph NNW3.7 kmh NNW 3.5 mph5.6 kmh 28.08 in950.9 mb - 0.00 in0.0 mm 0.03 in0.8 mm
09:31 AM 52.9°F11.6°C 51.2°F10.7°C 94% 2.3 mph NNW3.7 kmh NNW 2.3 mph3.7 kmh 28.08 in950.9 mb - 0.00 in0.0 mm 0.03 in0.8 mm
09:30 AM 52.9°F11.6°C 51.2°F10.7°C 94% 2.3 mph NNW3.7 kmh NNW 3.5 mph5.6 kmh 28.08 in950.9 mb - 0.00 in0.0 mm 0.03 in0.8 mm
09:29 AM 52.9°F11.6°C 51.2°F10.7°C 94% 2.3 mph NE3.7 kmh NE 3.5 mph5.6 kmh 28.08 in950.9 mb - 0.00 in0.0 mm 0.03 in0.8 mm
09:28 AM 52.9°F11.6°C 50.9°F10.5°C 93% 3.5 mph NW5.6 kmh NW 2.3 mph3.7 kmh 28.08 in950.9 mb - 0.00 in0.0 mm 0.03 in0.8 mm
09:27 AM 52.9°F11.6°C 50.9°F10.5°C 93% 4.6 mph N7.4 kmh N 4.6 mph7.4 kmh 28.08 in950.9 mb - 0.00 in0.0 mm 0.03 in0.8 mm
09:26 AM 52.9°F11.6°C 50.9°F10.5°C 93% 4.6 mph NW7.4 kmh NW 5.8 mph9.3 kmh 28.08 in950.9 mb - 0.00 in0.0 mm 0.03 in0.8 mm
09:25 AM 52.9°F11.6°C 50.9°F10.5°C 93% 3.5 mph W5.6 kmh W 5.8 mph9.3 kmh 28.08 in950.9 mb - 0.00 in0.0 mm 0.03 in0.8 mm
09:24 AM 52.9°F11.6°C 50.9°F10.5°C 93% 4.6 mph W7.4 kmh W 4.6 mph7.4 kmh 28.08 in950.9 mb - 0.00 in0.0 mm 0.03 in0.8 mm
09:23 AM 52.9°F11.6°C 50.9°F10.5°C 93% 3.5 mph WNW5.6 kmh WNW 4.6 mph7.4 kmh 28.08 in950.9 mb - 0.00 in0.0 mm 0.03 in0.8 mm
09:22 AM 52.9°F11.6°C 50.9°F10.5°C 93% 3.5 mph NW5.6 kmh NW 4.6 mph7.4 kmh 28.08 in950.9 mb - 0.00 in0.0 mm 0.03 in0.8 mm
09:21 AM 52.9°F11.6°C 50.9°F10.5°C 93% 4.6 mph NW7.4 kmh NW 4.6 mph7.4 kmh 28.08 in950.9 mb - 0.00 in0.0 mm 0.03 in0.8 mm
09:20 AM 52.9°F11.6°C 50.9°F10.5°C 93% 4.6 mph WNW7.4 kmh WNW 6.9 mph11.1 kmh 28.08 in950.9 mb - 0.00 in0.0 mm 0.03 in0.8 mm
09:19 AM 52.9°F11.6°C 50.9°F10.5°C 93% 4.6 mph NNW7.4 kmh NNW 4.6 mph7.4 kmh 28.08 in950.9 mb - 0.00 in0.0 mm 0.03 in0.8 mm
09:18 AM 53.0°F11.7°C 51.1°F10.6°C 93% 4.6 mph NW7.4 kmh NW 5.8 mph9.3 kmh 28.08 in950.9 mb - 0.00 in0.0 mm 0.03 in0.8 mm
09:17 AM 53.1°F11.7°C 50.8°F10.4°C 92% 3.5 mph NW5.6 kmh NW 4.6 mph7.4 kmh 28.08 in950.9 mb - 0.00 in0.0 mm 0.03 in0.8 mm
09:16 AM 53.1°F11.7°C 50.8°F10.4°C 92% 3.5 mph W5.6 kmh W 4.6 mph7.4 kmh 28.08 in950.9 mb - 0.00 in0.0 mm 0.03 in0.8 mm
09:15 AM 53.1°F11.7°C 50.8°F10.4°C 92% 3.5 mph NW5.6 kmh NW 4.6 mph7.4 kmh 28.08 in950.9 mb - 0.00 in0.0 mm 0.03 in0.8 mm
09:14 AM 53.1°F11.7°C 50.8°F10.4°C 92% 3.5 mph W5.6 kmh W 4.6 mph7.4 kmh 28.08 in950.9 mb - 0.00 in0.0 mm 0.03 in0.8 mm
09:13 AM 53.1°F11.7°C 50.8°F10.4°C 92% 5.8 mph NNE9.3 kmh NNE 5.8 mph9.3 kmh 28.08 in950.9 mb - 0.00 in0.0 mm 0.03 in0.8 mm
09:12 AM 53.2°F11.8°C 50.9°F10.5°C 92% 5.8 mph N9.3 kmh N 6.9 mph11.1 kmh 28.08 in950.9 mb - 0.00 in0.0 mm 0.03 in0.8 mm
09:11 AM 53.2°F11.8°C 50.9°F10.5°C 92% 5.8 mph WNW9.3 kmh WNW 6.9 mph11.1 kmh 28.08 in950.9 mb - 0.00 in0.0 mm 0.03 in0.8 mm
09:10 AM 53.2°F11.8°C 50.9°F10.5°C 92% 3.5 mph NW5.6 kmh NW 6.9 mph11.1 kmh 28.08 in950.9 mb - 0.00 in0.0 mm 0.03 in0.8 mm
09:09 AM 53.2°F11.8°C 50.9°F10.5°C 92% 3.5 mph N5.6 kmh N 4.6 mph7.4 kmh 28.08 in950.9 mb - 0.00 in0.0 mm 0.03 in0.8 mm
09:08 AM 53.2°F11.8°C 50.9°F10.5°C 92% 4.6 mph NNW7.4 kmh NNW 4.6 mph7.4 kmh 28.08 in950.9 mb - 0.00 in0.0 mm 0.03 in0.8 mm
09:07 AM 53.2°F11.8°C 50.9°F10.5°C 92% 6.9 mph WNW11.1 kmh WNW 5.8 mph9.3 kmh 28.08 in950.9 mb - 0.00 in0.0 mm 0.03 in0.8 mm
09:06 AM 53.3°F11.8°C 51.0°F10.6°C 92% 8.1 mph NW13.0 kmh NW 10.4 mph16.7 kmh 28.08 in950.9 mb - 0.00 in0.0 mm 0.03 in0.8 mm
09:05 AM 53.4°F11.9°C 51.1°F10.6°C 92% 5.8 mph NW9.3 kmh NW 9.2 mph14.8 kmh 28.08 in950.9 mb - 0.00 in0.0 mm 0.03 in0.8 mm
09:04 AM 53.4°F11.9°C 51.1°F10.6°C 92% 4.6 mph NW7.4 kmh NW 8.1 mph13.0 kmh 28.08 in950.9 mb - 0.00 in0.0 mm 0.03 in0.8 mm
09:03 AM 53.4°F11.9°C 51.1°F10.6°C 92% 5.8 mph NW9.3 kmh NW 5.8 mph9.3 kmh 28.08 in950.9 mb - 0.00 in0.0 mm 0.03 in0.8 mm
09:02 AM 53.4°F11.9°C 51.1°F10.6°C 92% 4.6 mph NNW7.4 kmh NNW 5.8 mph9.3 kmh 28.08 in950.9 mb - 0.00 in0.0 mm 0.03 in0.8 mm
09:01 AM 53.4°F11.9°C 51.1°F10.6°C 92% 5.8 mph NNW9.3 kmh NNW 5.8 mph9.3 kmh 28.08 in950.9 mb - 0.00 in0.0 mm 0.03 in0.8 mm
09:00 AM 53.4°F11.9°C 51.1°F10.6°C 92% 4.6 mph N7.4 kmh N 5.8 mph9.3 kmh 28.07 in950.6 mb - 0.00 in0.0 mm 0.03 in0.8 mm
08:59 AM 53.4°F11.9°C 51.1°F10.6°C 92% 4.6 mph NW7.4 kmh NW 4.6 mph7.4 kmh 28.07 in950.6 mb - 0.00 in0.0 mm 0.03 in0.8 mm
08:58 AM 53.4°F11.9°C 51.1°F10.6°C 92% 4.6 mph N7.4 kmh N 5.8 mph9.3 kmh 28.07 in950.6 mb - 0.00 in0.0 mm 0.03 in0.8 mm
08:57 AM 53.4°F11.9°C 51.1°F10.6°C 92% 4.6 mph WNW7.4 kmh WNW 5.8 mph9.3 kmh 28.07 in950.6 mb - 0.00 in0.0 mm 0.03 in0.8 mm
08:56 AM 53.4°F11.9°C 51.1°F10.6°C 92% 2.3 mph NW3.7 kmh NW 5.8 mph9.3 kmh 28.07 in950.6 mb - 0.00 in0.0 mm 0.03 in0.8 mm
08:55 AM 53.4°F11.9°C 51.1°F10.6°C 92% 3.5 mph N5.6 kmh N 4.6 mph7.4 kmh 28.07 in950.6 mb - 0.00 in0.0 mm 0.03 in0.8 mm
08:54 AM 53.4°F11.9°C 51.1°F10.6°C 92% 4.6 mph NW7.4 kmh NW 5.8 mph9.3 kmh 28.07 in950.6 mb - 0.00 in0.0 mm 0.03 in0.8 mm
08:53 AM 53.4°F11.9°C 51.1°F10.6°C 92% 3.5 mph W5.6 kmh W 5.8 mph9.3 kmh 28.07 in950.6 mb - 0.00 in0.0 mm 0.03 in0.8 mm
08:52 AM 53.4°F11.9°C 51.1°F10.6°C 92% 4.6 mph NNW7.4 kmh NNW 5.8 mph9.3 kmh 28.07 in950.6 mb - 0.00 in0.0 mm 0.03 in0.8 mm
08:51 AM 53.4°F11.9°C 51.1°F10.6°C 92% 4.6 mph NNW7.4 kmh NNW 5.8 mph9.3 kmh 28.07 in950.6 mb - 0.00 in0.0 mm 0.03 in0.8 mm
08:50 AM 53.4°F11.9°C 51.1°F10.6°C 92% 3.5 mph N5.6 kmh N 5.8 mph9.3 kmh 28.07 in950.6 mb - 0.00 in0.0 mm 0.03 in0.8 mm
08:49 AM 53.4°F11.9°C 51.1°F10.6°C 92% 4.6 mph N7.4 kmh N 4.6 mph7.4 kmh 28.07 in950.6 mb - 0.00 in0.0 mm 0.03 in0.8 mm
08:48 AM 53.4°F11.9°C 51.1°F10.6°C 92% 4.6 mph NW7.4 kmh NW 5.8 mph9.3 kmh 28.07 in950.6 mb - 0.00 in0.0 mm 0.03 in0.8 mm
08:47 AM 53.4°F11.9°C 51.1°F10.6°C 92% 4.6 mph NW7.4 kmh NW 5.8 mph9.3 kmh 28.07 in950.6 mb - 0.00 in0.0 mm 0.03 in0.8 mm
08:46 AM 53.4°F11.9°C 51.1°F10.6°C 92% 4.6 mph WSW7.4 kmh WSW 6.9 mph11.1 kmh 28.07 in950.6 mb - 0.00 in0.0 mm 0.03 in0.8 mm
08:45 AM 53.4°F11.9°C 51.1°F10.6°C 92% 2.3 mph NNW3.7 kmh NNW 6.9 mph11.1 kmh 28.07 in950.6 mb - 0.00 in0.0 mm 0.03 in0.8 mm
08:44 AM 53.4°F11.9°C 51.1°F10.6°C 92% 3.5 mph NNW5.6 kmh NNW 4.6 mph7.4 kmh 28.07 in950.6 mb - 0.00 in0.0 mm 0.03 in0.8 mm
08:43 AM 53.4°F11.9°C 51.1°F10.6°C 92% 3.5 mph NW5.6 kmh NW 5.8 mph9.3 kmh 28.07 in950.6 mb - 0.00 in0.0 mm 0.03 in0.8 mm
08:42 AM 53.4°F11.9°C 51.1°F10.6°C 92% 3.5 mph N5.6 kmh N 3.5 mph5.6 kmh 28.07 in950.6 mb - 0.00 in0.0 mm 0.03 in0.8 mm
08:41 AM 53.4°F11.9°C 51.1°F10.6°C 92% 3.5 mph NW5.6 kmh NW 4.6 mph7.4 kmh 28.07 in950.6 mb - 0.00 in0.0 mm 0.03 in0.8 mm
08:40 AM 53.4°F11.9°C 51.1°F10.6°C 92% 2.3 mph NW3.7 kmh NW 4.6 mph7.4 kmh 28.07 in950.6 mb - 0.00 in0.0 mm 0.03 in0.8 mm
08:39 AM 53.4°F11.9°C 51.1°F10.6°C 92% 4.6 mph NW7.4 kmh NW 4.6 mph7.4 kmh 28.07 in950.6 mb - 0.00 in0.0 mm 0.03 in0.8 mm
08:38 AM 53.4°F11.9°C 51.1°F10.6°C 92% 5.8 mph WNW9.3 kmh WNW 5.8 mph9.3 kmh 28.07 in950.6 mb - 0.00 in0.0 mm 0.03 in0.8 mm
08:37 AM 53.4°F11.9°C 51.1°F10.6°C 92% 5.8 mph NW9.3 kmh NW 5.8 mph9.3 kmh 28.07 in950.6 mb - 0.00 in0.0 mm 0.03 in0.8 mm
08:36 AM 53.4°F11.9°C 51.4°F10.8°C 93% 3.5 mph N5.6 kmh N 5.8 mph9.3 kmh 28.07 in950.6 mb - 0.00 in0.0 mm 0.03 in0.8 mm
08:35 AM 53.4°F11.9°C 51.4°F10.8°C 93% 1.2 mph N1.9 kmh N 3.5 mph5.6 kmh 28.07 in950.6 mb - 0.00 in0.0 mm 0.03 in0.8 mm
08:34 AM 53.2°F11.8°C 51.2°F10.7°C 93% 2.3 mph N3.7 kmh N 2.3 mph3.7 kmh 28.07 in950.6 mb - 0.00 in0.0 mm 0.03 in0.8 mm
08:33 AM 53.2°F11.8°C 51.2°F10.7°C 93% 2.3 mph NW3.7 kmh NW 2.3 mph3.7 kmh 28.07 in950.6 mb - 0.00 in0.0 mm 0.03 in0.8 mm
08:32 AM 53.2°F11.8°C 51.2°F10.7°C 93% 4.6 mph NNE7.4 kmh NNE 6.9 mph11.1 kmh 28.07 in950.6 mb - 0.00 in0.0 mm 0.03 in0.8 mm
08:31 AM 53.2°F11.8°C 51.2°F10.7°C 93% 3.5 mph NNW5.6 kmh NNW 6.9 mph11.1 kmh 28.07 in950.6 mb - 0.00 in0.0 mm 0.03 in0.8 mm
08:30 AM 53.2°F11.8°C 51.2°F10.7°C 93% 3.5 mph NW5.6 kmh NW 4.6 mph7.4 kmh 28.07 in950.6 mb - 0.00 in0.0 mm 0.03 in0.8 mm
08:29 AM 53.2°F11.8°C 51.2°F10.7°C 93% 3.5 mph N5.6 kmh N 5.8 mph9.3 kmh 28.07 in950.6 mb - 0.00 in0.0 mm 0.03 in0.8 mm
08:28 AM 53.2°F11.8°C 51.2°F10.7°C 93% 4.6 mph W7.4 kmh W 4.6 mph7.4 kmh 28.07 in950.6 mb - 0.00 in0.0 mm 0.03 in0.8 mm
08:27 AM 53.2°F11.8°C 51.2°F10.7°C 93% 4.6 mph NW7.4 kmh NW 4.6 mph7.4 kmh 28.07 in950.6 mb - 0.00 in0.0 mm 0.03 in0.8 mm
08:26 AM 53.2°F11.8°C 51.2°F10.7°C 93% 3.5 mph NW5.6 kmh NW 4.6 mph7.4 kmh 28.07 in950.6 mb - 0.00 in0.0 mm 0.03 in0.8 mm
08:25 AM 53.2°F11.8°C 51.2°F10.7°C 93% 4.6 mph WNW7.4 kmh WNW 4.6 mph7.4 kmh 28.07 in950.6 mb - 0.00 in0.0 mm 0.03 in0.8 mm
08:24 AM 53.2°F11.8°C 51.2°F10.7°C 93% 3.5 mph NW5.6 kmh NW 5.8 mph9.3 kmh 28.06 in950.2 mb - 0.00 in0.0 mm 0.03 in0.8 mm
08:23 AM 53.2°F11.8°C 51.2°F10.7°C 93% 3.5 mph NNW5.6 kmh NNW 4.6 mph7.4 kmh 28.06 in950.2 mb - 0.00 in0.0 mm 0.03 in0.8 mm
08:22 AM 53.2°F11.8°C 51.2°F10.7°C 93% 3.5 mph NNW5.6 kmh NNW 4.6 mph7.4 kmh 28.06 in950.2 mb - 0.00 in0.0 mm 0.03 in0.8 mm
08:21 AM 53.2°F11.8°C 51.2°F10.7°C 93% 3.5 mph N5.6 kmh N 4.6 mph7.4 kmh 28.06 in950.2 mb - 0.00 in0.0 mm 0.03 in0.8 mm
08:20 AM 53.2°F11.8°C 51.2°F10.7°C 93% 3.5 mph NNW5.6 kmh NNW 4.6 mph7.4 kmh 28.06 in950.2 mb - 0.00 in0.0 mm 0.03 in0.8 mm
08:19 AM 53.2°F11.8°C 51.2°F10.7°C 93% 2.3 mph NW3.7 kmh NW 3.5 mph5.6 kmh 28.06 in950.2 mb - 0.00 in0.0 mm 0.03 in0.8 mm
08:18 AM 53.2°F11.8°C 51.2°F10.7°C 93% 2.3 mph W3.7 kmh W 2.3 mph3.7 kmh 28.06 in950.2 mb - 0.00 in0.0 mm 0.03 in0.8 mm
08:17 AM 53.2°F11.8°C 51.2°F10.7°C 93% 2.3 mph WSW3.7 kmh WSW 3.5 mph5.6 kmh 28.06 in950.2 mb - 0.00 in0.0 mm 0.03 in0.8 mm
08:16 AM 53.2°F11.8°C 51.2°F10.7°C 93% 2.3 mph NW3.7 kmh NW 3.5 mph5.6 kmh 28.06 in950.2 mb - 0.00 in0.0 mm 0.03 in0.8 mm
08:15 AM 53.2°F11.8°C 51.2°F10.7°C 93% 3.5 mph NNW5.6 kmh NNW 4.6 mph7.4 kmh 28.06 in950.2 mb - 0.00 in0.0 mm 0.03 in0.8 mm
08:14 AM 53.2°F11.8°C 51.2°F10.7°C 93% 3.5 mph NNW5.6 kmh NNW 4.6 mph7.4 kmh 28.06 in950.2 mb - 0.00 in0.0 mm 0.03 in0.8 mm
08:13 AM 53.2°F11.8°C 51.2°F10.7°C 93% 3.5 mph NW5.6 kmh NW 3.5 mph5.6 kmh 28.06 in950.2 mb - 0.00 in0.0 mm 0.03 in0.8 mm
08:12 AM 53.2°F11.8°C 51.2°F10.7°C 93% 3.5 mph NNW5.6 kmh NNW 3.5 mph5.6 kmh 28.06 in950.2 mb - 0.00 in0.0 mm 0.03 in0.8 mm
08:11 AM 53.2°F11.8°C 51.2°F10.7°C 93% 3.5 mph N5.6 kmh N 3.5 mph5.6 kmh 28.05 in949.9 mb - 0.00 in0.0 mm 0.03 in0.8 mm
08:10 AM 53.2°F11.8°C 51.2°F10.7°C 93% 4.6 mph N7.4 kmh N 5.8 mph9.3 kmh 28.05 in949.9 mb - 0.00 in0.0 mm 0.03 in0.8 mm
08:09 AM 53.2°F11.8°C 51.2°F10.7°C 93% 3.5 mph NW5.6 kmh NW 4.6 mph7.4 kmh 28.05 in949.9 mb - 0.00 in0.0 mm 0.03 in0.8 mm
08:08 AM 53.2°F11.8°C 51.2°F10.7°C 93% 2.3 mph W3.7 kmh W 2.3 mph3.7 kmh 28.05 in949.9 mb - 0.00 in0.0 mm 0.03 in0.8 mm
08:07 AM 53.2°F11.8°C 51.2°F10.7°C 93% 2.3 mph W3.7 kmh W 2.3 mph3.7 kmh 28.05 in949.9 mb - 0.00 in0.0 mm 0.03 in0.8 mm
08:06 AM 53.2°F11.8°C 51.2°F10.7°C 93% 3.5 mph NE5.6 kmh NE 3.5 mph5.6 kmh 28.05 in949.9 mb - 0.00 in0.0 mm 0.03 in0.8 mm
08:05 AM 53.2°F11.8°C 51.2°F10.7°C 93% 2.3 mph E3.7 kmh E 3.5 mph5.6 kmh 28.05 in949.9 mb - 0.00 in0.0 mm 0.03 in0.8 mm
08:04 AM 53.2°F11.8°C 51.2°F10.7°C 93% 3.5 mph N5.6 kmh N 3.5 mph5.6 kmh 28.05 in949.9 mb - 0.00 in0.0 mm 0.03 in0.8 mm
08:03 AM 53.2°F11.8°C 51.2°F10.7°C 93% 2.3 mph NNW3.7 kmh NNW 3.5 mph5.6 kmh 28.05 in949.9 mb - 0.00 in0.0 mm 0.03 in0.8 mm
08:02 AM 53.2°F11.8°C 51.2°F10.7°C 93% 3.5 mph N5.6 kmh N 3.5 mph5.6 kmh 28.05 in949.9 mb - 0.00 in0.0 mm 0.03 in0.8 mm
08:01 AM 53.2°F11.8°C 51.2°F10.7°C 93% 4.6 mph NNW7.4 kmh NNW 5.8 mph9.3 kmh 28.05 in949.9 mb - 0.00 in0.0 mm 0.03 in0.8 mm
08:00 AM 53.2°F11.8°C 51.2°F10.7°C 93% 3.5 mph WNW5.6 kmh WNW 5.8 mph9.3 kmh 28.05 in949.9 mb - 0.00 in0.0 mm 0.03 in0.8 mm
07:59 AM 53.2°F11.8°C 51.2°F10.7°C 93% 3.5 mph WNW5.6 kmh WNW 5.8 mph9.3 kmh 28.05 in949.9 mb - 0.00 in0.0 mm 0.03 in0.8 mm
07:58 AM 53.2°F11.8°C 51.2°F10.7°C 93% 2.3 mph NW3.7 kmh NW 3.5 mph5.6 kmh 28.05 in949.9 mb - 0.00 in0.0 mm 0.03 in0.8 mm
07:57 AM 53.2°F11.8°C 51.2°F10.7°C 93% 1.2 mph SE1.9 kmh SE 3.5 mph5.6 kmh 28.05 in949.9 mb - 0.00 in0.0 mm 0.03 in0.8 mm
07:56 AM 53.2°F11.8°C 51.2°F10.7°C 93% 2.3 mph NNW3.7 kmh NNW 2.3 mph3.7 kmh 28.05 in949.9 mb - 0.00 in0.0 mm 0.03 in0.8 mm
07:55 AM 53.2°F11.8°C 51.2°F10.7°C 93% 3.5 mph NW5.6 kmh NW 3.5 mph5.6 kmh 28.05 in949.9 mb - 0.00 in0.0 mm 0.03 in0.8 mm
07:54 AM 53.2°F11.8°C 51.2°F10.7°C 93% 2.3 mph W3.7 kmh W 3.5 mph5.6 kmh 28.05 in949.9 mb - 0.00 in0.0 mm 0.03 in0.8 mm
07:53 AM 53.2°F11.8°C 51.2°F10.7°C 93% 2.3 mph WNW3.7 kmh WNW 2.3 mph3.7 kmh 28.05 in949.9 mb - 0.00 in0.0 mm 0.03 in0.8 mm
07:52 AM 53.2°F11.8°C 51.2°F10.7°C 93% 1.2 mph NW1.9 kmh NW 2.3 mph3.7 kmh 28.05 in949.9 mb - 0.00 in0.0 mm 0.03 in0.8 mm
07:51 AM 53.2°F11.8°C 51.5°F10.8°C 94% 1.2 mph NNE1.9 kmh NNE 1.2 mph1.9 kmh 28.05 in949.9 mb - 0.01 in0.3 mm 0.03 in0.8 mm
07:50 AM 53.2°F11.8°C 51.5°F10.8°C 94% 2.3 mph SW3.7 kmh SW 2.3 mph3.7 kmh 28.05 in949.9 mb - 0.01 in0.3 mm 0.03 in0.8 mm
07:49 AM 53.2°F11.8°C 51.5°F10.8°C 94% 1.2 mph NW1.9 kmh NW 3.5 mph5.6 kmh 28.05 in949.9 mb - 0.00 in0.0 mm 0.02 in0.5 mm
07:48 AM 53.2°F11.8°C 51.5°F10.8°C 94% Calm Calm 2.3 mph3.7 kmh 28.05 in949.9 mb - 0.00 in0.0 mm 0.02 in0.5 mm
07:47 AM 53.2°F11.8°C 51.5°F10.8°C 94% Calm Calm -- 28.04 in949.5 mb - 0.00 in0.0 mm 0.02 in0.5 mm
07:46 AM 53.1°F11.7°C 51.4°F10.8°C 94% Calm Calm -- 28.04 in949.5 mb - 0.00 in0.0 mm 0.02 in0.5 mm
07:45 AM 53.1°F11.7°C 51.4°F10.8°C 94% Calm Calm -- 28.04 in949.5 mb - 0.00 in0.0 mm 0.02 in0.5 mm
07:44 AM 53.1°F11.7°C 51.4°F10.8°C 94% 1.2 mph NNE1.9 kmh NNE 2.3 mph3.7 kmh 28.04 in949.5 mb - 0.00 in0.0 mm 0.02 in0.5 mm
07:43 AM 53.1°F11.7°C 51.4°F10.8°C 94% Calm Calm 2.3 mph3.7 kmh 28.04 in949.5 mb - 0.00 in0.0 mm 0.02 in0.5 mm
07:42 AM 53.1°F11.7°C 51.4°F10.8°C 94% Calm Calm -- 28.04 in949.5 mb - 0.00 in0.0 mm 0.02 in0.5 mm
07:41 AM 53.1°F11.7°C 51.4°F10.8°C 94% Calm Calm -- 28.04 in949.5 mb - 0.00 in0.0 mm 0.02 in0.5 mm
07:40 AM 53.0°F11.7°C 51.4°F10.8°C 94% Calm Calm -- 28.04 in949.5 mb - 0.00 in0.0 mm 0.02 in0.5 mm
07:39 AM 52.9°F11.6°C 51.2°F10.7°C 94% Calm Calm -- 28.04 in949.5 mb - 0.00 in0.0 mm 0.02 in0.5 mm
07:38 AM 52.9°F11.6°C 51.2°F10.7°C 94% Calm Calm -- 28.04 in949.5 mb - 0.00 in0.0 mm 0.02 in0.5 mm
07:37 AM 52.9°F11.6°C 51.2°F10.7°C 94% 1.2 mph E1.9 kmh E -- 28.04 in949.5 mb - 0.00 in0.0 mm 0.02 in0.5 mm
07:36 AM 52.7°F11.5°C 51.0°F10.6°C 94% 2.3 mph ENE3.7 kmh ENE 2.3 mph3.7 kmh 28.05 in949.9 mb - 0.00 in0.0 mm 0.02 in0.5 mm
07:35 AM 52.7°F11.5°C 51.0°F10.6°C 94% 2.3 mph NNW3.7 kmh NNW 3.5 mph5.6 kmh 28.05 in949.9 mb - 0.00 in0.0 mm 0.02 in0.5 mm
07:34 AM 52.7°F11.5°C 51.0°F10.6°C 94% 2.3 mph NW3.7 kmh NW 2.3 mph3.7 kmh 28.05 in949.9 mb - 0.00 in0.0 mm 0.02 in0.5 mm
07:33 AM 52.7°F11.5°C 51.0°F10.6°C 94% 1.2 mph NNW1.9 kmh NNW 2.3 mph3.7 kmh 28.05 in949.9 mb - 0.00 in0.0 mm 0.02 in0.5 mm
07:32 AM 52.7°F11.5°C 51.0°F10.6°C 94% Calm Calm 2.3 mph3.7 kmh 28.05 in949.9 mb - 0.00 in0.0 mm 0.02 in0.5 mm
07:31 AM 52.7°F11.5°C 51.0°F10.6°C 94% Calm Calm -- 28.05 in949.9 mb - 0.00 in0.0 mm 0.02 in0.5 mm
07:30 AM 52.5°F11.4°C 50.8°F10.4°C 94% 1.2 mph NNW1.9 kmh NNW 1.2 mph1.9 kmh 28.05 in949.9 mb - 0.00 in0.0 mm 0.02 in0.5 mm
07:29 AM 52.5°F11.4°C 50.8°F10.4°C 94% 2.3 mph E3.7 kmh E 2.3 mph3.7 kmh 28.05 in949.9 mb - 0.00 in0.0 mm 0.02 in0.5 mm
07:28 AM 52.5°F11.4°C 50.8°F10.4°C 94% 1.2 mph ESE1.9 kmh ESE 3.5 mph5.6 kmh 28.05 in949.9 mb - 0.00 in0.0 mm 0.02 in0.5 mm
07:27 AM 52.5°F11.4°C 50.8°F10.4°C 94% 2.3 mph NE3.7 kmh NE 1.2 mph1.9 kmh 28.05 in949.9 mb - 0.00 in0.0 mm 0.02 in0.5 mm
07:26 AM 52.5°F11.4°C 50.8°F10.4°C 94% 2.3 mph WNW3.7 kmh WNW 3.5 mph5.6 kmh 28.05 in949.9 mb - 0.00 in0.0 mm 0.02 in0.5 mm
07:25 AM 52.5°F11.4°C 50.8°F10.4°C 94% 2.3 mph SE3.7 kmh SE 2.3 mph3.7 kmh 28.05 in949.9 mb - 0.00 in0.0 mm 0.02 in0.5 mm
07:24 AM 52.5°F11.4°C 50.8°F10.4°C 94% 2.3 mph W3.7 kmh W 2.3 mph3.7 kmh 28.04 in949.5 mb - 0.00 in0.0 mm 0.02 in0.5 mm
07:23 AM 52.5°F11.4°C 50.8°F10.4°C 94% 2.3 mph WNW3.7 kmh WNW 3.5 mph5.6 kmh 28.04 in949.5 mb - 0.00 in0.0 mm 0.02 in0.5 mm
07:22 AM 52.5°F11.4°C 50.8°F10.4°C 94% 1.2 mph S1.9 kmh S 2.3 mph3.7 kmh 28.04 in949.5 mb - 0.00 in0.0 mm 0.02 in0.5 mm
07:21 AM 52.5°F11.4°C 50.8°F10.4°C 94% 1.2 mph NW1.9 kmh NW 1.2 mph1.9 kmh 28.04 in949.5 mb - 0.00 in0.0 mm 0.02 in0.5 mm
07:20 AM 52.5°F11.4°C 50.8°F10.4°C 94% 1.2 mph W1.9 kmh W 1.2 mph1.9 kmh 28.04 in949.5 mb - 0.00 in0.0 mm 0.02 in0.5 mm
07:19 AM 52.5°F11.4°C 50.8°F10.4°C 94% 1.2 mph NW1.9 kmh NW 1.2 mph1.9 kmh 28.04 in949.5 mb - 0.00 in0.0 mm 0.02 in0.5 mm
07:18 AM 52.3°F11.3°C 50.6°F10.3°C 94% 1.2 mph WNW1.9 kmh WNW 2.3 mph3.7 kmh 28.04 in949.5 mb - 0.00 in0.0 mm 0.02 in0.5 mm
07:17 AM 52.3°F11.3°C 50.6°F10.3°C 94% 1.2 mph N1.9 kmh N 1.2 mph1.9 kmh 28.04 in949.5 mb - 0.00 in0.0 mm 0.02 in0.5 mm
07:16 AM 52.3°F11.3°C 50.6°F10.3°C 94% 2.3 mph NNE3.7 kmh NNE 2.3 mph3.7 kmh 28.04 in949.5 mb - 0.00 in0.0 mm 0.02 in0.5 mm
07:15 AM 52.3°F11.3°C 50.9°F10.5°C 95% 2.3 mph S3.7 kmh S 3.5 mph5.6 kmh 28.04 in949.5 mb - 0.00 in0.0 mm 0.02 in0.5 mm
07:14 AM 52.3°F11.3°C 50.9°F10.5°C 95% 2.3 mph NW3.7 kmh NW 3.5 mph5.6 kmh 28.04 in949.5 mb - 0.00 in0.0 mm 0.02 in0.5 mm
07:13 AM 52.3°F11.3°C 50.9°F10.5°C 95% 2.3 mph W3.7 kmh W 2.3 mph3.7 kmh 28.04 in949.5 mb - 0.00 in0.0 mm 0.02 in0.5 mm
07:12 AM 52.3°F11.3°C 50.9°F10.5°C 95% 2.3 mph WNW3.7 kmh WNW 2.3 mph3.7 kmh 28.04 in949.5 mb - 0.00 in0.0 mm 0.02 in0.5 mm
07:11 AM 52.3°F11.3°C 50.9°F10.5°C 95% 1.2 mph SW1.9 kmh SW 2.3 mph3.7 kmh 28.04 in949.5 mb - 0.00 in0.0 mm 0.02 in0.5 mm
07:10 AM 52.3°F11.3°C 50.9°F10.5°C 95% Calm Calm 1.2 mph1.9 kmh 28.04 in949.5 mb - 0.00 in0.0 mm 0.02 in0.5 mm
07:09 AM 52.3°F11.3°C 50.9°F10.5°C 95% 1.2 mph W1.9 kmh W 1.2 mph1.9 kmh 28.04 in949.5 mb - 0.00 in0.0 mm 0.02 in0.5 mm
07:08 AM 52.2°F11.2°C 50.8°F10.4°C 95% Calm Calm 1.2 mph1.9 kmh 28.04 in949.5 mb - 0.00 in0.0 mm 0.02 in0.5 mm
07:07 AM 52.2°F11.2°C 50.8°F10.4°C 95% 1.2 mph N1.9 kmh N 1.2 mph1.9 kmh 28.04 in949.5 mb - 0.00 in0.0 mm 0.02 in0.5 mm
07:06 AM 52.2°F11.2°C 50.8°F10.4°C 95% 1.2 mph ENE1.9 kmh ENE 1.2 mph1.9 kmh 28.04 in949.5 mb - 0.00 in0.0 mm 0.02 in0.5 mm
07:05 AM 52.2°F11.2°C 50.8°F10.4°C 95% Calm Calm 1.2 mph1.9 kmh 28.04 in949.5 mb - 0.00 in0.0 mm 0.02 in0.5 mm
07:04 AM 52.2°F11.2°C 50.8°F10.4°C 95% Calm Calm -- 28.04 in949.5 mb - 0.00 in0.0 mm 0.02 in0.5 mm
07:03 AM 52.2°F11.2°C 50.8°F10.4°C 95% Calm Calm -- 28.04 in949.5 mb - 0.00 in0.0 mm 0.02 in0.5 mm
07:02 AM 52.2°F11.2°C 50.8°F10.4°C 95% 1.2 mph N1.9 kmh N 1.2 mph1.9 kmh 28.04 in949.5 mb - 0.00 in0.0 mm 0.02 in0.5 mm
07:01 AM 52.2°F11.2°C 50.8°F10.4°C 95% 2.3 mph NNE3.7 kmh NNE 2.3 mph3.7 kmh 28.04 in949.5 mb - 0.00 in0.0 mm 0.02 in0.5 mm
07:00 AM 52.2°F11.2°C 50.8°F10.4°C 95% 1.2 mph N1.9 kmh N 3.5 mph5.6 kmh 28.04 in949.5 mb - 0.00 in0.0 mm 0.02 in0.5 mm
06:59 AM 52.2°F11.2°C 50.8°F10.4°C 95% 1.2 mph NW1.9 kmh NW 1.2 mph1.9 kmh 28.04 in949.5 mb - 0.00 in0.0 mm 0.02 in0.5 mm
06:58 AM 52.2°F11.2°C 50.8°F10.4°C 95% 3.5 mph N5.6 kmh N 3.5 mph5.6 kmh 28.04 in949.5 mb - 0.00 in0.0 mm 0.02 in0.5 mm
06:57 AM 52.3°F11.3°C 50.9°F10.5°C 95% 1.2 mph N1.9 kmh N 3.5 mph5.6 kmh 28.04 in949.5 mb - 0.00 in0.0 mm 0.02 in0.5 mm
06:56 AM 52.3°F11.3°C 50.9°F10.5°C 95% Calm Calm 1.2 mph1.9 kmh 28.04 in949.5 mb - 0.00 in0.0 mm 0.02 in0.5 mm
06:55 AM 52.3°F11.3°C 50.9°F10.5°C 95% 1.2 mph N1.9 kmh N 1.2 mph1.9 kmh 28.04 in949.5 mb - 0.00 in0.0 mm 0.02 in0.5 mm
06:54 AM 52.3°F11.3°C 50.9°F10.5°C 95% 2.3 mph N3.7 kmh N 1.2 mph1.9 kmh 28.04 in949.5 mb - 0.00 in0.0 mm 0.02 in0.5 mm
06:53 AM 52.3°F11.3°C 50.9°F10.5°C 95% 2.3 mph NE3.7 kmh NE 2.3 mph3.7 kmh 28.04 in949.5 mb - 0.00 in0.0 mm 0.02 in0.5 mm
06:52 AM 52.3°F11.3°C 50.9°F10.5°C 95% 2.3 mph N3.7 kmh N 2.3 mph3.7 kmh 28.04 in949.5 mb - 0.00 in0.0 mm 0.02 in0.5 mm
06:51 AM 52.3°F11.3°C 50.9°F10.5°C 95% 2.3 mph N3.7 kmh N 2.3 mph3.7 kmh 28.04 in949.5 mb - 0.00 in0.0 mm 0.02 in0.5 mm
06:50 AM 52.3°F11.3°C 50.9°F10.5°C 95% 3.5 mph NNW5.6 kmh NNW 2.3 mph3.7 kmh 28.04 in949.5 mb - 0.00 in0.0 mm 0.02 in0.5 mm
06:49 AM 52.3°F11.3°C 50.9°F10.5°C 95% 3.5 mph NW5.6 kmh NW 3.5 mph5.6 kmh 28.04 in949.5 mb - 0.00 in0.0 mm 0.02 in0.5 mm
06:48 AM 52.3°F11.3°C 50.9°F10.5°C 95% 1.2 mph N1.9 kmh N 3.5 mph5.6 kmh 28.04 in949.5 mb - 0.00 in0.0 mm 0.02 in0.5 mm
06:47 AM 52.3°F11.3°C 50.9°F10.5°C 95% Calm Calm 1.2 mph1.9 kmh 28.04 in949.5 mb - 0.00 in0.0 mm 0.02 in0.5 mm
06:46 AM 52.3°F11.3°C 50.9°F10.5°C 95% Calm Calm -- 28.04 in949.5 mb - 0.00 in0.0 mm 0.02 in0.5 mm
06:45 AM 52.3°F11.3°C 50.9°F10.5°C 95% Calm Calm -- 28.04 in949.5 mb - 0.00 in0.0 mm 0.02 in0.5 mm
06:44 AM 52.3°F11.3°C 50.9°F10.5°C 95% Calm Calm -- 28.04 in949.5 mb - 0.00 in0.0 mm 0.02 in0.5 mm
06:43 AM 52.3°F11.3°C 50.9°F10.5°C 95% 1.2 mph NW1.9 kmh NW 1.2 mph1.9 kmh 28.04 in949.5 mb - 0.00 in0.0 mm 0.02 in0.5 mm
06:42 AM 52.3°F11.3°C 50.9°F10.5°C 95% 2.3 mph NW3.7 kmh NW 2.3 mph3.7 kmh 28.04 in949.5 mb - 0.00 in0.0 mm 0.02 in0.5 mm
06:41 AM 52.3°F11.3°C 50.9°F10.5°C 95% 2.3 mph NE3.7 kmh NE 2.3 mph3.7 kmh 28.04 in949.5 mb - 0.00 in0.0 mm 0.02 in0.5 mm
06:40 AM 52.3°F11.3°C 50.9°F10.5°C 95% 1.2 mph WNW1.9 kmh WNW 2.3 mph3.7 kmh 28.04 in949.5 mb - 0.00 in0.0 mm 0.02 in0.5 mm
06:39 AM 52.3°F11.3°C 50.9°F10.5°C 95% Calm Calm 2.3 mph3.7 kmh 28.04 in949.5 mb - 0.00 in0.0 mm 0.02 in0.5 mm
06:38 AM 52.3°F11.3°C 50.9°F10.5°C 95% Calm Calm -- 28.04 in949.5 mb - 0.00 in0.0 mm 0.02 in0.5 mm
06:37 AM 52.3°F11.3°C 50.9°F10.5°C 95% Calm Calm -- 28.04 in949.5 mb - 0.00 in0.0 mm 0.02 in0.5 mm
06:36 AM 52.3°F11.3°C 50.9°F10.5°C 95% 1.2 mph NE1.9 kmh NE -- 28.03 in949.2 mb - 0.00 in0.0 mm 0.02 in0.5 mm
06:35 AM 52.3°F11.3°C 50.9°F10.5°C 95% 2.3 mph N3.7 kmh N 2.3 mph3.7 kmh 28.03 in949.2 mb - 0.00 in0.0 mm 0.02 in0.5 mm
06:34 AM 52.3°F11.3°C 50.9°F10.5°C 95% 2.3 mph NW3.7 kmh NW 2.3 mph3.7 kmh 28.03 in949.2 mb - 0.00 in0.0 mm 0.02 in0.5 mm
06:33 AM 52.3°F11.3°C 50.9°F10.5°C 95% 2.3 mph SW3.7 kmh SW 2.3 mph3.7 kmh 28.03 in949.2 mb - 0.00 in0.0 mm 0.02 in0.5 mm
06:32 AM 52.3°F11.3°C 50.9°F10.5°C 95% 2.3 mph NNE3.7 kmh NNE 3.5 mph5.6 kmh 28.03 in949.2 mb - 0.00 in0.0 mm 0.02 in0.5 mm
06:31 AM 52.3°F11.3°C 50.9°F10.5°C 95% 2.3 mph NE3.7 kmh NE 2.3 mph3.7 kmh 28.03 in949.2 mb - 0.00 in0.0 mm 0.02 in0.5 mm
06:30 AM 52.3°F11.3°C 50.9°F10.5°C 95% 3.5 mph NW5.6 kmh NW 3.5 mph5.6 kmh 28.03 in949.2 mb - 0.00 in0.0 mm 0.02 in0.5 mm
06:29 AM 52.3°F11.3°C 50.9°F10.5°C 95% 2.3 mph NW3.7 kmh NW 3.5 mph5.6 kmh 28.03 in949.2 mb - 0.00 in0.0 mm 0.02 in0.5 mm
06:28 AM 52.3°F11.3°C 50.9°F10.5°C 95% 2.3 mph NW3.7 kmh NW 2.3 mph3.7 kmh 28.03 in949.2 mb - 0.00 in0.0 mm 0.02 in0.5 mm
06:27 AM 52.3°F11.3°C 50.9°F10.5°C 95% 2.3 mph NNW3.7 kmh NNW 3.5 mph5.6 kmh 28.03 in949.2 mb - 0.00 in0.0 mm 0.02 in0.5 mm
06:26 AM 52.3°F11.3°C 50.9°F10.5°C 95% 3.5 mph WNW5.6 kmh WNW 4.6 mph7.4 kmh 28.03 in949.2 mb - 0.00 in0.0 mm 0.02 in0.5 mm
06:25 AM 52.5°F11.4°C 51.1°F10.6°C 95% 3.5 mph NW5.6 kmh NW 5.8 mph9.3 kmh 28.03 in949.2 mb - 0.00 in0.0 mm 0.02 in0.5 mm
06:24 AM 52.5°F11.4°C 51.1°F10.6°C 95% 2.3 mph NW3.7 kmh NW 3.5 mph5.6 kmh 28.03 in949.2 mb - 0.00 in0.0 mm 0.02 in0.5 mm
06:23 AM 52.5°F11.4°C 51.1°F10.6°C 95% 1.2 mph WSW1.9 kmh WSW 2.3 mph3.7 kmh 28.03 in949.2 mb - 0.00 in0.0 mm 0.02 in0.5 mm
06:22 AM 52.5°F11.4°C 51.1°F10.6°C 95% 2.3 mph NE3.7 kmh NE 2.3 mph3.7 kmh 28.03 in949.2 mb - 0.00 in0.0 mm 0.02 in0.5 mm
06:21 AM 52.5°F11.4°C 51.1°F10.6°C 95% 3.5 mph NNW5.6 kmh NNW 3.5 mph5.6 kmh 28.03 in949.2 mb - 0.00 in0.0 mm 0.02 in0.5 mm
06:20 AM 52.5°F11.4°C 51.1°F10.6°C 95% 3.5 mph NNE5.6 kmh NNE 4.6 mph7.4 kmh 28.03 in949.2 mb - 0.00 in0.0 mm 0.02 in0.5 mm
06:19 AM 52.5°F11.4°C 51.1°F10.6°C 95% 4.6 mph WNW7.4 kmh WNW 4.6 mph7.4 kmh 28.03 in949.2 mb - 0.00 in0.0 mm 0.02 in0.5 mm
06:18 AM 52.5°F11.4°C 51.1°F10.6°C 95% 4.6 mph NW7.4 kmh NW 4.6 mph7.4 kmh 28.03 in949.2 mb - 0.00 in0.0 mm 0.02 in0.5 mm
06:17 AM 52.5°F11.4°C 51.4°F10.8°C 96% 3.5 mph 5.6 kmh 4.6 mph7.4 kmh 28.03 in949.2 mb - 0.00 in0.0 mm 0.02 in0.5 mm
06:16 AM 52.5°F11.4°C 51.4°F10.8°C 96% 3.5 mph W5.6 kmh W 3.5 mph5.6 kmh 28.03 in949.2 mb - 0.00 in0.0 mm 0.02 in0.5 mm
06:15 AM 52.5°F11.4°C 51.4°F10.8°C 96% 2.3 mph WNW3.7 kmh WNW 4.6 mph7.4 kmh 28.03 in949.2 mb - 0.00 in0.0 mm 0.02 in0.5 mm
06:14 AM 52.5°F11.4°C 51.4°F10.8°C 96% 2.3 mph N3.7 kmh N 2.3 mph3.7 kmh 28.03 in949.2 mb - 0.00 in0.0 mm 0.02 in0.5 mm
06:13 AM 52.5°F11.4°C 51.4°F10.8°C 96% 4.6 mph NNW7.4 kmh NNW 3.5 mph5.6 kmh 28.03 in949.2 mb - 0.00 in0.0 mm 0.02 in0.5 mm
06:12 AM 52.5°F11.4°C 51.4°F10.8°C 96% 3.5 mph NNW5.6 kmh NNW 5.8 mph9.3 kmh 28.03 in949.2 mb - 0.00 in0.0 mm 0.02 in0.5 mm
06:11 AM 52.5°F11.4°C 51.4°F10.8°C 96% 2.3 mph NW3.7 kmh NW 2.3 mph3.7 kmh 28.03 in949.2 mb - 0.00 in0.0 mm 0.02 in0.5 mm
06:10 AM 52.5°F11.4°C 51.4°F10.8°C 96% 3.5 mph NNW5.6 kmh NNW 2.3 mph3.7 kmh 28.03 in949.2 mb - 0.00 in0.0 mm 0.02 in0.5 mm
06:09 AM 52.5°F11.4°C 51.4°F10.8°C 96% 2.3 mph WSW3.7 kmh WSW 3.5 mph5.6 kmh 28.03 in949.2 mb - 0.00 in0.0 mm 0.02 in0.5 mm
06:08 AM 52.5°F11.4°C 51.4°F10.8°C 96% 2.3 mph N3.7 kmh N 3.5 mph5.6 kmh 28.03 in949.2 mb - 0.00 in0.0 mm 0.02 in0.5 mm
06:07 AM 52.5°F11.4°C 51.4°F10.8°C 96% 2.3 mph NW3.7 kmh NW 2.3 mph3.7 kmh 28.03 in949.2 mb - 0.00 in0.0 mm 0.02 in0.5 mm
06:06 AM 52.5°F11.4°C 51.4°F10.8°C 96% 3.5 mph N5.6 kmh N 4.6 mph7.4 kmh 28.03 in949.2 mb - 0.00 in0.0 mm 0.02 in0.5 mm
06:05 AM 52.5°F11.4°C 51.4°F10.8°C 96% 3.5 mph N5.6 kmh N 3.5 mph5.6 kmh 28.03 in949.2 mb - 0.00 in0.0 mm 0.02 in0.5 mm
06:04 AM 52.5°F11.4°C 51.4°F10.8°C 96% 3.5 mph NE5.6 kmh NE 4.6 mph7.4 kmh 28.03 in949.2 mb - 0.00 in0.0 mm 0.02 in0.5 mm
06:03 AM 52.5°F11.4°C 51.4°F10.8°C 96% 4.6 mph NNE7.4 kmh NNE 5.8 mph9.3 kmh 28.03 in949.2 mb - 0.00 in0.0 mm 0.02 in0.5 mm
06:02 AM 52.5°F11.4°C 51.4°F10.8°C 96% 3.5 mph N5.6 kmh N 5.8 mph9.3 kmh 28.03 in949.2 mb - 0.00 in0.0 mm 0.02 in0.5 mm
06:01 AM 52.5°F11.4°C 51.4°F10.8°C 96% 2.3 mph NW3.7 kmh NW 4.6 mph7.4 kmh 28.03 in949.2 mb - 0.00 in0.0 mm 0.02 in0.5 mm
06:00 AM 52.5°F11.4°C 51.4°F10.8°C 96% 3.5 mph NW5.6 kmh NW 4.6 mph7.4 kmh 28.03 in949.2 mb - 0.00 in0.0 mm 0.02 in0.5 mm
05:59 AM 52.5°F11.4°C 51.4°F10.8°C 96% 3.5 mph NNW5.6 kmh NNW 4.6 mph7.4 kmh 28.03 in949.2 mb - 0.00 in0.0 mm 0.02 in0.5 mm
05:58 AM 52.5°F11.4°C 51.4°F10.8°C 96% 3.5 mph N5.6 kmh N 4.6 mph7.4 kmh 28.03 in949.2 mb - 0.00 in0.0 mm 0.02 in0.5 mm
05:57 AM 52.5°F11.4°C 51.4°F10.8°C 96% 4.6 mph N7.4 kmh N 3.5 mph5.6 kmh 28.03 in949.2 mb - 0.00 in0.0 mm 0.02 in0.5 mm
05:56 AM 52.5°F11.4°C 51.4°F10.8°C 96% 4.6 mph N7.4 kmh N 5.8 mph9.3 kmh 28.03 in949.2 mb - 0.00 in0.0 mm 0.02 in0.5 mm
05:55 AM 52.5°F11.4°C 51.4°F10.8°C 96% 3.5 mph N5.6 kmh N 4.6 mph7.4 kmh 28.03 in949.2 mb - 0.00 in0.0 mm 0.02 in0.5 mm
05:54 AM 52.5°F11.4°C 51.4°F10.8°C 96% 2.3 mph NNW3.7 kmh NNW 4.6 mph7.4 kmh 28.03 in949.2 mb - 0.00 in0.0 mm 0.02 in0.5 mm
05:53 AM 52.5°F11.4°C 51.4°F10.8°C 96% 3.5 mph N5.6 kmh N 3.5 mph5.6 kmh 28.03 in949.2 mb - 0.00 in0.0 mm 0.02 in0.5 mm
05:52 AM 52.5°F11.4°C 51.4°F10.8°C 96% 2.3 mph NW3.7 kmh NW 3.5 mph5.6 kmh 28.03 in949.2 mb - 0.00 in0.0 mm 0.02 in0.5 mm
05:51 AM 52.5°F11.4°C 51.4°F10.8°C 96% 4.6 mph N7.4 kmh N 5.8 mph9.3 kmh 28.03 in949.2 mb - 0.00 in0.0 mm 0.02 in0.5 mm
05:50 AM 52.5°F11.4°C 51.4°F10.8°C 96% 5.8 mph NW9.3 kmh NW 5.8 mph9.3 kmh 28.03 in949.2 mb - 0.00 in0.0 mm 0.02 in0.5 mm
05:49 AM 52.5°F11.4°C 51.4°F10.8°C 96% 4.6 mph NW7.4 kmh NW 5.8 mph9.3 kmh 28.03 in949.2 mb - 0.00 in0.0 mm 0.02 in0.5 mm
05:48 AM 52.5°F11.4°C 51.4°F10.8°C 96% 4.6 mph NNW7.4 kmh NNW 5.8 mph9.3 kmh 28.02 in948.9 mb - 0.00 in0.0 mm 0.02 in0.5 mm
05:47 AM 52.5°F11.4°C 51.4°F10.8°C 96% 5.8 mph NNW9.3 kmh NNW 4.6 mph7.4 kmh 28.02 in948.9 mb - 0.00 in0.0 mm 0.02 in0.5 mm
05:46 AM 52.5°F11.4°C 51.4°F10.8°C 96% 5.8 mph N9.3 kmh N 8.1 mph13.0 kmh 28.02 in948.9 mb - 0.00 in0.0 mm 0.02 in0.5 mm
05:45 AM 52.5°F11.4°C 51.4°F10.8°C 96% 3.5 mph NW5.6 kmh NW 6.9 mph11.1 kmh 28.02 in948.9 mb - 0.00 in0.0 mm 0.02 in0.5 mm
05:44 AM 52.5°F11.4°C 51.4°F10.8°C 96% 3.5 mph NW5.6 kmh NW 3.5 mph5.6 kmh 28.02 in948.9 mb - 0.00 in0.0 mm 0.02 in0.5 mm
05:43 AM 52.5°F11.4°C 51.4°F10.8°C 96% 3.5 mph WNW5.6 kmh WNW 4.6 mph7.4 kmh 28.02 in948.9 mb - 0.00 in0.0 mm 0.02 in0.5 mm
05:42 AM 52.5°F11.4°C 51.4°F10.8°C 96% 3.5 mph NW5.6 kmh NW 4.6 mph7.4 kmh 28.02 in948.9 mb - 0.00 in0.0 mm 0.02 in0.5 mm
05:41 AM 52.5°F11.4°C 51.4°F10.8°C 96% 4.6 mph NW7.4 kmh NW 4.6 mph7.4 kmh 28.02 in948.9 mb - 0.00 in0.0 mm 0.02 in0.5 mm
05:40 AM 52.5°F11.4°C 51.4°F10.8°C 96% 3.5 mph N5.6 kmh N 5.8 mph9.3 kmh 28.02 in948.9 mb - 0.00 in0.0 mm 0.02 in0.5 mm
05:39 AM 52.5°F11.4°C 51.4°F10.8°C 96% 4.6 mph NNW7.4 kmh NNW 5.8 mph9.3 kmh 28.02 in948.9 mb - 0.00 in0.0 mm 0.02 in0.5 mm
05:38 AM 52.5°F11.4°C 51.4°F10.8°C 96% 3.5 mph NW5.6 kmh NW 4.6 mph7.4 kmh 28.02 in948.9 mb - 0.00 in0.0 mm 0.02 in0.5 mm
05:37 AM 52.5°F11.4°C 51.4°F10.8°C 96% 3.5 mph N5.6 kmh N 4.6 mph7.4 kmh 28.02 in948.9 mb - 0.00 in0.0 mm 0.02 in0.5 mm
05:36 AM 52.5°F11.4°C 51.4°F10.8°C 96% 3.5 mph NW5.6 kmh NW 3.5 mph5.6 kmh 28.03 in949.2 mb - 0.00 in0.0 mm 0.02 in0.5 mm
05:35 AM 52.5°F11.4°C 51.4°F10.8°C 96% 3.5 mph NW5.6 kmh NW 5.8 mph9.3 kmh 28.03 in949.2 mb - 0.00 in0.0 mm 0.02 in0.5 mm
05:34 AM 52.5°F11.4°C 51.4°F10.8°C 96% 3.5 mph NNE5.6 kmh NNE 3.5 mph5.6 kmh 28.03 in949.2 mb - 0.00 in0.0 mm 0.02 in0.5 mm
05:33 AM 52.5°F11.4°C 51.4°F10.8°C 96% 3.5 mph N5.6 kmh N 3.5 mph5.6 kmh 28.03 in949.2 mb - 0.00 in0.0 mm 0.02 in0.5 mm
05:32 AM 52.5°F11.4°C 51.4°F10.8°C 96% 3.5 mph N5.6 kmh N 5.8 mph9.3 kmh 28.03 in949.2 mb - 0.00 in0.0 mm 0.02 in0.5 mm
05:31 AM 52.5°F11.4°C 51.4°F10.8°C 96% 3.5 mph E5.6 kmh E 5.8 mph9.3 kmh 28.03 in949.2 mb - 0.00 in0.0 mm 0.02 in0.5 mm
05:30 AM 52.5°F11.4°C 51.4°F10.8°C 96% 3.5 mph N5.6 kmh N 4.6 mph7.4 kmh 28.03 in949.2 mb - 0.00 in0.0 mm 0.02 in0.5 mm
05:29 AM 52.5°F11.4°C 51.4°F10.8°C 96% 3.5 mph N5.6 kmh N 3.5 mph5.6 kmh 28.03 in949.2 mb - 0.00 in0.0 mm 0.02 in0.5 mm
05:28 AM 52.5°F11.4°C 51.4°F10.8°C 96% 4.6 mph NE7.4 kmh NE 5.8 mph9.3 kmh 28.03 in949.2 mb - 0.00 in0.0 mm 0.02 in0.5 mm
05:27 AM 52.5°F11.4°C 51.4°F10.8°C 96% 3.5 mph N5.6 kmh N 5.8 mph9.3 kmh 28.03 in949.2 mb - 0.00 in0.0 mm 0.02 in0.5 mm
05:26 AM 52.5°F11.4°C 51.4°F10.8°C 96% 4.6 mph N7.4 kmh N 5.8 mph9.3 kmh 28.03 in949.2 mb - 0.00 in0.0 mm 0.02 in0.5 mm
05:25 AM 52.5°F11.4°C 51.4°F10.8°C 96% 3.5 mph NNE5.6 kmh NNE 5.8 mph9.3 kmh 28.03 in949.2 mb - 0.00 in0.0 mm 0.02 in0.5 mm
05:24 AM 52.5°F11.4°C 51.4°F10.8°C 96% 4.6 mph NE7.4 kmh NE 5.8 mph9.3 kmh 28.02 in948.9 mb - 0.00 in0.0 mm 0.02 in0.5 mm
05:23 AM 52.5°F11.4°C 51.4°F10.8°C 96% 4.6 mph N7.4 kmh N 5.8 mph9.3 kmh 28.02 in948.9 mb - 0.00 in0.0 mm 0.02 in0.5 mm
05:22 AM 52.5°F11.4°C 51.4°F10.8°C 96% 5.8 mph NW9.3 kmh NW 5.8 mph9.3 kmh 28.02 in948.9 mb - 0.00 in0.0 mm 0.02 in0.5 mm
05:21 AM 52.7°F11.5°C 51.6°F10.9°C 96% 3.5 mph N5.6 kmh N 5.8 mph9.3 kmh 28.02 in948.9 mb - 0.00 in0.0 mm 0.02 in0.5 mm
05:20 AM 52.7°F11.5°C 51.6°F10.9°C 96% 3.5 mph NW5.6 kmh NW 3.5 mph5.6 kmh 28.02 in948.9 mb - 0.00 in0.0 mm 0.02 in0.5 mm
05:19 AM 52.7°F11.5°C 51.6°F10.9°C 96% 3.5 mph NNW5.6 kmh NNW 5.8 mph9.3 kmh 28.02 in948.9 mb - 0.00 in0.0 mm 0.02 in0.5 mm
05:18 AM 52.7°F11.5°C 51.6°F10.9°C 96% 3.5 mph NW5.6 kmh NW 3.5 mph5.6 kmh 28.02 in948.9 mb - 0.00 in0.0 mm 0.02 in0.5 mm
05:17 AM 52.7°F11.5°C 51.6°F10.9°C 96% 3.5 mph NNE5.6 kmh NNE 3.5 mph5.6 kmh 28.02 in948.9 mb - 0.00 in0.0 mm 0.02 in0.5 mm
05:16 AM 52.7°F11.5°C 51.6°F10.9°C 96% 3.5 mph ENE5.6 kmh ENE 4.6 mph7.4 kmh 28.02 in948.9 mb - 0.00 in0.0 mm 0.02 in0.5 mm
05:15 AM 52.7°F11.5°C 51.6°F10.9°C 96% 2.3 mph NE3.7 kmh NE 4.6 mph7.4 kmh 28.02 in948.9 mb - 0.00 in0.0 mm 0.02 in0.5 mm
05:14 AM 52.7°F11.5°C 51.6°F10.9°C 96% 3.5 mph NNW5.6 kmh NNW 3.5 mph5.6 kmh 28.02 in948.9 mb - 0.00 in0.0 mm 0.02 in0.5 mm
05:13 AM 52.7°F11.5°C 51.6°F10.9°C 96% 3.5 mph N5.6 kmh N 4.6 mph7.4 kmh 28.02 in948.9 mb - 0.00 in0.0 mm 0.02 in0.5 mm
05:12 AM 52.7°F11.5°C 51.6°F10.9°C 96% 4.6 mph NNW7.4 kmh NNW 3.5 mph5.6 kmh 28.02 in948.9 mb - 0.00 in0.0 mm 0.02 in0.5 mm
05:11 AM 52.7°F11.5°C 51.6°F10.9°C 96% 4.6 mph NNW7.4 kmh NNW 5.8 mph9.3 kmh 28.02 in948.9 mb - 0.00 in0.0 mm 0.02 in0.5 mm
05:10 AM 52.7°F11.5°C 51.6°F10.9°C 96% 4.6 mph WNW7.4 kmh WNW 5.8 mph9.3 kmh 28.02 in948.9 mb - 0.00 in0.0 mm 0.02 in0.5 mm
05:09 AM 52.9°F11.6°C 51.8°F11.0°C 96% 3.5 mph NNW5.6 kmh NNW 5.8 mph9.3 kmh 28.02 in948.9 mb - 0.00 in0.0 mm 0.02 in0.5 mm
05:08 AM 52.9°F11.6°C 51.8°F11.0°C 96% 3.5 mph 5.6 kmh 3.5 mph5.6 kmh 28.02 in948.9 mb - 0.00 in0.0 mm 0.02 in0.5 mm
05:07 AM 52.9°F11.6°C 51.8°F11.0°C 96% 3.5 mph NW5.6 kmh NW 4.6 mph7.4 kmh 28.02 in948.9 mb - 0.00 in0.0 mm 0.02 in0.5 mm
05:06 AM 52.9°F11.6°C 51.8°F11.0°C 96% 3.5 mph W5.6 kmh W 4.6 mph7.4 kmh 28.02 in948.9 mb - 0.00 in0.0 mm 0.02 in0.5 mm
05:05 AM 52.9°F11.6°C 51.8°F11.0°C 96% 3.5 mph WSW5.6 kmh WSW 4.6 mph7.4 kmh 28.02 in948.9 mb - 0.00 in0.0 mm 0.02 in0.5 mm
05:04 AM 52.9°F11.6°C 51.8°F11.0°C 96% 3.5 mph NE5.6 kmh NE 4.6 mph7.4 kmh 28.02 in948.9 mb - 0.00 in0.0 mm 0.02 in0.5 mm
05:03 AM 52.9°F11.6°C 51.8°F11.0°C 96% 3.5 mph 5.6 kmh 4.6 mph7.4 kmh 28.02 in948.9 mb - 0.00 in0.0 mm 0.02 in0.5 mm
05:02 AM 52.9°F11.6°C 51.8°F11.0°C 96% 4.6 mph NNW7.4 kmh NNW 4.6 mph7.4 kmh 28.02 in948.9 mb - 0.00 in0.0 mm 0.02 in0.5 mm
05:01 AM 52.9°F11.6°C 51.8°F11.0°C 96% 4.6 mph NE7.4 kmh NE 5.8 mph9.3 kmh 28.02 in948.9 mb - 0.00 in0.0 mm 0.02 in0.5 mm
05:00 AM 52.9°F11.6°C 51.8°F11.0°C 96% 5.8 mph NNE9.3 kmh NNE 5.8 mph9.3 kmh 28.02 in948.9 mb - 0.00 in0.0 mm 0.02 in0.5 mm
04:59 AM 52.9°F11.6°C 51.8°F11.0°C 96% 5.8 mph N9.3 kmh N 6.9 mph11.1 kmh 28.02 in948.9 mb - 0.00 in0.0 mm 0.02 in0.5 mm
04:58 AM 52.9°F11.6°C 51.8°F11.0°C 96% 5.8 mph NW9.3 kmh NW 6.9 mph11.1 kmh 28.02 in948.9 mb - 0.00 in0.0 mm 0.02 in0.5 mm
04:57 AM 52.9°F11.6°C 51.8°F11.0°C 96% 5.8 mph NW9.3 kmh NW 5.8 mph9.3 kmh 28.02 in948.9 mb - 0.00 in0.0 mm 0.02 in0.5 mm
04:56 AM 52.9°F11.6°C 51.8°F11.0°C 96% 5.8 mph N9.3 kmh N 6.9 mph11.1 kmh 28.02 in948.9 mb - 0.00 in0.0 mm 0.02 in0.5 mm
04:55 AM 52.9°F11.6°C 51.8°F11.0°C 96% 4.6 mph WNW7.4 kmh WNW 6.9 mph11.1 kmh 28.02 in948.9 mb - 0.00 in0.0 mm 0.02 in0.5 mm
04:54 AM 52.9°F11.6°C 51.8°F11.0°C 96% 4.6 mph NW7.4 kmh NW 5.8 mph9.3 kmh 28.02 in948.9 mb - 0.00 in0.0 mm 0.02 in0.5 mm
04:53 AM 52.9°F11.6°C 51.8°F11.0°C 96% 4.6 mph W7.4 kmh W 5.8 mph9.3 kmh 28.02 in948.9 mb - 0.00 in0.0 mm 0.02 in0.5 mm
04:52 AM 53.1°F11.7°C 52.0°F11.1°C 96% 4.6 mph W7.4 kmh W 5.8 mph9.3 kmh 28.02 in948.9 mb - 0.00 in0.0 mm 0.02 in0.5 mm
04:51 AM 53.1°F11.7°C 52.0°F11.1°C 96% 4.6 mph SW7.4 kmh SW 4.6 mph7.4 kmh 28.02 in948.9 mb - 0.00 in0.0 mm 0.02 in0.5 mm
04:50 AM 53.1°F11.7°C 52.0°F11.1°C 96% 4.6 mph NW7.4 kmh NW 5.8 mph9.3 kmh 28.02 in948.9 mb - 0.00 in0.0 mm 0.02 in0.5 mm
04:49 AM 53.1°F11.7°C 52.0°F11.1°C 96% 5.8 mph NNW9.3 kmh NNW 8.1 mph13.0 kmh 28.02 in948.9 mb - 0.00 in0.0 mm 0.02 in0.5 mm
04:48 AM 53.1°F11.7°C 52.0°F11.1°C 96% 3.5 mph NW5.6 kmh NW 5.8 mph9.3 kmh 28.02 in948.9 mb - 0.00 in0.0 mm 0.02 in0.5 mm
04:47 AM 53.1°F11.7°C 52.0°F11.1°C 96% 2.3 mph NW3.7 kmh NW 5.8 mph9.3 kmh 28.02 in948.9 mb - 0.00 in0.0 mm 0.02 in0.5 mm
04:46 AM 53.1°F11.7°C 52.0°F11.1°C 96% 4.6 mph NW7.4 kmh NW 4.6 mph7.4 kmh 28.02 in948.9 mb - 0.00 in0.0 mm 0.02 in0.5 mm
04:45 AM 53.1°F11.7°C 52.0°F11.1°C 96% 4.6 mph NW7.4 kmh NW 5.8 mph9.3 kmh 28.02 in948.9 mb - 0.00 in0.0 mm 0.02 in0.5 mm
04:44 AM 53.1°F11.7°C 52.0°F11.1°C 96% 2.3 mph WNW3.7 kmh WNW 5.8 mph9.3 kmh 28.02 in948.9 mb - 0.00 in0.0 mm 0.02 in0.5 mm
04:43 AM 53.1°F11.7°C 52.0°F11.1°C 96% 3.5 mph WNW5.6 kmh WNW 3.5 mph5.6 kmh 28.02 in948.9 mb - 0.00 in0.0 mm 0.02 in0.5 mm
04:42 AM 53.1°F11.7°C 52.0°F11.1°C 96% 4.6 mph NW7.4 kmh NW 5.8 mph9.3 kmh 28.02 in948.9 mb - 0.00 in0.0 mm 0.02 in0.5 mm
04:41 AM 53.1°F11.7°C 52.0°F11.1°C 96% 5.8 mph NNW9.3 kmh NNW 6.9 mph11.1 kmh 28.02 in948.9 mb - 0.00 in0.0 mm 0.02 in0.5 mm
04:40 AM 53.1°F11.7°C 52.0°F11.1°C 96% 3.5 mph WNW5.6 kmh WNW 6.9 mph11.1 kmh 28.02 in948.9 mb - 0.00 in0.0 mm 0.02 in0.5 mm
04:39 AM 53.1°F11.7°C 52.0°F11.1°C 96% 5.8 mph W9.3 kmh W 6.9 mph11.1 kmh 28.02 in948.9 mb - 0.00 in0.0 mm 0.02 in0.5 mm
04:38 AM 53.1°F11.7°C 52.0°F11.1°C 96% 4.6 mph W7.4 kmh W 6.9 mph11.1 kmh 28.02 in948.9 mb - 0.00 in0.0 mm 0.02 in0.5 mm
04:37 AM 53.1°F11.7°C 52.0°F11.1°C 96% 4.6 mph NW7.4 kmh NW 4.6 mph7.4 kmh 28.02 in948.9 mb - 0.00 in0.0 mm 0.02 in0.5 mm
04:36 AM 53.1°F11.7°C 52.0°F11.1°C 96% 4.6 mph NW7.4 kmh NW 6.9 mph11.1 kmh 28.02 in948.9 mb - 0.00 in0.0 mm 0.02 in0.5 mm
04:35 AM 53.2°F11.8°C 52.1°F11.2°C 96% 4.6 mph NW7.4 kmh NW 5.8 mph9.3 kmh 28.02 in948.9 mb - 0.01 in0.3 mm 0.02 in0.5 mm
04:34 AM 53.2°F11.8°C 52.1°F11.2°C 96% 4.6 mph NW7.4 kmh NW 5.8 mph9.3 kmh 28.02 in948.9 mb - 0.01 in0.3 mm 0.02 in0.5 mm
04:33 AM 53.2°F11.8°C 52.1°F11.2°C 96% 3.5 mph NNW5.6 kmh NNW 3.5 mph5.6 kmh 28.02 in948.9 mb - 0.00 in0.0 mm 0.01 in0.3 mm
04:32 AM 53.2°F11.8°C 52.1°F11.2°C 96% 3.5 mph N5.6 kmh N 3.5 mph5.6 kmh 28.02 in948.9 mb - 0.00 in0.0 mm 0.01 in0.3 mm
04:31 AM 53.2°F11.8°C 52.1°F11.2°C 96% 3.5 mph WNW5.6 kmh WNW 4.6 mph7.4 kmh 28.02 in948.9 mb - 0.00 in0.0 mm 0.01 in0.3 mm
04:30 AM 53.2°F11.8°C 52.1°F11.2°C 96% 3.5 mph W5.6 kmh W 4.6 mph7.4 kmh 28.02 in948.9 mb - 0.00 in0.0 mm 0.01 in0.3 mm
04:29 AM 53.2°F11.8°C 52.1°F11.2°C 96% 3.5 mph N5.6 kmh N 3.5 mph5.6 kmh 28.02 in948.9 mb - 0.00 in0.0 mm 0.01 in0.3 mm
04:28 AM 53.2°F11.8°C 52.1°F11.2°C 96% 3.5 mph WNW5.6 kmh WNW 5.8 mph9.3 kmh 28.02 in948.9 mb - 0.00 in0.0 mm 0.01 in0.3 mm
04:27 AM 53.2°F11.8°C 52.1°F11.2°C 96% 2.3 mph NW3.7 kmh NW 4.6 mph7.4 kmh 28.02 in948.9 mb - 0.00 in0.0 mm 0.01 in0.3 mm
04:26 AM 53.2°F11.8°C 52.1°F11.2°C 96% 1.2 mph N1.9 kmh N 2.3 mph3.7 kmh 28.02 in948.9 mb - 0.00 in0.0 mm 0.01 in0.3 mm
04:25 AM 53.2°F11.8°C 52.1°F11.2°C 96% 2.3 mph NNW3.7 kmh NNW 2.3 mph3.7 kmh 28.02 in948.9 mb - 0.00 in0.0 mm 0.01 in0.3 mm
04:24 AM 53.2°F11.8°C 52.1°F11.2°C 96% Calm Calm 2.3 mph3.7 kmh 28.02 in948.9 mb - 0.00 in0.0 mm 0.01 in0.3 mm
04:23 AM 53.2°F11.8°C 52.1°F11.2°C 96% Calm Calm -- 28.02 in948.9 mb - 0.00 in0.0 mm 0.01 in0.3 mm
04:22 AM 53.2°F11.8°C 52.1°F11.2°C 96% Calm Calm -- 28.02 in948.9 mb - 0.00 in0.0 mm 0.01 in0.3 mm
04:21 AM 53.2°F11.8°C 52.1°F11.2°C 96% 1.2 mph SW1.9 kmh SW 1.2 mph1.9 kmh 28.02 in948.9 mb - 0.00 in0.0 mm 0.01 in0.3 mm
04:20 AM 53.2°F11.8°C 52.1°F11.2°C 96% 1.2 mph WNW1.9 kmh WNW 1.2 mph1.9 kmh 28.02 in948.9 mb - 0.00 in0.0 mm 0.01 in0.3 mm
04:19 AM 53.2°F11.8°C 52.1°F11.2°C 96% 1.2 mph W1.9 kmh W 1.2 mph1.9 kmh 28.02 in948.9 mb - 0.00 in0.0 mm 0.01 in0.3 mm
04:18 AM 53.2°F11.8°C 52.1°F11.2°C 96% Calm Calm 1.2 mph1.9 kmh 28.02 in948.9 mb - 0.00 in0.0 mm 0.01 in0.3 mm
04:17 AM 53.2°F11.8°C 52.1°F11.2°C 96% 1.2 mph W1.9 kmh W 2.3 mph3.7 kmh 28.02 in948.9 mb - 0.00 in0.0 mm 0.01 in0.3 mm
04:16 AM 53.2°F11.8°C 52.1°F11.2°C 96% 2.3 mph WNW3.7 kmh WNW 2.3 mph3.7 kmh 28.02 in948.9 mb - 0.00 in0.0 mm 0.01 in0.3 mm
04:15 AM 53.2°F11.8°C 52.1°F11.2°C 96% 2.3 mph WNW3.7 kmh WNW 3.5 mph5.6 kmh 28.02 in948.9 mb - 0.00 in0.0 mm 0.01 in0.3 mm
04:14 AM 53.2°F11.8°C 52.1°F11.2°C 96% Calm Calm 2.3 mph3.7 kmh 28.02 in948.9 mb - 0.00 in0.0 mm 0.01 in0.3 mm
04:13 AM 53.2°F11.8°C 52.1°F11.2°C 96% 1.2 mph NW1.9 kmh NW 1.2 mph1.9 kmh 28.02 in948.9 mb - 0.00 in0.0 mm 0.01 in0.3 mm
04:12 AM 53.2°F11.8°C 52.1°F11.2°C 96% Calm Calm 1.2 mph1.9 kmh 28.02 in948.9 mb - 0.00 in0.0 mm 0.01 in0.3 mm
04:11 AM 53.2°F11.8°C 52.1°F11.2°C 96% 1.2 mph E1.9 kmh E -- 28.02 in948.9 mb - 0.00 in0.0 mm 0.01 in0.3 mm
04:10 AM 53.2°F11.8°C 52.1°F11.2°C 96% 2.3 mph ENE3.7 kmh ENE 2.3 mph3.7 kmh 28.02 in948.9 mb - 0.00 in0.0 mm 0.01 in0.3 mm
04:09 AM 53.2°F11.8°C 52.1°F11.2°C 96% 2.3 mph N3.7 kmh N 2.3 mph3.7 kmh 28.02 in948.9 mb - 0.00 in0.0 mm 0.01 in0.3 mm
04:08 AM 53.2°F11.8°C 52.1°F11.2°C 96% 1.2 mph N1.9 kmh N 2.3 mph3.7 kmh 28.02 in948.9 mb - 0.00 in0.0 mm 0.01 in0.3 mm
04:07 AM 53.2°F11.8°C 52.1°F11.2°C 96% 1.2 mph NNW1.9 kmh NNW 2.3 mph3.7 kmh 28.02 in948.9 mb - 0.00 in0.0 mm 0.01 in0.3 mm
04:06 AM 53.2°F11.8°C 52.1°F11.2°C 96% 1.2 mph NE1.9 kmh NE -- 28.02 in948.9 mb - 0.00 in0.0 mm 0.01 in0.3 mm
04:05 AM 53.2°F11.8°C 52.1°F11.2°C 96% 2.3 mph NNW3.7 kmh NNW 3.5 mph5.6 kmh 28.02 in948.9 mb - 0.00 in0.0 mm 0.01 in0.3 mm
04:04 AM 53.2°F11.8°C 52.1°F11.2°C 96% 2.3 mph NW3.7 kmh NW 3.5 mph5.6 kmh 28.02 in948.9 mb - 0.00 in0.0 mm 0.01 in0.3 mm
04:03 AM 53.2°F11.8°C 52.1°F11.2°C 96% Calm Calm 1.2 mph1.9 kmh 28.02 in948.9 mb - 0.00 in0.0 mm 0.01 in0.3 mm
04:02 AM 53.2°F11.8°C 52.1°F11.2°C 96% 1.2 mph ENE1.9 kmh ENE 2.3 mph3.7 kmh 28.02 in948.9 mb - 0.00 in0.0 mm 0.01 in0.3 mm
04:01 AM 53.2°F11.8°C 52.1°F11.2°C 96% 2.3 mph NNE3.7 kmh NNE 1.2 mph1.9 kmh 28.02 in948.9 mb - 0.00 in0.0 mm 0.01 in0.3 mm
04:00 AM 53.2°F11.8°C 52.1°F11.2°C 96% 2.3 mph NW3.7 kmh NW 2.3 mph3.7 kmh 28.02 in948.9 mb - 0.00 in0.0 mm 0.01 in0.3 mm
03:59 AM 53.2°F11.8°C 52.1°F11.2°C 96% 2.3 mph N3.7 kmh N 3.5 mph5.6 kmh 28.02 in948.9 mb - 0.00 in0.0 mm 0.01 in0.3 mm
03:58 AM 53.2°F11.8°C 52.1°F11.2°C 96% 2.3 mph NNW3.7 kmh NNW 3.5 mph5.6 kmh 28.02 in948.9 mb - 0.00 in0.0 mm 0.01 in0.3 mm
03:57 AM 53.2°F11.8°C 52.1°F11.2°C 96% 2.3 mph NNW3.7 kmh NNW 2.3 mph3.7 kmh 28.02 in948.9 mb - 0.00 in0.0 mm 0.01 in0.3 mm
03:56 AM 53.2°F11.8°C 52.1°F11.2°C 96% 2.3 mph NW3.7 kmh NW 2.3 mph3.7 kmh 28.02 in948.9 mb - 0.00 in0.0 mm 0.01 in0.3 mm
03:55 AM 53.2°F11.8°C 52.1°F11.2°C 96% 3.5 mph NW5.6 kmh NW 3.5 mph5.6 kmh 28.02 in948.9 mb - 0.00 in0.0 mm 0.01 in0.3 mm
03:54 AM 53.2°F11.8°C 52.1°F11.2°C 96% 2.3 mph NW3.7 kmh NW 4.6 mph7.4 kmh 28.02 in948.9 mb - 0.00 in0.0 mm 0.01 in0.3 mm
03:53 AM 53.2°F11.8°C 52.1°F11.2°C 96% 2.3 mph NW3.7 kmh NW 2.3 mph3.7 kmh 28.02 in948.9 mb - 0.00 in0.0 mm 0.01 in0.3 mm
03:52 AM 53.2°F11.8°C 52.1°F11.2°C 96% 3.5 mph NNW5.6 kmh NNW 4.6 mph7.4 kmh 28.02 in948.9 mb - 0.00 in0.0 mm 0.01 in0.3 mm
03:51 AM 53.2°F11.8°C 52.1°F11.2°C 96% 2.3 mph E3.7 kmh E 2.3 mph3.7 kmh 28.02 in948.9 mb - 0.00 in0.0 mm 0.01 in0.3 mm
03:50 AM 53.2°F11.8°C 52.1°F11.2°C 96% 2.3 mph WNW3.7 kmh WNW 3.5 mph5.6 kmh 28.02 in948.9 mb - 0.00 in0.0 mm 0.01 in0.3 mm
03:49 AM 53.2°F11.8°C 52.1°F11.2°C 96% 3.5 mph N5.6 kmh N 5.8 mph9.3 kmh 28.02 in948.9 mb - 0.00 in0.0 mm 0.01 in0.3 mm
03:48 AM 53.2°F11.8°C 52.1°F11.2°C 96% 3.5 mph NW5.6 kmh NW 5.8 mph9.3 kmh 28.02 in948.9 mb - 0.00 in0.0 mm 0.01 in0.3 mm
03:47 AM 53.2°F11.8°C 52.1°F11.2°C 96% 3.5 mph N5.6 kmh N 4.6 mph7.4 kmh 28.02 in948.9 mb - 0.00 in0.0 mm 0.01 in0.3 mm
03:46 AM 53.2°F11.8°C 52.1°F11.2°C 96% 3.5 mph W5.6 kmh W 4.6 mph7.4 kmh 28.02 in948.9 mb - 0.00 in0.0 mm 0.01 in0.3 mm
03:45 AM 53.2°F11.8°C 52.1°F11.2°C 96% 2.3 mph NNW3.7 kmh NNW 4.6 mph7.4 kmh 28.02 in948.9 mb - 0.00 in0.0 mm 0.01 in0.3 mm
03:44 AM 53.2°F11.8°C 52.1°F11.2°C 96% 2.3 mph NE3.7 kmh NE 2.3 mph3.7 kmh 28.02 in948.9 mb - 0.00 in0.0 mm 0.01 in0.3 mm
03:43 AM 53.2°F11.8°C 52.1°F11.2°C 96% 3.5 mph NW5.6 kmh NW 4.6 mph7.4 kmh 28.02 in948.9 mb - 0.00 in0.0 mm 0.01 in0.3 mm
03:42 AM 53.2°F11.8°C 52.1°F11.2°C 96% 2.3 mph N3.7 kmh N 4.6 mph7.4 kmh 28.02 in948.9 mb - 0.00 in0.0 mm 0.01 in0.3 mm
03:41 AM 53.2°F11.8°C 52.1°F11.2°C 96% 2.3 mph NE3.7 kmh NE 2.3 mph3.7 kmh 28.02 in948.9 mb - 0.00 in0.0 mm 0.01 in0.3 mm
03:40 AM 53.2°F11.8°C 52.1°F11.2°C 96% 3.5 mph WNW5.6 kmh WNW 5.8 mph9.3 kmh 28.02 in948.9 mb - 0.00 in0.0 mm 0.01 in0.3 mm
03:39 AM 53.2°F11.8°C 52.1°F11.2°C 96% 4.6 mph N7.4 kmh N 5.8 mph9.3 kmh 28.02 in948.9 mb - 0.00 in0.0 mm 0.01 in0.3 mm
03:38 AM 53.2°F11.8°C 52.1°F11.2°C 96% 4.6 mph N7.4 kmh N 4.6 mph7.4 kmh 28.02 in948.9 mb - 0.00 in0.0 mm 0.01 in0.3 mm
03:37 AM 53.2°F11.8°C 52.1°F11.2°C 96% 3.5 mph NW5.6 kmh NW 4.6 mph7.4 kmh 28.02 in948.9 mb - 0.00 in0.0 mm 0.01 in0.3 mm
03:36 AM 53.2°F11.8°C 52.1°F11.2°C 96% 2.3 mph NNW3.7 kmh NNW 2.3 mph3.7 kmh 28.02 in948.9 mb - 0.00 in0.0 mm 0.01 in0.3 mm
03:35 AM 53.2°F11.8°C 52.1°F11.2°C 96% 2.3 mph WNW3.7 kmh WNW 2.3 mph3.7 kmh 28.02 in948.9 mb - 0.00 in0.0 mm 0.01 in0.3 mm
03:34 AM 53.2°F11.8°C 52.1°F11.2°C 96% 2.3 mph W3.7 kmh W 2.3 mph3.7 kmh 28.02 in948.9 mb - 0.00 in0.0 mm 0.01 in0.3 mm
03:33 AM 53.2°F11.8°C 52.1°F11.2°C 96% 2.3 mph N3.7 kmh N 2.3 mph3.7 kmh 28.02 in948.9 mb - 0.00 in0.0 mm 0.01 in0.3 mm
03:32 AM 53.2°F11.8°C 52.1°F11.2°C 96% 3.5 mph W5.6 kmh W 4.6 mph7.4 kmh 28.02 in948.9 mb - 0.00 in0.0 mm 0.01 in0.3 mm
03:31 AM 53.2°F11.8°C 52.1°F11.2°C 96% 3.5 mph WNW5.6 kmh WNW 3.5 mph5.6 kmh 28.02 in948.9 mb - 0.00 in0.0 mm 0.01 in0.3 mm
03:30 AM 53.2°F11.8°C 52.1°F11.2°C 96% 2.3 mph W3.7 kmh W 3.5 mph5.6 kmh 28.02 in948.9 mb - 0.00 in0.0 mm 0.01 in0.3 mm
03:29 AM 53.2°F11.8°C 52.1°F11.2°C 96% 2.3 mph NNW3.7 kmh NNW 4.6 mph7.4 kmh 28.02 in948.9 mb - 0.00 in0.0 mm 0.01 in0.3 mm
03:28 AM 53.2°F11.8°C 52.1°F11.2°C 96% 3.5 mph NW5.6 kmh NW 3.5 mph5.6 kmh 28.02 in948.9 mb - 0.00 in0.0 mm 0.01 in0.3 mm
03:27 AM 53.2°F11.8°C 52.1°F11.2°C 96% 3.5 mph NNW5.6 kmh NNW 4.6 mph7.4 kmh 28.02 in948.9 mb - 0.00 in0.0 mm 0.01 in0.3 mm
03:26 AM 53.2°F11.8°C 52.1°F11.2°C 96% 2.3 mph N3.7 kmh N 4.6 mph7.4 kmh 28.02 in948.9 mb - 0.00 in0.0 mm 0.01 in0.3 mm
03:25 AM 53.2°F11.8°C 52.1°F11.2°C 96% 1.2 mph NW1.9 kmh NW 2.3 mph3.7 kmh 28.02 in948.9 mb - 0.00 in0.0 mm 0.01 in0.3 mm
03:24 AM 53.2°F11.8°C 52.1°F11.2°C 96% 2.3 mph ENE3.7 kmh ENE 2.3 mph3.7 kmh 28.02 in948.9 mb - 0.00 in0.0 mm 0.01 in0.3 mm
03:23 AM 53.2°F11.8°C 52.1°F11.2°C 96% 2.3 mph NW3.7 kmh NW 3.5 mph5.6 kmh 28.02 in948.9 mb - 0.00 in0.0 mm 0.01 in0.3 mm
03:22 AM 53.2°F11.8°C 51.8°F11.0°C 95% 2.3 mph WNW3.7 kmh WNW 3.5 mph5.6 kmh 28.02 in948.9 mb - 0.00 in0.0 mm 0.01 in0.3 mm
03:21 AM 53.2°F11.8°C 51.8°F11.0°C 95% 2.3 mph NW3.7 kmh NW 3.5 mph5.6 kmh 28.02 in948.9 mb - 0.00 in0.0 mm 0.01 in0.3 mm
03:20 AM 53.2°F11.8°C 51.8°F11.0°C 95% 2.3 mph NE3.7 kmh NE 2.3 mph3.7 kmh 28.02 in948.9 mb - 0.00 in0.0 mm 0.01 in0.3 mm
03:19 AM 53.2°F11.8°C 51.8°F11.0°C 95% 2.3 mph NW3.7 kmh NW 3.5 mph5.6 kmh 28.02 in948.9 mb - 0.00 in0.0 mm 0.01 in0.3 mm
03:18 AM 53.2°F11.8°C 51.8°F11.0°C 95% 3.5 mph NW5.6 kmh NW 3.5 mph5.6 kmh 28.02 in948.9 mb - 0.00 in0.0 mm 0.01 in0.3 mm
03:17 AM 53.2°F11.8°C 51.8°F11.0°C 95% 3.5 mph NW5.6 kmh NW 4.6 mph7.4 kmh 28.02 in948.9 mb - 0.00 in0.0 mm 0.01 in0.3 mm
03:16 AM 53.2°F11.8°C 51.8°F11.0°C 95% 3.5 mph N5.6 kmh N 5.8 mph9.3 kmh 28.02 in948.9 mb - 0.00 in0.0 mm 0.01 in0.3 mm
03:15 AM 53.3°F11.8°C 51.9°F11.1°C 95% 2.3 mph NNW3.7 kmh NNW 5.8 mph9.3 kmh 28.02 in948.9 mb - 0.00 in0.0 mm 0.01 in0.3 mm
03:14 AM 53.4°F11.9°C 52.0°F11.1°C 95% 2.3 mph NNW3.7 kmh NNW 2.3 mph3.7 kmh 28.02 in948.9 mb - 0.00 in0.0 mm 0.01 in0.3 mm
03:13 AM 53.4°F11.9°C 52.0°F11.1°C 95% 3.5 mph NW5.6 kmh NW 4.6 mph7.4 kmh 28.02 in948.9 mb - 0.00 in0.0 mm 0.01 in0.3 mm
03:12 AM 53.4°F11.9°C 52.0°F11.1°C 95% 2.3 mph N3.7 kmh N 4.6 mph7.4 kmh 28.02 in948.9 mb - 0.00 in0.0 mm 0.01 in0.3 mm
03:11 AM 53.4°F11.9°C 52.0°F11.1°C 95% 3.5 mph N5.6 kmh N 3.5 mph5.6 kmh 28.02 in948.9 mb - 0.00 in0.0 mm 0.01 in0.3 mm
03:10 AM 53.4°F11.9°C 52.0°F11.1°C 95% 2.3 mph NNW3.7 kmh NNW 3.5 mph5.6 kmh 28.02 in948.9 mb - 0.00 in0.0 mm 0.01 in0.3 mm
03:09 AM 53.4°F11.9°C 52.0°F11.1°C 95% 2.3 mph WNW3.7 kmh WNW 2.3 mph3.7 kmh 28.02 in948.9 mb - 0.00 in0.0 mm 0.01 in0.3 mm
03:08 AM 53.4°F11.9°C 52.0°F11.1°C 95% 2.3 mph NNE3.7 kmh NNE 2.3 mph3.7 kmh 28.02 in948.9 mb - 0.00 in0.0 mm 0.01 in0.3 mm
03:07 AM 53.4°F11.9°C 52.0°F11.1°C 95% 2.3 mph NW3.7 kmh NW 2.3 mph3.7 kmh 28.02 in948.9 mb - 0.00 in0.0 mm 0.01 in0.3 mm
03:06 AM 53.4°F11.9°C 52.0°F11.1°C 95% 2.3 mph NW3.7 kmh NW 2.3 mph3.7 kmh 28.02 in948.9 mb - 0.00 in0.0 mm 0.01 in0.3 mm
03:05 AM 53.6°F12.0°C 52.2°F11.2°C 95% 2.3 mph N3.7 kmh N 2.3 mph3.7 kmh 28.02 in948.9 mb - 0.00 in0.0 mm 0.01 in0.3 mm
03:04 AM 53.6°F12.0°C 52.2°F11.2°C 95% 2.3 mph N3.7 kmh N 2.3 mph3.7 kmh 28.02 in948.9 mb - 0.00 in0.0 mm 0.01 in0.3 mm
03:03 AM 53.6°F12.0°C 52.2°F11.2°C 95% 2.3 mph NNE3.7 kmh NNE 2.3 mph3.7 kmh 28.02 in948.9 mb - 0.00 in0.0 mm 0.01 in0.3 mm
03:02 AM 53.6°F12.0°C 52.2°F11.2°C 95% 2.3 mph NNE3.7 kmh NNE 2.3 mph3.7 kmh 28.02 in948.9 mb - 0.00 in0.0 mm 0.01 in0.3 mm
03:01 AM 53.6°F12.0°C 52.2°F11.2°C 95% 2.3 mph NE3.7 kmh NE 2.3 mph3.7 kmh 28.02 in948.9 mb - 0.00 in0.0 mm 0.01 in0.3 mm
03:00 AM 53.6°F12.0°C 52.2°F11.2°C 95% 3.5 mph NNE5.6 kmh NNE 4.6 mph7.4 kmh 28.03 in949.2 mb - 0.00 in0.0 mm 0.01 in0.3 mm
02:59 AM 53.6°F12.0°C 52.2°F11.2°C 95% 2.3 mph NW3.7 kmh NW 4.6 mph7.4 kmh 28.03 in949.2 mb - 0.00 in0.0 mm 0.01 in0.3 mm
02:58 AM 53.6°F12.0°C 52.2°F11.2°C 95% 2.3 mph E3.7 kmh E 2.3 mph3.7 kmh 28.03 in949.2 mb - 0.00 in0.0 mm 0.01 in0.3 mm
02:57 AM 53.6°F12.0°C 52.2°F11.2°C 95% 2.3 mph NE3.7 kmh NE 2.3 mph3.7 kmh 28.03 in949.2 mb - 0.00 in0.0 mm 0.01 in0.3 mm
02:56 AM 53.6°F12.0°C 52.2°F11.2°C 95% 3.5 mph NNE5.6 kmh NNE 2.3 mph3.7 kmh 28.03 in949.2 mb - 0.00 in0.0 mm 0.01 in0.3 mm
02:55 AM 53.6°F12.0°C 52.2°F11.2°C 95% 4.6 mph NW7.4 kmh NW 5.8 mph9.3 kmh 28.03 in949.2 mb - 0.00 in0.0 mm 0.01 in0.3 mm
02:54 AM 53.8°F12.1°C 52.4°F11.3°C 95% 3.5 mph W5.6 kmh W 4.6 mph7.4 kmh 28.03 in949.2 mb - 0.00 in0.0 mm 0.01 in0.3 mm
02:53 AM 53.8°F12.1°C 52.1°F11.2°C 94% 2.3 mph NW3.7 kmh NW 3.5 mph5.6 kmh 28.03 in949.2 mb - 0.00 in0.0 mm 0.01 in0.3 mm
02:52 AM 53.8°F12.1°C 52.1°F11.2°C 94% 2.3 mph N3.7 kmh N 3.5 mph5.6 kmh 28.03 in949.2 mb - 0.00 in0.0 mm 0.01 in0.3 mm
02:51 AM 53.8°F12.1°C 52.1°F11.2°C 94% 3.5 mph NW5.6 kmh NW 4.6 mph7.4 kmh 28.03 in949.2 mb - 0.00 in0.0 mm 0.01 in0.3 mm
02:50 AM 53.8°F12.1°C 52.1°F11.2°C 94% 3.5 mph N5.6 kmh N 4.6 mph7.4 kmh 28.03 in949.2 mb - 0.00 in0.0 mm 0.01 in0.3 mm
02:49 AM 54.0°F12.2°C 52.3°F11.3°C 94% 2.3 mph N3.7 kmh N 3.5 mph5.6 kmh 28.03 in949.2 mb - 0.00 in0.0 mm 0.01 in0.3 mm
02:48 AM 54.0°F12.2°C 52.3°F11.3°C 94% 2.3 mph NNE3.7 kmh NNE 2.3 mph3.7 kmh 28.03 in949.2 mb - 0.00 in0.0 mm 0.01 in0.3 mm
02:47 AM 54.0°F12.2°C 52.3°F11.3°C 94% 3.5 mph NNE5.6 kmh NNE 3.5 mph5.6 kmh 28.03 in949.2 mb - 0.00 in0.0 mm 0.01 in0.3 mm
02:46 AM 54.0°F12.2°C 52.3°F11.3°C 94% 3.5 mph NNW5.6 kmh NNW 4.6 mph7.4 kmh 28.03 in949.2 mb - 0.00 in0.0 mm 0.01 in0.3 mm
02:45 AM 54.0°F12.2°C 52.3°F11.3°C 94% 3.5 mph NW5.6 kmh NW 3.5 mph5.6 kmh 28.03 in949.2 mb - 0.00 in0.0 mm 0.01 in0.3 mm
02:44 AM 54.0°F12.2°C 52.3°F11.3°C 94% 2.3 mph SW3.7 kmh SW 3.5 mph5.6 kmh 28.03 in949.2 mb - 0.00 in0.0 mm 0.01 in0.3 mm
02:43 AM 54.0°F12.2°C 52.3°F11.3°C 94% 4.6 mph NW7.4 kmh NW 4.6 mph7.4 kmh 28.03 in949.2 mb - 0.00 in0.0 mm 0.01 in0.3 mm
02:42 AM 54.0°F12.2°C 52.3°F11.3°C 94% 3.5 mph NW5.6 kmh NW 4.6 mph7.4 kmh 28.03 in949.2 mb - 0.00 in0.0 mm 0.01 in0.3 mm
02:41 AM 54.0°F12.2°C 52.3°F11.3°C 94% 3.5 mph N5.6 kmh N 3.5 mph5.6 kmh 28.03 in949.2 mb - 0.00 in0.0 mm 0.01 in0.3 mm
02:40 AM 54.0°F12.2°C 52.3°F11.3°C 94% 3.5 mph NNW5.6 kmh NNW 3.5 mph5.6 kmh 28.03 in949.2 mb - 0.00 in0.0 mm 0.01 in0.3 mm
02:39 AM 54.0°F12.2°C 52.3°F11.3°C 94% 3.5 mph NW5.6 kmh NW 5.8 mph9.3 kmh 28.03 in949.2 mb - 0.00 in0.0 mm 0.01 in0.3 mm
02:38 AM 54.0°F12.2°C 52.3°F11.3°C 94% 3.5 mph NW5.6 kmh NW 4.6 mph7.4 kmh 28.03 in949.2 mb - 0.00 in0.0 mm 0.01 in0.3 mm
02:37 AM 54.0°F12.2°C 52.3°F11.3°C 94% 4.6 mph N7.4 kmh N 4.6 mph7.4 kmh 28.03 in949.2 mb - 0.00 in0.0 mm 0.01 in0.3 mm
02:36 AM 54.0°F12.2°C 52.3°F11.3°C 94% 4.6 mph WNW7.4 kmh WNW 5.8 mph9.3 kmh 28.03 in949.2 mb - 0.00 in0.0 mm 0.01 in0.3 mm
02:35 AM 54.0°F12.2°C 52.3°F11.3°C 94% 5.8 mph NW9.3 kmh NW 8.1 mph13.0 kmh 28.03 in949.2 mb - 0.00 in0.0 mm 0.01 in0.3 mm
02:34 AM 54.0°F12.2°C 52.6°F11.4°C 95% 3.5 mph W5.6 kmh W 6.9 mph11.1 kmh 28.03 in949.2 mb - 0.00 in0.0 mm 0.01 in0.3 mm
02:33 AM 54.0°F12.2°C 52.6°F11.4°C 95% 2.3 mph NNW3.7 kmh NNW 2.3 mph3.7 kmh 28.03 in949.2 mb - 0.00 in0.0 mm 0.01 in0.3 mm
02:32 AM 54.0°F12.2°C 52.6°F11.4°C 95% 4.6 mph NNW7.4 kmh NNW 4.6 mph7.4 kmh 28.03 in949.2 mb - 0.00 in0.0 mm 0.01 in0.3 mm
02:31 AM 54.0°F12.2°C 52.6°F11.4°C 95% 4.6 mph N7.4 kmh N 6.9 mph11.1 kmh 28.03 in949.2 mb - 0.00 in0.0 mm 0.01 in0.3 mm
02:30 AM 54.0°F12.2°C 52.6°F11.4°C 95% 4.6 mph N7.4 kmh N 6.9 mph11.1 kmh 28.03 in949.2 mb - 0.00 in0.0 mm 0.01 in0.3 mm
02:29 AM 54.0°F12.2°C 52.6°F11.4°C 95% 3.5 mph N5.6 kmh N 6.9 mph11.1 kmh 28.03 in949.2 mb - 0.00 in0.0 mm 0.01 in0.3 mm
02:28 AM 54.0°F12.2°C 52.6°F11.4°C 95% 3.5 mph NW5.6 kmh NW 3.5 mph5.6 kmh 28.03 in949.2 mb - 0.00 in0.0 mm 0.01 in0.3 mm
02:27 AM 54.0°F12.2°C 52.6°F11.4°C 95% 3.5 mph N5.6 kmh N 4.6 mph7.4 kmh 28.03 in949.2 mb - 0.00 in0.0 mm 0.01 in0.3 mm
02:26 AM 54.0°F12.2°C 52.6°F11.4°C 95% 3.5 mph N5.6 kmh N 3.5 mph5.6 kmh 28.03 in949.2 mb - 0.00 in0.0 mm 0.01 in0.3 mm
02:25 AM 54.0°F12.2°C 52.6°F11.4°C 95% 2.3 mph NNE3.7 kmh NNE 4.6 mph7.4 kmh 28.03 in949.2 mb - 0.00 in0.0 mm 0.01 in0.3 mm
02:24 AM 54.0°F12.2°C 52.6°F11.4°C 95% 3.5 mph NNW5.6 kmh NNW 4.6 mph7.4 kmh 28.03 in949.2 mb - 0.00 in0.0 mm 0.01 in0.3 mm
02:23 AM 54.0°F12.2°C 52.6°F11.4°C 95% 2.3 mph WNW3.7 kmh WNW 4.6 mph7.4 kmh 28.03 in949.2 mb - 0.00 in0.0 mm 0.01 in0.3 mm
02:22 AM 54.0°F12.2°C 52.6°F11.4°C 95% 2.3 mph NE3.7 kmh NE 2.3 mph3.7 kmh 28.03 in949.2 mb - 0.00 in0.0 mm 0.01 in0.3 mm
02:21 AM 54.0°F12.2°C 52.6°F11.4°C 95% 4.6 mph W7.4 kmh W 3.5 mph5.6 kmh 28.03 in949.2 mb - 0.00 in0.0 mm 0.01 in0.3 mm
02:20 AM 54.1°F12.3°C 52.7°F11.5°C 95% 4.6 mph WNW7.4 kmh WNW 5.8 mph9.3 kmh 28.03 in949.2 mb - 0.00 in0.0 mm 0.01 in0.3 mm
02:19 AM 54.1°F12.3°C 52.7°F11.5°C 95% 2.3 mph NW3.7 kmh NW 5.8 mph9.3 kmh 28.03 in949.2 mb - 0.00 in0.0 mm 0.01 in0.3 mm
02:18 AM 54.1°F12.3°C 52.7°F11.5°C 95% 3.5 mph NW5.6 kmh NW 4.6 mph7.4 kmh 28.03 in949.2 mb - 0.00 in0.0 mm 0.01 in0.3 mm
02:17 AM 54.1°F12.3°C 52.7°F11.5°C 95% 2.3 mph WNW3.7 kmh WNW 4.6 mph7.4 kmh 28.03 in949.2 mb - 0.00 in0.0 mm 0.01 in0.3 mm
02:16 AM 54.1°F12.3°C 52.7°F11.5°C 95% 3.5 mph NNW5.6 kmh NNW 3.5 mph5.6 kmh 28.03 in949.2 mb - 0.00 in0.0 mm 0.01 in0.3 mm
02:15 AM 54.1°F12.3°C 52.7°F11.5°C 95% 2.3 mph NW3.7 kmh NW 4.6 mph7.4 kmh 28.03 in949.2 mb - 0.00 in0.0 mm 0.01 in0.3 mm
02:14 AM 54.1°F12.3°C 52.7°F11.5°C 95% 2.3 mph NNW3.7 kmh NNW 2.3 mph3.7 kmh 28.03 in949.2 mb - 0.00 in0.0 mm 0.01 in0.3 mm
02:13 AM 54.1°F12.3°C 52.7°F11.5°C 95% 1.2 mph WNW1.9 kmh WNW 2.3 mph3.7 kmh 28.03 in949.2 mb - 0.00 in0.0 mm 0.01 in0.3 mm
02:12 AM 54.1°F12.3°C 52.7°F11.5°C 95% Calm Calm 2.3 mph3.7 kmh 28.03 in949.2 mb - 0.00 in0.0 mm 0.01 in0.3 mm
02:11 AM 54.1°F12.3°C 52.7°F11.5°C 95% 2.3 mph NW3.7 kmh NW 2.3 mph3.7 kmh 28.04 in949.5 mb - 0.00 in0.0 mm 0.01 in0.3 mm
02:10 AM 54.1°F12.3°C 52.7°F11.5°C 95% 2.3 mph N3.7 kmh N 2.3 mph3.7 kmh 28.04 in949.5 mb - 0.00 in0.0 mm 0.01 in0.3 mm
02:09 AM 54.1°F12.3°C 52.7°F11.5°C 95% 2.3 mph NE3.7 kmh NE 2.3 mph3.7 kmh 28.04 in949.5 mb - 0.00 in0.0 mm 0.01 in0.3 mm
02:08 AM 54.1°F12.3°C 52.7°F11.5°C 95% 2.3 mph N3.7 kmh N 3.5 mph5.6 kmh 28.04 in949.5 mb - 0.00 in0.0 mm 0.01 in0.3 mm
02:07 AM 54.1°F12.3°C 52.7°F11.5°C 95% 2.3 mph N3.7 kmh N 3.5 mph5.6 kmh 28.04 in949.5 mb - 0.00 in0.0 mm 0.01 in0.3 mm
02:06 AM 54.1°F12.3°C 52.7°F11.5°C 95% 2.3 mph N3.7 kmh N 3.5 mph5.6 kmh 28.04 in949.5 mb - 0.00 in0.0 mm 0.01 in0.3 mm
02:05 AM 54.1°F12.3°C 52.7°F11.5°C 95% 3.5 mph N5.6 kmh N 3.5 mph5.6 kmh 28.04 in949.5 mb - 0.00 in0.0 mm 0.01 in0.3 mm
02:04 AM 54.1°F12.3°C 52.7°F11.5°C 95% 3.5 mph N5.6 kmh N 4.6 mph7.4 kmh 28.04 in949.5 mb - 0.00 in0.0 mm 0.01 in0.3 mm
02:03 AM 54.1°F12.3°C 52.7°F11.5°C 95% 4.6 mph WNW7.4 kmh WNW 5.8 mph9.3 kmh 28.04 in949.5 mb - 0.00 in0.0 mm 0.01 in0.3 mm
02:02 AM 54.1°F12.3°C 52.7°F11.5°C 95% 4.6 mph NW7.4 kmh NW 5.8 mph9.3 kmh 28.04 in949.5 mb - 0.00 in0.0 mm 0.01 in0.3 mm
02:01 AM 54.1°F12.3°C 52.7°F11.5°C 95% 3.5 mph W5.6 kmh W 5.8 mph9.3 kmh 28.04 in949.5 mb - 0.00 in0.0 mm 0.01 in0.3 mm
02:00 AM 54.1°F12.3°C 52.7°F11.5°C 95% 2.3 mph W3.7 kmh W 3.5 mph5.6 kmh 28.04 in949.5 mb - 0.00 in0.0 mm 0.01 in0.3 mm
01:59 AM 54.1°F12.3°C 52.7°F11.5°C 95% 2.3 mph W3.7 kmh W 2.3 mph3.7 kmh 28.04 in949.5 mb - 0.00 in0.0 mm 0.01 in0.3 mm
01:58 AM 54.1°F12.3°C 52.7°F11.5°C 95% 4.6 mph WNW7.4 kmh WNW 4.6 mph7.4 kmh 28.04 in949.5 mb - 0.00 in0.0 mm 0.01 in0.3 mm
01:57 AM 54.1°F12.3°C 52.7°F11.5°C 95% 3.5 mph NNW5.6 kmh NNW 5.8 mph9.3 kmh 28.04 in949.5 mb - 0.00 in0.0 mm 0.01 in0.3 mm
01:56 AM 54.1°F12.3°C 52.7°F11.5°C 95% 2.3 mph NE3.7 kmh NE 4.6 mph7.4 kmh 28.04 in949.5 mb - 0.00 in0.0 mm 0.01 in0.3 mm
01:55 AM 54.1°F12.3°C 52.7°F11.5°C 95% 2.3 mph W3.7 kmh W 4.6 mph7.4 kmh 28.04 in949.5 mb - 0.00 in0.0 mm 0.01 in0.3 mm
01:54 AM 54.1°F12.3°C 52.7°F11.5°C 95% 2.3 mph WNW3.7 kmh WNW 2.3 mph3.7 kmh 28.04 in949.5 mb - 0.00 in0.0 mm 0.01 in0.3 mm
01:53 AM 54.1°F12.3°C 52.7°F11.5°C 95% 2.3 mph WNW3.7 kmh WNW 2.3 mph3.7 kmh 28.04 in949.5 mb - 0.00 in0.0 mm 0.01 in0.3 mm
01:52 AM 54.1°F12.3°C 52.7°F11.5°C 95% 2.3 mph NNW3.7 kmh NNW 2.3 mph3.7 kmh 28.04 in949.5 mb - 0.00 in0.0 mm 0.01 in0.3 mm
01:51 AM 54.1°F12.3°C 52.7°F11.5°C 95% 3.5 mph NW5.6 kmh NW 3.5 mph5.6 kmh 28.04 in949.5 mb - 0.00 in0.0 mm 0.01 in0.3 mm
01:50 AM 54.1°F12.3°C 52.7°F11.5°C 95% 4.6 mph NW7.4 kmh NW 5.8 mph9.3 kmh 28.04 in949.5 mb - 0.00 in0.0 mm 0.01 in0.3 mm
01:49 AM 54.1°F12.3°C 52.7°F11.5°C 95% 3.5 mph NW5.6 kmh NW 5.8 mph9.3 kmh 28.04 in949.5 mb - 0.00 in0.0 mm 0.01 in0.3 mm
01:48 AM 54.1°F12.3°C 52.7°F11.5°C 95% 2.3 mph WNW3.7 kmh WNW 3.5 mph5.6 kmh 28.04 in949.5 mb - 0.00 in0.0 mm 0.01 in0.3 mm
01:47 AM 54.1°F12.3°C 52.7°F11.5°C 95% 4.6 mph NW7.4 kmh NW 3.5 mph5.6 kmh 28.04 in949.5 mb - 0.00 in0.0 mm 0.01 in0.3 mm
01:46 AM 54.1°F12.3°C 53.0°F11.7°C 96% 4.6 mph WNW7.4 kmh WNW 6.9 mph11.1 kmh 28.04 in949.5 mb - 0.00 in0.0 mm 0.01 in0.3 mm
01:45 AM 54.1°F12.3°C 53.0°F11.7°C 96% 4.6 mph W7.4 kmh W 6.9 mph11.1 kmh 28.04 in949.5 mb - 0.00 in0.0 mm 0.01 in0.3 mm
01:44 AM 54.1°F12.3°C 53.0°F11.7°C 96% 3.5 mph NW5.6 kmh NW 4.6 mph7.4 kmh 28.04 in949.5 mb - 0.00 in0.0 mm 0.01 in0.3 mm
01:43 AM 54.1°F12.3°C 53.0°F11.7°C 96% 2.3 mph W3.7 kmh W 3.5 mph5.6 kmh 28.04 in949.5 mb - 0.00 in0.0 mm 0.01 in0.3 mm
01:42 AM 54.1°F12.3°C 53.0°F11.7°C 96% 3.5 mph WNW5.6 kmh WNW 2.3 mph3.7 kmh 28.04 in949.5 mb - 0.00 in0.0 mm 0.01 in0.3 mm
01:41 AM 54.1°F12.3°C 53.0°F11.7°C 96% 3.5 mph W5.6 kmh W 4.6 mph7.4 kmh 28.04 in949.5 mb - 0.00 in0.0 mm 0.01 in0.3 mm
01:40 AM 54.1°F12.3°C 53.0°F11.7°C 96% 3.5 mph NNW5.6 kmh NNW 4.6 mph7.4 kmh 28.04 in949.5 mb - 0.00 in0.0 mm 0.01 in0.3 mm
01:39 AM 54.1°F12.3°C 53.0°F11.7°C 96% 3.5 mph NW5.6 kmh NW 4.6 mph7.4 kmh 28.04 in949.5 mb - 0.00 in0.0 mm 0.01 in0.3 mm
01:38 AM 54.1°F12.3°C 53.0°F11.7°C 96% 4.6 mph W7.4 kmh W 4.6 mph7.4 kmh 28.04 in949.5 mb - 0.00 in0.0 mm 0.01 in0.3 mm
01:37 AM 54.1°F12.3°C 53.0°F11.7°C 96% 3.5 mph NW5.6 kmh NW 4.6 mph7.4 kmh 28.04 in949.5 mb - 0.00 in0.0 mm 0.01 in0.3 mm
01:36 AM 54.1°F12.3°C 53.0°F11.7°C 96% 3.5 mph N5.6 kmh N 3.5 mph5.6 kmh 28.04 in949.5 mb - 0.00 in0.0 mm 0.01 in0.3 mm
01:35 AM 54.1°F12.3°C 53.0°F11.7°C 96% 3.5 mph NW5.6 kmh NW 3.5 mph5.6 kmh 28.04 in949.5 mb - 0.00 in0.0 mm 0.01 in0.3 mm
01:34 AM 54.1°F12.3°C 53.0°F11.7°C 96% 3.5 mph WNW5.6 kmh WNW 4.6 mph7.4 kmh 28.04 in949.5 mb - 0.00 in0.0 mm 0.01 in0.3 mm
01:33 AM 54.1°F12.3°C 53.0°F11.7°C 96% 3.5 mph W5.6 kmh W 4.6 mph7.4 kmh 28.04 in949.5 mb - 0.00 in0.0 mm 0.01 in0.3 mm
01:32 AM 54.1°F12.3°C 53.0°F11.7°C 96% 2.3 mph NW3.7 kmh NW 4.6 mph7.4 kmh 28.04 in949.5 mb - 0.00 in0.0 mm 0.01 in0.3 mm
01:31 AM 54.1°F12.3°C 53.0°F11.7°C 96% 2.3 mph NE3.7 kmh NE 2.3 mph3.7 kmh 28.04 in949.5 mb - 0.00 in0.0 mm 0.01 in0.3 mm
01:30 AM 54.1°F12.3°C 53.0°F11.7°C 96% 3.5 mph N5.6 kmh N 4.6 mph7.4 kmh 28.04 in949.5 mb - 0.00 in0.0 mm 0.01 in0.3 mm
01:29 AM 54.1°F12.3°C 53.0°F11.7°C 96% 3.5 mph WNW5.6 kmh WNW 4.6 mph7.4 kmh 28.04 in949.5 mb - 0.00 in0.0 mm 0.01 in0.3 mm
01:28 AM 54.1°F12.3°C 53.0°F11.7°C 96% 2.3 mph W3.7 kmh W 3.5 mph5.6 kmh 28.04 in949.5 mb - 0.00 in0.0 mm 0.01 in0.3 mm
01:27 AM 54.1°F12.3°C 53.0°F11.7°C 96% 3.5 mph N5.6 kmh N 2.3 mph3.7 kmh 28.04 in949.5 mb - 0.00 in0.0 mm 0.01 in0.3 mm
01:26 AM 54.1°F12.3°C 53.0°F11.7°C 96% 4.6 mph NW7.4 kmh NW 5.8 mph9.3 kmh 28.04 in949.5 mb - 0.00 in0.0 mm 0.01 in0.3 mm
01:25 AM 54.1°F12.3°C 53.0°F11.7°C 96% 3.5 mph NW5.6 kmh NW 5.8 mph9.3 kmh 28.04 in949.5 mb - 0.00 in0.0 mm 0.01 in0.3 mm
01:24 AM 54.1°F12.3°C 53.0°F11.7°C 96% 3.5 mph NW5.6 kmh NW 4.6 mph7.4 kmh 28.05 in949.9 mb - 0.00 in0.0 mm 0.01 in0.3 mm
01:23 AM 54.1°F12.3°C 53.0°F11.7°C 96% 4.6 mph NW7.4 kmh NW 4.6 mph7.4 kmh 28.05 in949.9 mb - 0.00 in0.0 mm 0.01 in0.3 mm
01:22 AM 54.1°F12.3°C 53.0°F11.7°C 96% 3.5 mph WNW5.6 kmh WNW 4.6 mph7.4 kmh 28.05 in949.9 mb - 0.00 in0.0 mm 0.01 in0.3 mm
01:21 AM 54.1°F12.3°C 53.0°F11.7°C 96% 4.6 mph WNW7.4 kmh WNW 5.8 mph9.3 kmh 28.05 in949.9 mb - 0.00 in0.0 mm 0.01 in0.3 mm
01:20 AM 54.1°F12.3°C 53.0°F11.7°C 96% 3.5 mph NNW5.6 kmh NNW 5.8 mph9.3 kmh 28.05 in949.9 mb - 0.00 in0.0 mm 0.01 in0.3 mm
01:19 AM 54.1°F12.3°C 53.0°F11.7°C 96% 3.5 mph ENE5.6 kmh ENE 3.5 mph5.6 kmh 28.05 in949.9 mb - 0.00 in0.0 mm 0.01 in0.3 mm
01:18 AM 54.1°F12.3°C 53.0°F11.7°C 96% 2.3 mph SW3.7 kmh SW 4.6 mph7.4 kmh 28.05 in949.9 mb - 0.00 in0.0 mm 0.01 in0.3 mm
01:17 AM 54.1°F12.3°C 53.0°F11.7°C 96% 2.3 mph SSE3.7 kmh SSE 3.5 mph5.6 kmh 28.05 in949.9 mb - 0.00 in0.0 mm 0.01 in0.3 mm
01:16 AM 54.1°F12.3°C 53.0°F11.7°C 96% 3.5 mph WNW5.6 kmh WNW 3.5 mph5.6 kmh 28.05 in949.9 mb - 0.00 in0.0 mm 0.01 in0.3 mm
01:15 AM 54.1°F12.3°C 53.0°F11.7°C 96% 4.6 mph NW7.4 kmh NW 5.8 mph9.3 kmh 28.05 in949.9 mb - 0.00 in0.0 mm 0.01 in0.3 mm
01:14 AM 54.1°F12.3°C 53.0°F11.7°C 96% 4.6 mph NW7.4 kmh NW 5.8 mph9.3 kmh 28.05 in949.9 mb - 0.00 in0.0 mm 0.01 in0.3 mm
01:13 AM 54.1°F12.3°C 53.0°F11.7°C 96% 3.5 mph WNW5.6 kmh WNW 5.8 mph9.3 kmh 28.05 in949.9 mb - 0.00 in0.0 mm 0.01 in0.3 mm
01:12 AM 54.1°F12.3°C 53.0°F11.7°C 96% 3.5 mph NW5.6 kmh NW 5.8 mph9.3 kmh 28.04 in949.5 mb - 0.00 in0.0 mm 0.01 in0.3 mm
01:11 AM 54.1°F12.3°C 53.0°F11.7°C 96% 2.3 mph WNW3.7 kmh WNW 3.5 mph5.6 kmh 28.04 in949.5 mb - 0.00 in0.0 mm 0.01 in0.3 mm
01:10 AM 54.1°F12.3°C 53.0°F11.7°C 96% 3.5 mph W5.6 kmh W 2.3 mph3.7 kmh 28.04 in949.5 mb - 0.00 in0.0 mm 0.01 in0.3 mm
01:09 AM 54.1°F12.3°C 53.0°F11.7°C 96% 3.5 mph WNW5.6 kmh WNW 4.6 mph7.4 kmh 28.04 in949.5 mb - 0.00 in0.0 mm 0.01 in0.3 mm
01:08 AM 54.1°F12.3°C 53.0°F11.7°C 96% 4.6 mph W7.4 kmh W 4.6 mph7.4 kmh 28.04 in949.5 mb - 0.00 in0.0 mm 0.01 in0.3 mm
01:07 AM 54.1°F12.3°C 53.0°F11.7°C 96% 4.6 mph NW7.4 kmh NW 5.8 mph9.3 kmh 28.04 in949.5 mb - 0.00 in0.0 mm 0.01 in0.3 mm
01:06 AM 54.1°F12.3°C 53.0°F11.7°C 96% 3.5 mph WSW5.6 kmh WSW 4.6 mph7.4 kmh 28.04 in949.5 mb - 0.00 in0.0 mm 0.01 in0.3 mm
01:05 AM 54.1°F12.3°C 53.0°F11.7°C 96% 2.3 mph W3.7 kmh W 4.6 mph7.4 kmh 28.04 in949.5 mb - 0.00 in0.0 mm 0.01 in0.3 mm
01:04 AM 54.1°F12.3°C 53.0°F11.7°C 96% 2.3 mph WSW3.7 kmh WSW 2.3 mph3.7 kmh 28.04 in949.5 mb - 0.00 in0.0 mm 0.01 in0.3 mm
01:03 AM 54.1°F12.3°C 53.0°F11.7°C 96% 3.5 mph W5.6 kmh W 3.5 mph5.6 kmh 28.04 in949.5 mb - 0.00 in0.0 mm 0.01 in0.3 mm
01:02 AM 54.1°F12.3°C 53.0°F11.7°C 96% 3.5 mph SW5.6 kmh SW 3.5 mph5.6 kmh 28.04 in949.5 mb - 0.00 in0.0 mm 0.01 in0.3 mm
01:01 AM 54.1°F12.3°C 53.0°F11.7°C 96% 2.3 mph WNW3.7 kmh WNW 4.6 mph7.4 kmh 28.04 in949.5 mb - 0.00 in0.0 mm 0.01 in0.3 mm
01:00 AM 54.1°F12.3°C 53.0°F11.7°C 96% 2.3 mph WSW3.7 kmh WSW 2.3 mph3.7 kmh 28.04 in949.5 mb - 0.00 in0.0 mm 0.01 in0.3 mm
12:59 AM 54.1°F12.3°C 53.0°F11.7°C 96% 3.5 mph SW5.6 kmh SW 4.6 mph7.4 kmh 28.04 in949.5 mb - 0.00 in0.0 mm 0.01 in0.3 mm
12:58 AM 54.1°F12.3°C 53.0°F11.7°C 96% 3.5 mph ENE5.6 kmh ENE 4.6 mph7.4 kmh 28.04 in949.5 mb - 0.00 in0.0 mm 0.01 in0.3 mm
12:57 AM 54.1°F12.3°C 53.0°F11.7°C 96% 3.5 mph W5.6 kmh W 4.6 mph7.4 kmh 28.04 in949.5 mb - 0.00 in0.0 mm 0.01 in0.3 mm
12:56 AM 54.1°F12.3°C 53.0°F11.7°C 96% 3.5 mph NW5.6 kmh NW 4.6 mph7.4 kmh 28.04 in949.5 mb - 0.00 in0.0 mm 0.01 in0.3 mm
12:55 AM 54.1°F12.3°C 53.0°F11.7°C 96% 3.5 mph WNW5.6 kmh WNW 4.6 mph7.4 kmh 28.04 in949.5 mb - 0.00 in0.0 mm 0.01 in0.3 mm
12:54 AM 54.1°F12.3°C 53.0°F11.7°C 96% 3.5 mph NW5.6 kmh NW 4.6 mph7.4 kmh 28.04 in949.5 mb - 0.00 in0.0 mm 0.01 in0.3 mm
12:53 AM 54.1°F12.3°C 53.0°F11.7°C 96% 2.3 mph NW3.7 kmh NW 3.5 mph5.6 kmh 28.04 in949.5 mb - 0.01 in0.3 mm 0.01 in0.3 mm
12:52 AM 54.1°F12.3°C 53.0°F11.7°C 96% 2.3 mph SW3.7 kmh SW 2.3 mph3.7 kmh 28.04 in949.5 mb - 0.01 in0.3 mm 0.01 in0.3 mm
12:51 AM 54.1°F12.3°C 53.0°F11.7°C 96% 2.3 mph SE3.7 kmh SE 2.3 mph3.7 kmh 28.04 in949.5 mb - 0.00 in0.0 mm 0.00 in0.0 mm
12:50 AM 54.1°F12.3°C 53.0°F11.7°C 96% 3.5 mph W5.6 kmh W 3.5 mph5.6 kmh 28.04 in949.5 mb - 0.00 in0.0 mm 0.00 in0.0 mm
12:49 AM 54.1°F12.3°C 53.0°F11.7°C 96% 3.5 mph NNW5.6 kmh NNW 3.5 mph5.6 kmh 28.04 in949.5 mb - 0.00 in0.0 mm 0.00 in0.0 mm
12:48 AM 54.1°F12.3°C 53.0°F11.7°C 96% 2.3 mph NW3.7 kmh NW 3.5 mph5.6 kmh 28.04 in949.5 mb - 0.00 in0.0 mm 0.00 in0.0 mm
12:47 AM 54.1°F12.3°C 53.0°F11.7°C 96% 2.3 mph WSW3.7 kmh WSW 2.3 mph3.7 kmh 28.04 in949.5 mb - 0.00 in0.0 mm 0.00 in0.0 mm
12:46 AM 54.1°F12.3°C 53.0°F11.7°C 96% 1.2 mph W1.9 kmh W 2.3 mph3.7 kmh 28.04 in949.5 mb - 0.00 in0.0 mm 0.00 in0.0 mm
12:45 AM 54.1°F12.3°C 53.0°F11.7°C 96% Calm Calm -- 28.04 in949.5 mb - 0.00 in0.0 mm 0.00 in0.0 mm
12:44 AM 54.1°F12.3°C 53.0°F11.7°C 96% Calm Calm -- 28.04 in949.5 mb - 0.00 in0.0 mm 0.00 in0.0 mm
12:43 AM 54.1°F12.3°C 53.0°F11.7°C 96% Calm Calm -- 28.04 in949.5 mb - 0.00 in0.0 mm 0.00 in0.0 mm
12:42 AM 54.1°F12.3°C 53.0°F11.7°C 96% Calm Calm -- 28.04 in949.5 mb - 0.00 in0.0 mm 0.00 in0.0 mm
12:41 AM 54.1°F12.3°C 53.0°F11.7°C 96% 1.2 mph W1.9 kmh W 2.3 mph3.7 kmh 28.04 in949.5 mb - 0.00 in0.0 mm 0.00 in0.0 mm
12:40 AM 54.1°F12.3°C 53.0°F11.7°C 96% Calm Calm -- 28.04 in949.5 mb - 0.00 in0.0 mm 0.00 in0.0 mm
12:39 AM 54.1°F12.3°C 53.0°F11.7°C 96% Calm Calm -- 28.04 in949.5 mb - 0.00 in0.0 mm 0.00 in0.0 mm
12:38 AM 54.1°F12.3°C 53.0°F11.7°C 96% Calm Calm -- 28.04 in949.5 mb - 0.00 in0.0 mm 0.00 in0.0 mm
12:37 AM 54.1°F12.3°C 53.0°F11.7°C 96% Calm Calm -- 28.04 in949.5 mb - 0.00 in0.0 mm 0.00 in0.0 mm
12:36 AM 54.1°F12.3°C 53.0°F11.7°C 96% Calm Calm -- 28.05 in949.9 mb - 0.00 in0.0 mm 0.00 in0.0 mm
12:35 AM 54.1°F12.3°C 53.0°F11.7°C 96% Calm Calm -- 28.05 in949.9 mb - 0.00 in0.0 mm 0.00 in0.0 mm
12:34 AM 54.1°F12.3°C 53.0°F11.7°C 96% Calm Calm -- 28.05 in949.9 mb - 0.00 in0.0 mm 0.00 in0.0 mm
12:33 AM 54.1°F12.3°C 53.0°F11.7°C 96% Calm Calm -- 28.05 in949.9 mb - 0.00 in0.0 mm 0.00 in0.0 mm
12:32 AM 54.1°F12.3°C 53.0°F11.7°C 96% Calm Calm -- 28.05 in949.9 mb - 0.00 in0.0 mm 0.00 in0.0 mm
12:31 AM 54.1°F12.3°C 53.0°F11.7°C 96% Calm Calm -- 28.05 in949.9 mb - 0.00 in0.0 mm 0.00 in0.0 mm
12:30 AM 54.1°F12.3°C 53.0°F11.7°C 96% Calm Calm -- 28.05 in949.9 mb - 0.00 in0.0 mm 0.00 in0.0 mm
12:29 AM 54.1°F12.3°C 53.0°F11.7°C 96% Calm Calm -- 28.05 in949.9 mb - 0.00 in0.0 mm 0.00 in0.0 mm
12:28 AM 54.1°F12.3°C 53.0°F11.7°C 96% 1.2 mph NNE1.9 kmh NNE 1.2 mph1.9 kmh 28.05 in949.9 mb - 0.00 in0.0 mm 0.00 in0.0 mm
12:27 AM 54.1°F12.3°C 53.0°F11.7°C 96% 1.2 mph N1.9 kmh N 1.2 mph1.9 kmh 28.05 in949.9 mb - 0.00 in0.0 mm 0.00 in0.0 mm
12:26 AM 54.1°F12.3°C 53.0°F11.7°C 96% Calm Calm 1.2 mph1.9 kmh 28.05 in949.9 mb - 0.00 in0.0 mm 0.00 in0.0 mm
12:25 AM 54.1°F12.3°C 53.0°F11.7°C 96% Calm Calm -- 28.05 in949.9 mb - 0.00 in0.0 mm 0.00 in0.0 mm
12:24 AM 54.1°F12.3°C 53.0°F11.7°C 96% Calm Calm -- 28.05 in949.9 mb - 0.00 in0.0 mm 0.00 in0.0 mm
12:23 AM 54.1°F12.3°C 53.0°F11.7°C 96% 1.2 mph E1.9 kmh E 1.2 mph1.9 kmh 28.05 in949.9 mb - 0.00 in0.0 mm 0.00 in0.0 mm
12:22 AM 54.1°F12.3°C 53.0°F11.7°C 96% 1.2 mph NNE1.9 kmh NNE 2.3 mph3.7 kmh 28.05 in949.9 mb - 0.00 in0.0 mm 0.00 in0.0 mm
12:21 AM 54.1°F12.3°C 53.0°F11.7°C 96% Calm Calm 2.3 mph3.7 kmh 28.05 in949.9 mb - 0.00 in0.0 mm 0.00 in0.0 mm
12:20 AM 54.1°F12.3°C 53.0°F11.7°C 96% 1.2 mph ENE1.9 kmh ENE 1.2 mph1.9 kmh 28.05 in949.9 mb - 0.00 in0.0 mm 0.00 in0.0 mm
12:19 AM 54.1°F12.3°C 53.0°F11.7°C 96% 1.2 mph NNE1.9 kmh NNE 2.3 mph3.7 kmh 28.05 in949.9 mb - 0.00 in0.0 mm 0.00 in0.0 mm
12:18 AM 54.1°F12.3°C 53.0°F11.7°C 96% Calm Calm 1.2 mph1.9 kmh 28.05 in949.9 mb - 0.00 in0.0 mm 0.00 in0.0 mm
12:17 AM 54.1°F12.3°C 53.0°F11.7°C 96% Calm Calm -- 28.05 in949.9 mb - 0.00 in0.0 mm 0.00 in0.0 mm
12:16 AM 54.1°F12.3°C 53.0°F11.7°C 96% 1.2 mph NNE1.9 kmh NNE 1.2 mph1.9 kmh 28.05 in949.9 mb - 0.00 in0.0 mm 0.00 in0.0 mm
12:15 AM 54.1°F12.3°C 53.0°F11.7°C 96% 1.2 mph NE1.9 kmh NE 2.3 mph3.7 kmh 28.05 in949.9 mb - 0.00 in0.0 mm 0.00 in0.0 mm
12:14 AM 54.1°F12.3°C 53.0°F11.7°C 96% 2.3 mph NNE3.7 kmh NNE 2.3 mph3.7 kmh 28.05 in949.9 mb - 0.00 in0.0 mm 0.00 in0.0 mm
12:13 AM 54.1°F12.3°C 53.0°F11.7°C 96% 2.3 mph N3.7 kmh N 2.3 mph3.7 kmh 28.05 in949.9 mb - 0.00 in0.0 mm 0.00 in0.0 mm
12:12 AM 54.1°F12.3°C 53.0°F11.7°C 96% 2.3 mph N3.7 kmh N 3.5 mph5.6 kmh 28.05 in949.9 mb - 0.00 in0.0 mm 0.00 in0.0 mm
12:11 AM 54.1°F12.3°C 53.0°F11.7°C 96% 3.5 mph NE5.6 kmh NE 2.3 mph3.7 kmh 28.05 in949.9 mb - 0.00 in0.0 mm 0.00 in0.0 mm
12:10 AM 54.1°F12.3°C 53.0°F11.7°C 96% 3.5 mph NW5.6 kmh NW 4.6 mph7.4 kmh 28.05 in949.9 mb - 0.00 in0.0 mm 0.00 in0.0 mm
12:09 AM 54.1°F12.3°C 53.0°F11.7°C 96% 2.3 mph NNW3.7 kmh NNW 4.6 mph7.4 kmh 28.05 in949.9 mb - 0.00 in0.0 mm 0.00 in0.0 mm
12:08 AM 54.1°F12.3°C 53.0°F11.7°C 96% 3.5 mph NNW5.6 kmh NNW 3.5 mph5.6 kmh 28.05 in949.9 mb - 0.00 in0.0 mm 0.00 in0.0 mm
12:07 AM 54.1°F12.3°C 53.0°F11.7°C 96% 3.5 mph NW5.6 kmh NW 3.5 mph5.6 kmh 28.05 in949.9 mb - 0.00 in0.0 mm 0.00 in0.0 mm
12:06 AM 54.1°F12.3°C 53.0°F11.7°C 96% 3.5 mph NW5.6 kmh NW 5.8 mph9.3 kmh 28.05 in949.9 mb - 0.00 in0.0 mm 0.00 in0.0 mm
12:05 AM 54.1°F12.3°C 53.0°F11.7°C 96% 2.3 mph NW3.7 kmh NW 3.5 mph5.6 kmh 28.05 in949.9 mb - 0.00 in0.0 mm 0.00 in0.0 mm
12:04 AM 54.1°F12.3°C 53.0°F11.7°C 96% 2.3 mph N3.7 kmh N 2.3 mph3.7 kmh 28.05 in949.9 mb - 0.00 in0.0 mm 0.00 in0.0 mm
12:03 AM 54.1°F12.3°C 53.0°F11.7°C 96% 1.2 mph NNW1.9 kmh NNW 2.3 mph3.7 kmh 28.05 in949.9 mb - 0.00 in0.0 mm 0.00 in0.0 mm
12:02 AM 54.1°F12.3°C 53.0°F11.7°C 96% 3.5 mph WNW5.6 kmh WNW 4.6 mph7.4 kmh 28.05 in949.9 mb - 0.00 in0.0 mm 0.00 in0.0 mm
12:01 AM 54.1°F12.3°C 53.0°F11.7°C 96% 3.5 mph NW5.6 kmh NW 3.5 mph5.6 kmh 28.05 in949.9 mb - 0.00 in0.0 mm 0.00 in0.0 mm
12:00 AM 54.1°F12.3°C 53.0°F11.7°C 96% 3.5 mph NW5.6 kmh NW 4.6 mph7.4 kmh 28.05 in949.9 mb - 0.00 in0.0 mm 0.00 in0.0 mm